Darstellungsparameter: Aktuell verwendete Einstellungen:
Skalierung der Graphiken ... ?
xyx+y,   Skalierungsfaktor:      Skalierung: Modus: x, Faktor: 1
Darstellungszeitraum ... ?
Vom - - bis: - -   Zeitraum: 31.08.2009 - 30.09.2009
Min/Max/Avg-Anzeige ... ?
Zeige MMA aktuell
Zeige MMA Monat
Zeige MMA alles
Zeige --A aktuell
Zeige --A Monat
Zeige --A alles
Keine MMA-Anzeige
MMA:
Average (ber die Originaldaten)
MMA-Basis: 31.08.2009 - 30.09.2009
Quicknavigation für Darstellung... ?
Tage:      1T, 2T, 3T, 5T -1T -2T -3T -5T +1T +2T +3T +5T
Wochen: 1W, 2W, 3W -1W -2W -3W +1W +2W +3W
Monate: 1M, 3M, 6M -1M -3M -6M +1M +3M +6M
Jahre:    1J, 3J, 5J, 10J -1J -3J -5J -10J +1J +3J +5J +10J
Nutze für die Darstellung ... ?
Originaldaten oder Mittelwerte auf ...
Stundenbasis Tagesbasis Wochenbasis
Monatsbasis Jahresbasis      Datenbasis: Original-Daten
Darstellen als:
Statistik (Auto) Statistik J:M      Darstellung:
Zur Graphik,    zurück zur Übersicht aller Sensoren.
 
Tabellarische Datenbersicht: ?
 
Sensor: Nr:Datum:Temp:Abs-Feuchte:Windchill:Wind:
Aussen-T/F 1 31-08-2009 00:08:03 15.1 C 6.97 g/m*3 15.1 C 0 km/h
2 31-08-2009 00:20:03 14.8 C 7.09 g/m*3 14.8 C 0 km/h
3 31-08-2009 00:32:03 14.7 C 7.05 g/m*3 14.7 C 0 km/h
4 31-08-2009 00:44:03 14.5 C 7.09 g/m*3 14.5 C 0 km/h
5 31-08-2009 00:56:04 14.3 C 7 g/m*3 14.3 C 0 km/h
6 31-08-2009 01:08:04 14.1 C 7.28 g/m*3 14.1 C 0 km/h
7 31-08-2009 01:20:04 13.9 C 7.19 g/m*3 13.9 C 0 km/h
8 31-08-2009 01:32:04 13.7 C 7.22 g/m*3 13.7 C 0 km/h
9 31-08-2009 01:44:04 13.6 C 7.18 g/m*3 13.6 C 0 km/h
10 31-08-2009 01:56:04 13.4 C 7.21 g/m*3 13.4 C 0 km/h
11 31-08-2009 02:08:04 13.2 C 7.12 g/m*3 13.2 C 0 km/h
12 31-08-2009 02:20:04 13 C 7.14 g/m*3 13 C 0 km/h
13 31-08-2009 02:32:04 12.9 C 7.21 g/m*3 12.9 C 0 km/h
14 31-08-2009 02:44:04 12.6 C 7.19 g/m*3 12.6 C 0 km/h
15 31-08-2009 02:56:04 12.4 C 7.21 g/m*3 12.4 C 0 km/h
16 31-08-2009 03:08:04 12.3 C 7.17 g/m*3 12.3 C 0 km/h
17 31-08-2009 03:20:04 12.2 C 7.12 g/m*3 12.2 C 0 km/h
18 31-08-2009 03:32:04 12.2 C 7.12 g/m*3 12.2 C 0 km/h
19 31-08-2009 03:44:04 12.3 C 7.28 g/m*3 12.3 C 0 km/h
20 31-08-2009 03:56:04 12 C 7.25 g/m*3 12 C 0 km/h
21 31-08-2009 04:08:04 11.7 C 7.22 g/m*3 11.7 C 0 km/h
22 31-08-2009 04:20:04 11.6 C 7.17 g/m*3 11.6 C 0 km/h
23 31-08-2009 04:32:04 11.5 C 7.13 g/m*3 11.5 C 0 km/h
24 31-08-2009 04:44:05 11.4 C 7.08 g/m*3 11.4 C 0 km/h
25 31-08-2009 04:56:05 11.2 C 6.99 g/m*3 11.2 C 0 km/h
Sensor: Nr:Datum:Temp:Abs-Feuchte:Windchill:Wind:
Aussen-T/F 26 31-08-2009 05:08:05 11.1 C 7.05 g/m*3 11.1 C 0 km/h
27 31-08-2009 05:20:05 10.9 C 7.16 g/m*3 10.9 C 0 km/h
28 31-08-2009 05:32:05 10.8 C 7.12 g/m*3 10.8 C 0 km/h
29 31-08-2009 05:44:05 10.6 C 7.03 g/m*3 10.6 C 0 km/h
30 31-08-2009 05:56:05 10.6 C 7.03 g/m*3 10.6 C 0 km/h
31 31-08-2009 06:08:05 10.5 C 7.08 g/m*3 10.5 C 0 km/h
32 31-08-2009 06:20:05 10.3 C 7.09 g/m*3 10.3 C 0 km/h
33 31-08-2009 06:32:05 10.1 C 7 g/m*3 10.1 C 0 km/h
34 31-08-2009 06:44:05 10.1 C 7 g/m*3 10.1 C 0 km/h
35 31-08-2009 06:56:05 10.1 C 7 g/m*3 10.1 C 0 km/h
36 31-08-2009 07:08:05 10.2 C 7.04 g/m*3 10.2 C 0 km/h
37 31-08-2009 07:20:05 10.2 C 7.04 g/m*3 10.2 C 0 km/h
38 31-08-2009 07:32:05 10.2 C 7.04 g/m*3 10.2 C 0 km/h
39 31-08-2009 07:44:05 10.3 C 7.09 g/m*3 10.3 C 0 km/h
40 31-08-2009 07:56:05 10.4 C 7.13 g/m*3 10.4 C 0 km/h
41 31-08-2009 08:08:05 10.4 C 7.13 g/m*3 10.4 C 0 km/h
42 31-08-2009 08:20:05 10.5 C 7.18 g/m*3 10.5 C 0 km/h
43 31-08-2009 08:32:05 10.8 C 7.31 g/m*3 10.8 C 0 km/h
44 31-08-2009 08:44:06 11 C 7.21 g/m*3 11 C 0 km/h
45 31-08-2009 08:56:06 11.2 C 7.2 g/m*3 11.2 C 0 km/h
46 31-08-2009 09:08:06 11.5 C 7.33 g/m*3 11.5 C 0 km/h
47 31-08-2009 09:20:03 11.9 C 7.52 g/m*3 11.9 C 0 km/h
48 31-08-2009 09:32:03 12.5 C 7.59 g/m*3 12.5 C 0 km/h
49 31-08-2009 09:44:03 13.2 C 7.46 g/m*3 13.2 C 0 km/h
50 31-08-2009 09:56:02 13.9 C 7.43 g/m*3 13.9 C 0 km/h
Sensor: Nr:Datum:Temp:Abs-Feuchte:Windchill:Wind:
Aussen-T/F 51 31-08-2009 10:08:02 14.7 C 7.43 g/m*3 14.7 C 0 km/h
52 31-08-2009 10:20:02 15.6 C 7.45 g/m*3 15.6 C 0 km/h
53 31-08-2009 10:32:01 16.4 C 7.54 g/m*3 16.4 C 0 km/h
54 31-08-2009 10:44:01 17.1 C 7.42 g/m*3 17.1 C 0 km/h
55 31-08-2009 10:56:02 17.8 C 7.59 g/m*3 17.8 C 0 km/h
56 31-08-2009 11:08:01 18.5 C 7.59 g/m*3 18.5 C 0 km/h
57 31-08-2009 11:20:02 19.1 C 7.54 g/m*3 19.1 C 0 km/h
58 31-08-2009 11:32:01 19.7 C 7.64 g/m*3 19.7 C 0 km/h
59 31-08-2009 11:44:01 20.2 C 7.87 g/m*3 20.2 C 0 km/h
60 31-08-2009 11:56:02 21.1 C 7.37 g/m*3 21.1 C 0 km/h
61 31-08-2009 12:08:01 21.9 C 7.53 g/m*3 21.9 C 0 km/h
62 31-08-2009 12:20:01 22.5 C 7.39 g/m*3 22.5 C 0 km/h
63 31-08-2009 12:32:01 22.9 C 6.34 g/m*3 22.9 C 0 km/h
64 31-08-2009 12:44:01 23.4 C 6.52 g/m*3 23.4 C 0 km/h
65 31-08-2009 12:56:02 23.7 C 5.56 g/m*3 23.7 C 0 km/h
66 31-08-2009 13:08:02 24.5 C 5.82 g/m*3 24.5 C 0 km/h
67 31-08-2009 13:20:02 24.9 C 6.18 g/m*3 24.9 C 0 km/h
68 31-08-2009 13:32:02 25.6 C 5.71 g/m*3 25.6 C 0 km/h
69 31-08-2009 13:44:02 25.9 C 5.57 g/m*3 25.9 C 0 km/h
70 31-08-2009 13:56:02 26.6 C 5.54 g/m*3 26.6 C 0 km/h
71 31-08-2009 14:08:01 26.9 C 5.37 g/m*3 26.9 C 0 km/h
72 31-08-2009 14:20:01 27.3 C 5.23 g/m*3 27.3 C 0 km/h
73 31-08-2009 14:32:02 28 C 5.44 g/m*3 28 C 0 km/h
74 31-08-2009 14:44:02 28.2 C 5.5 g/m*3 28.2 C 0 km/h
75 31-08-2009 14:56:02 28.7 C 5.65 g/m*3 28.7 C 0 km/h
Sensor: Nr:Datum:Temp:Abs-Feuchte:Windchill:Wind:
Aussen-T/F 76 31-08-2009 15:08:02 28.4 C 5.56 g/m*3 28.4 C 0 km/h
77 31-08-2009 15:20:02 28.5 C 5.59 g/m*3 28.5 C 0 km/h
78 31-08-2009 15:32:02 29.2 C 5.81 g/m*3 29.2 C 0 km/h
79 31-08-2009 15:44:02 29.5 C 5.9 g/m*3 29.5 C 0 km/h
80 31-08-2009 15:56:01 30 C 6.06 g/m*3 30 C 0 km/h
81 31-08-2009 16:08:02 30.6 C 6.26 g/m*3 30.6 C 0 km/h
82 31-08-2009 16:20:01 31 C 6.4 g/m*3 31 C 0 km/h
83 31-08-2009 16:32:01 31.6 C 6.61 g/m*3 31.6 C 0 km/h
84 31-08-2009 16:44:02 31.5 C 6.57 g/m*3 31.5 C 0 km/h
85 31-08-2009 16:56:01 31.9 C 6.72 g/m*3 31.9 C 0 km/h
86 31-08-2009 17:08:02 31.7 C 6.64 g/m*3 31.7 C 0 km/h
87 31-08-2009 17:20:01 31.9 C 6.72 g/m*3 31.9 C 0 km/h
88 31-08-2009 17:32:02 31.9 C 6.72 g/m*3 31.9 C 0 km/h
89 31-08-2009 17:44:02 31.7 C 6.64 g/m*3 31.7 C 0 km/h
90 31-08-2009 17:56:02 31.7 C 6.64 g/m*3 31.7 C 0 km/h
91 31-08-2009 18:08:02 31.8 C 6.68 g/m*3 31.8 C 0 km/h
92 31-08-2009 18:20:01 31.7 C 6.64 g/m*3 31.7 C 0 km/h
93 31-08-2009 18:32:02 31.4 C 6.54 g/m*3 31.4 C 0 km/h
94 31-08-2009 18:44:02 31.5 C 6.57 g/m*3 31.5 C 0 km/h
95 31-08-2009 18:56:01 31 C 6.4 g/m*3 31 C 0 km/h
96 31-08-2009 19:08:02 30.9 C 6.37 g/m*3 30.9 C 0 km/h
97 31-08-2009 19:20:02 30.7 C 6.3 g/m*3 30.7 C 0 km/h
98 31-08-2009 19:32:02 30.3 C 6.16 g/m*3 30.3 C 0 km/h
99 31-08-2009 19:44:02 29.1 C 5.78 g/m*3 29.1 C 0 km/h
100 31-08-2009 19:56:01 27.2 C 5.46 g/m*3 27.2 C 0 km/h
Sensor: Nr:Datum:Temp:Abs-Feuchte:Windchill:Wind:
Aussen-T/F 101 31-08-2009 20:08:02 25.6 C 5.71 g/m*3 25.6 C 0 km/h
102 31-08-2009 20:20:02 24.5 C 5.6 g/m*3 24.5 C 0 km/h
103 31-08-2009 20:32:02 23.7 C 5.56 g/m*3 23.7 C 0 km/h
104 31-08-2009 20:44:02 22.9 C 5.52 g/m*3 22.9 C 0 km/h
105 31-08-2009 20:56:02 22.6 C 5.62 g/m*3 22.6 C 0 km/h
106 31-08-2009 21:08:02 22.3 C 5.53 g/m*3 22.3 C 0 km/h
107 31-08-2009 21:20:02 21.8 C 5.76 g/m*3 21.8 C 0 km/h
108 31-08-2009 21:32:01 21.5 C 5.66 g/m*3 21.5 C 0 km/h
109 31-08-2009 21:44:01 21.2 C 5.56 g/m*3 21.2 C 0 km/h
110 31-08-2009 21:57:02 20.8 C 5.79 g/m*3 20.8 C 0 km/h
111 31-08-2009 22:09:02 20.5 C 5.69 g/m*3 20.5 C 0 km/h
112 31-08-2009 22:21:03 20.2 C 5.77 g/m*3 20.2 C 0 km/h
113 31-08-2009 22:33:03 19.9 C 6.01 g/m*3 19.9 C 0 km/h
114 31-08-2009 22:45:03 19.7 C 5.94 g/m*3 19.7 C 0 km/h
115 31-08-2009 22:57:03 19.5 C 6.04 g/m*3 19.5 C 0 km/h
116 31-08-2009 23:09:03 19.2 C 6.27 g/m*3 19.2 C 0 km/h
117 31-08-2009 23:21:03 18.9 C 6.48 g/m*3 18.9 C 0 km/h
118 31-08-2009 23:33:03 18.6 C 6.68 g/m*3 18.6 C 0 km/h
119 31-08-2009 23:45:03 18.3 C 6.57 g/m*3 18.3 C 0 km/h
120 31-08-2009 23:57:03 18.1 C 6.49 g/m*3 18.1 C 0 km/h
121 01-09-2009 00:09:03 17.9 C 6.57 g/m*3 17.9 C 0 km/h
122 01-09-2009 00:21:03 17.7 C 6.79 g/m*3 17.7 C 0 km/h
123 01-09-2009 00:33:03 17.3 C 6.78 g/m*3 17.3 C 0 km/h
124 01-09-2009 00:45:03 17.2 C 6.74 g/m*3 17.2 C 0 km/h
125 01-09-2009 00:57:03 16.9 C 6.9 g/m*3 16.9 C 0 km/h
Sensor: Nr:Datum:Temp:Abs-Feuchte:Windchill:Wind:
Aussen-T/F 126 01-09-2009 01:09:03 16.8 C 6.86 g/m*3 16.8 C 0 km/h
127 01-09-2009 01:21:03 16.6 C 6.92 g/m*3 16.6 C 0 km/h
128 01-09-2009 01:33:03 16.4 C 6.84 g/m*3 16.4 C 0 km/h
129 01-09-2009 01:45:03 16.2 C 6.9 g/m*3 16.2 C 0 km/h
130 01-09-2009 01:57:03 16.1 C 7.13 g/m*3 16.1 C 0 km/h
131 01-09-2009 02:09:03 16.2 C 7.17 g/m*3 16.2 C 0 km/h
132 01-09-2009 02:21:04 15.9 C 7.31 g/m*3 15.9 C 0 km/h
133 01-09-2009 02:33:04 15.8 C 7.27 g/m*3 15.8 C 0 km/h
134 01-09-2009 02:45:04 15.6 C 7.31 g/m*3 15.6 C 0 km/h
135 01-09-2009 02:57:04 15.5 C 7.27 g/m*3 15.5 C 0 km/h
136 01-09-2009 03:09:04 15.4 C 7.09 g/m*3 15.4 C 0 km/h
137 01-09-2009 03:21:04 15.4 C 6.96 g/m*3 15.4 C 0 km/h
138 01-09-2009 03:33:04 15.4 C 7.09 g/m*3 15.4 C 0 km/h
139 01-09-2009 03:45:04 15.2 C 7.01 g/m*3 15.2 C 0 km/h
140 01-09-2009 03:57:04 15.2 C 7.4 g/m*3 15.2 C 0 km/h
141 01-09-2009 04:09:04 14.9 C 7.39 g/m*3 14.9 C 0 km/h
142 01-09-2009 04:21:04 14.8 C 7.6 g/m*3 14.8 C 0 km/h
143 01-09-2009 04:33:04 14.7 C 7.55 g/m*3 14.7 C 0 km/h
144 01-09-2009 04:45:04 14.4 C 7.54 g/m*3 14.4 C 0 km/h
145 01-09-2009 04:57:04 14.2 C 7.57 g/m*3 14.2 C 0 km/h
146 01-09-2009 05:09:04 14.3 C 7.62 g/m*3 14.3 C 0 km/h
147 01-09-2009 05:21:04 14.2 C 7.57 g/m*3 14.2 C 0 km/h
148 01-09-2009 05:33:04 14.1 C 7.65 g/m*3 14.1 C 0 km/h
149 01-09-2009 05:45:04 14 C 7.72 g/m*3 14 C 0 km/h
150 01-09-2009 05:57:04 13.9 C 7.79 g/m*3 13.9 C 0 km/h
Sensor: Nr:Datum:Temp:Abs-Feuchte:Windchill:Wind:
Aussen-T/F 151 01-09-2009 06:09:04 13.8 C 7.74 g/m*3 13.8 C 0 km/h
152 01-09-2009 06:21:04 13.7 C 7.82 g/m*3 13.7 C 0 km/h
153 01-09-2009 06:33:05 13.6 C 8 g/m*3 13.6 C 0 km/h
154 01-09-2009 06:45:05 13.5 C 8.07 g/m*3 13.5 C 0 km/h
155 01-09-2009 06:57:05 13.5 C 8.07 g/m*3 13.5 C 0 km/h
156 01-09-2009 07:09:01 13.6 C 8.24 g/m*3 13.6 C 0 km/h
157 01-09-2009 07:21:02 13.8 C 8.34 g/m*3 13.8 C 0 km/h
158 01-09-2009 07:33:02 13.9 C 8.39 g/m*3 13.9 C 0 km/h
159 01-09-2009 07:45:02 14 C 8.32 g/m*3 14 C 0 km/h
160 01-09-2009 07:57:03 14.1 C 8.37 g/m*3 14.1 C 0 km/h
161 01-09-2009 08:09:02 14.2 C 8.3 g/m*3 14.2 C 0 km/h
162 01-09-2009 08:21:02 14.4 C 8.53 g/m*3 14.4 C 0 km/h
163 01-09-2009 08:33:02 14.4 C 8.41 g/m*3 14.4 C 0 km/h
164 01-09-2009 08:45:02 15.1 C 8.77 g/m*3 15.1 C 0 km/h
165 01-09-2009 08:57:02 15.5 C 8.86 g/m*3 15.5 C 0 km/h
166 01-09-2009 09:09:02 15.9 C 8.94 g/m*3 15.9 C 0 km/h
167 01-09-2009 09:21:02 16.4 C 9.07 g/m*3 16.4 C 0 km/h
168 01-09-2009 09:33:01 17 C 8.97 g/m*3 17 C 0 km/h
169 01-09-2009 09:45:02 17.7 C 9.2 g/m*3 17.7 C 0 km/h
170 01-09-2009 09:57:02 18.2 C 9.17 g/m*3 18.2 C 0 km/h
171 01-09-2009 10:09:01 18.9 C 9.23 g/m*3 18.9 C 0 km/h
172 01-09-2009 10:21:01 19.6 C 9.45 g/m*3 19.6 C 0 km/h
173 01-09-2009 10:33:01 20.6 C 9.84 g/m*3 20.6 C 0 km/h
174 01-09-2009 10:45:02 23.2 C 9.77 g/m*3 23.2 C 0 km/h
175 01-09-2009 10:57:02 24.4 C 9.12 g/m*3 24.4 C 0 km/h
Sensor: Nr:Datum:Temp:Abs-Feuchte:Windchill:Wind:
Aussen-T/F 176 01-09-2009 11:09:01 25 C 8.98 g/m*3 25 C 0 km/h
177 01-09-2009 11:21:02 25.4 C 8.95 g/m*3 25.4 C 0 km/h
178 01-09-2009 11:33:02 25.7 C 8.86 g/m*3 25.7 C 0 km/h
179 01-09-2009 11:45:01 26.4 C 8.96 g/m*3 26.4 C 0 km/h
180 01-09-2009 11:57:01 26.6 C 8.81 g/m*3 26.6 C 0 km/h
181 01-09-2009 12:09:02 27.5 C 8.47 g/m*3 27.5 C 0 km/h
182 01-09-2009 12:21:01 28.3 C 8.29 g/m*3 28.3 C 0 km/h
183 01-09-2009 12:33:02 28.8 C 8.52 g/m*3 28.8 C 0 km/h
184 01-09-2009 12:45:02 28.7 C 8.48 g/m*3 28.7 C 0 km/h
185 01-09-2009 12:57:02 28.9 C 8.28 g/m*3 28.9 C 0 km/h
186 01-09-2009 13:09:02 29.1 C 8.09 g/m*3 29.1 C 0 km/h
187 01-09-2009 13:21:01 29.2 C 8.13 g/m*3 29.2 C 0 km/h
188 01-09-2009 13:33:02 29.1 C 8.66 g/m*3 29.1 C 0 km/h
189 01-09-2009 13:45:02 30 C 8.49 g/m*3 30 C 0 km/h
190 01-09-2009 13:57:02 29.9 C 8.45 g/m*3 29.9 C 0 km/h
191 01-09-2009 14:09:02 29.5 C 8.26 g/m*3 29.5 C 0 km/h
192 01-09-2009 14:21:01 29.4 C 8.51 g/m*3 29.4 C 0 km/h
193 01-09-2009 14:33:02 30.1 C 8.54 g/m*3 30.1 C 0 km/h
194 01-09-2009 14:45:02 29.9 C 8.14 g/m*3 29.9 C 0 km/h
195 01-09-2009 14:57:02 30.2 C 8.28 g/m*3 30.2 C 0 km/h
196 01-09-2009 15:09:02 29.5 C 8.26 g/m*3 29.5 C 0 km/h
197 01-09-2009 15:21:01 28.3 C 8.57 g/m*3 28.3 C 0 km/h
198 01-09-2009 15:33:02 27.8 C 8.61 g/m*3 27.8 C 0 km/h
199 01-09-2009 15:45:02 27.7 C 8.83 g/m*3 27.7 C 0 km/h
200 01-09-2009 15:57:02 27.1 C 8.8 g/m*3 27.1 C 0 km/h
Sensor: Nr:Datum:Temp:Abs-Feuchte:Windchill:Wind:
Aussen-T/F 201 01-09-2009 16:09:02 25.2 C 10.01 g/m*3 25.2 C 0 km/h
202 01-09-2009 16:21:02 24.2 C 11 g/m*3 24.2 C 0 km/h
203 01-09-2009 16:33:02 23.4 C 11.57 g/m*3 23.4 C 0 km/h
204 01-09-2009 16:45:02 23.1 C 11.37 g/m*3 23.1 C 0 km/h
205 01-09-2009 16:57:02 22.9 C 12.06 g/m*3 22.9 C 0 km/h
206 01-09-2009 17:09:02 21.4 C 12.94 g/m*3 21.4 C 0 km/h
207 01-09-2009 17:21:02 20.8 C 13.4 g/m*3 20.8 C 0 km/h
208 01-09-2009 17:33:01 20.5 C 14.06 g/m*3 20.5 C 0 km/h
209 01-09-2009 17:45:02 20.3 C 14.07 g/m*3 20.3 C 0 km/h
210 01-09-2009 17:57:02 20.3 C 14.25 g/m*3 20.3 C 0 km/h
211 01-09-2009 18:09:01 20.1 C 14.08 g/m*3 20.1 C 0 km/h
212 01-09-2009 18:21:02 20.1 C 14.25 g/m*3 20.1 C 0 km/h
213 01-09-2009 18:33:01 20 C 14.34 g/m*3 20 C 0 km/h
214 01-09-2009 18:45:02 19.9 C 14.43 g/m*3 19.9 C 0 km/h
215 01-09-2009 18:57:02 20.1 C 14.6 g/m*3 20.1 C 0 km/h
216 01-09-2009 19:09:02 20 C 14.52 g/m*3 20 C 0 km/h
217 01-09-2009 19:21:02 19.8 C 14.52 g/m*3 19.8 C 0 km/h
218 01-09-2009 19:33:03 20.1 C 14.78 g/m*3 20.1 C 0 km/h
219 01-09-2009 19:45:02 19.9 C 14.78 g/m*3 19.9 C 0 km/h
220 01-09-2009 19:57:02 20 C 14.52 g/m*3 20 C 0 km/h
221 01-09-2009 20:09:02 19.7 C 14.43 g/m*3 19.7 C 0 km/h
222 01-09-2009 20:21:02 19.8 C 14.52 g/m*3 19.8 C 0 km/h
223 01-09-2009 20:33:02 20 C 14.34 g/m*3 20 C 0 km/h
224 01-09-2009 20:45:02 19.8 C 14.35 g/m*3 19.8 C 0 km/h
225 01-09-2009 20:57:02 19.8 C 14.18 g/m*3 19.8 C 0 km/h
Sensor: Nr:Datum:Temp:Abs-Feuchte:Windchill:Wind:
Aussen-T/F 226 01-09-2009 21:10:02 19.8 C 14.18 g/m*3 19.8 C 0 km/h
227 01-09-2009 21:22:02 19.7 C 13.92 g/m*3 19.7 C 0 km/h
228 01-09-2009 21:34:02 19.7 C 13.92 g/m*3 19.7 C 0 km/h
229 01-09-2009 21:46:02 19.7 C 13.58 g/m*3 19.7 C 0 km/h
230 01-09-2009 21:58:02 19.5 C 13.26 g/m*3 19.5 C 0 km/h
231 01-09-2009 22:10:02 19.6 C 13.51 g/m*3 19.6 C 0 km/h
232 01-09-2009 22:22:02 19.5 C 13.43 g/m*3 19.5 C 0 km/h
233 01-09-2009 22:34:02 19.7 C 13.41 g/m*3 19.7 C 0 km/h
234 01-09-2009 22:46:02 19.7 C 13.25 g/m*3 19.7 C 0 km/h
235 01-09-2009 22:58:02 19.4 C 13.18 g/m*3 19.4 C 0 km/h
236 01-09-2009 23:10:02 19.3 C 13.27 g/m*3 19.3 C 0 km/h
237 01-09-2009 23:22:03 19.4 C 13.01 g/m*3 19.4 C 0 km/h
238 01-09-2009 23:34:03 19.1 C 12.62 g/m*3 19.1 C 0 km/h
239 01-09-2009 23:46:03 18.7 C 12.65 g/m*3 18.7 C 0 km/h
240 01-09-2009 23:58:03 18.5 C 12.66 g/m*3 18.5 C 0 km/h
241 02-09-2009 00:10:03 18.8 C 13.05 g/m*3 18.8 C 0 km/h
242 02-09-2009 00:22:03 18.6 C 12.73 g/m*3 18.6 C 0 km/h
243 02-09-2009 00:34:03 18.4 C 12.74 g/m*3 18.4 C 0 km/h
244 02-09-2009 00:46:03 18.2 C 12.59 g/m*3 18.2 C 0 km/h
245 02-09-2009 00:58:03 17.8 C 12.6 g/m*3 17.8 C 0 km/h
246 02-09-2009 01:10:03 17.6 C 12.6 g/m*3 17.6 C 0 km/h
247 02-09-2009 01:22:03 17.3 C 12.23 g/m*3 17.3 C 0 km/h
248 02-09-2009 01:34:03 17.2 C 12.01 g/m*3 17.2 C 0 km/h
249 02-09-2009 01:46:03 17.2 C 11.72 g/m*3 17.2 C 0 km/h
250 02-09-2009 01:58:03 17.2 C 11.72 g/m*3 17.2 C 0 km/h
Sensor: Nr:Datum:Temp:Abs-Feuchte:Windchill:Wind:
Aussen-T/F 251 02-09-2009 02:10:03 17 C 11.58 g/m*3 17 C 0 km/h
252 02-09-2009 02:22:03 17 C 11.29 g/m*3 17 C 0 km/h
253 02-09-2009 02:34:03 16.8 C 11.15 g/m*3 16.8 C 0 km/h
254 02-09-2009 02:46:03 16.8 C 11.15 g/m*3 16.8 C 0 km/h
255 02-09-2009 02:58:03 16.7 C 11.08 g/m*3 16.7 C 0 km/h
256 02-09-2009 03:10:04 16.4 C 11.17 g/m*3 16.4 C 0 km/h
257 02-09-2009 03:22:04 16.2 C 11.17 g/m*3 16.2 C 0 km/h
258 02-09-2009 03:34:04 16.4 C 11.31 g/m*3 16.4 C 0 km/h
259 02-09-2009 03:46:04 16.6 C 11.44 g/m*3 16.6 C 0 km/h
260 02-09-2009 03:58:04 16.4 C 11.17 g/m*3 16.4 C 0 km/h
261 02-09-2009 04:10:04 16.2 C 11.03 g/m*3 16.2 C 0 km/h
262 02-09-2009 04:22:04 15.9 C 11.1 g/m*3 15.9 C 0 km/h
263 02-09-2009 04:34:04 15.9 C 11.1 g/m*3 15.9 C 0 km/h
264 02-09-2009 04:46:04 15.8 C 11.04 g/m*3 15.8 C 0 km/h
265 02-09-2009 04:58:04 15.6 C 11.04 g/m*3 15.6 C 0 km/h
266 02-09-2009 05:10:04 15.5 C 10.97 g/m*3 15.5 C 0 km/h
267 02-09-2009 05:22:04 15.4 C 11.04 g/m*3 15.4 C 0 km/h
268 02-09-2009 05:34:04 15.2 C 10.9 g/m*3 15.2 C 0 km/h
269 02-09-2009 05:46:04 15.2 C 11.03 g/m*3 15.2 C 0 km/h
270 02-09-2009 05:58:04 15.3 C 11.1 g/m*3 15.3 C 0 km/h
271 02-09-2009 06:10:04 15.3 C 11.1 g/m*3 15.3 C 0 km/h
272 02-09-2009 06:22:04 15.2 C 10.9 g/m*3 15.2 C 0 km/h
273 02-09-2009 06:34:03 15.1 C 10.84 g/m*3 15.1 C 0 km/h
274 02-09-2009 06:46:02 15 C 10.77 g/m*3 15 C 0 km/h
275 02-09-2009 06:58:03 15.1 C 10.84 g/m*3 15.1 C 0 km/h
Sensor: Nr:Datum:Temp:Abs-Feuchte:Windchill:Wind:
Aussen-T/F 276 02-09-2009 07:10:01 15.2 C 10.77 g/m*3 15.2 C 0 km/h
277 02-09-2009 07:22:01 15.1 C 10.71 g/m*3 15.1 C 0 km/h
278 02-09-2009 07:34:02 15.1 C 10.71 g/m*3 15.1 C 0 km/h
279 02-09-2009 07:46:02 15.3 C 10.84 g/m*3 15.3 C 0 km/h
280 02-09-2009 07:58:02 15.5 C 10.97 g/m*3 15.5 C 0 km/h
281 02-09-2009 08:10:02 15.7 C 10.97 g/m*3 15.7 C 0 km/h
282 02-09-2009 08:22:02 15.8 C 10.9 g/m*3 15.8 C 0 km/h
283 02-09-2009 08:34:02 16 C 10.76 g/m*3 16 C 0 km/h
284 02-09-2009 08:46:01 16.5 C 10.81 g/m*3 16.5 C 0 km/h
285 02-09-2009 08:58:01 17 C 10.71 g/m*3 17 C 0 km/h
286 02-09-2009 09:10:02 17.2 C 10.54 g/m*3 17.2 C 0 km/h
287 02-09-2009 09:22:02 17.5 C 10.29 g/m*3 17.5 C 0 km/h
288 02-09-2009 09:34:01 17.9 C 10.38 g/m*3 17.9 C 0 km/h
289 02-09-2009 09:46:02 18.2 C 9.79 g/m*3 18.2 C 0 km/h
290 02-09-2009 09:58:02 18.4 C 9.59 g/m*3 18.4 C 0 km/h
291 02-09-2009 10:10:02 18.7 C 9.61 g/m*3 18.7 C 0 km/h
292 02-09-2009 10:22:02 18.9 C 9.56 g/m*3 18.9 C 0 km/h
293 02-09-2009 10:34:02 19.1 C 9.51 g/m*3 19.1 C 0 km/h
294 02-09-2009 10:46:02 19.3 C 9.45 g/m*3 19.3 C 0 km/h
295 02-09-2009 10:58:02 19.4 C 9.34 g/m*3 19.4 C 0 km/h
296 02-09-2009 11:10:01 19.8 C 9.39 g/m*3 19.8 C 0 km/h
297 02-09-2009 11:22:02 19.9 C 9.28 g/m*3 19.9 C 0 km/h
298 02-09-2009 11:34:02 20.3 C 9.15 g/m*3 20.3 C 0 km/h
299 02-09-2009 11:46:02 20.8 C 8.87 g/m*3 20.8 C 0 km/h
300 02-09-2009 11:58:02 20.8 C 8.69 g/m*3 20.8 C 0 km/h
Sensor: Nr:Datum:Temp:Abs-Feuchte:Windchill:Wind:
Aussen-T/F 301 02-09-2009 12:10:02 21.3 C 7.83 g/m*3 21.3 C 0 km/h
302 02-09-2009 12:22:02 21.9 C 8.1 g/m*3 21.9 C 0 km/h
303 02-09-2009 12:34:03 22 C 7.96 g/m*3 22 C 0 km/h
304 02-09-2009 12:46:02 21.9 C 8.3 g/m*3 21.9 C 0 km/h
305 02-09-2009 12:58:02 22 C 7.96 g/m*3 22 C 0 km/h
306 02-09-2009 13:10:02 22.1 C 6.83 g/m*3 22.1 C 0 km/h
307 02-09-2009 13:22:01 22 C 6.4 g/m*3 22 C 0 km/h
308 02-09-2009 13:34:02 23.1 C 6.61 g/m*3 23.1 C 0 km/h
309 02-09-2009 13:46:02 23.2 C 6.03 g/m*3 23.2 C 0 km/h
310 02-09-2009 13:58:02 23.2 C 6.44 g/m*3 23.2 C 0 km/h
311 02-09-2009 14:10:02 23.2 C 6.44 g/m*3 23.2 C 0 km/h
312 02-09-2009 14:22:02 23.2 C 6.65 g/m*3 23.2 C 0 km/h
313 02-09-2009 14:34:02 22.8 C 6.71 g/m*3 22.8 C 0 km/h
314 02-09-2009 14:46:02 22.5 C 6.39 g/m*3 22.5 C 0 km/h
315 02-09-2009 14:58:02 22.3 C 6.52 g/m*3 22.3 C 0 km/h
316 02-09-2009 15:10:02 22.4 C 6.55 g/m*3 22.4 C 0 km/h
317 02-09-2009 15:22:02 22.9 C 6.95 g/m*3 22.9 C 0 km/h
318 02-09-2009 15:34:02 23.3 C 7.11 g/m*3 23.3 C 0 km/h
319 02-09-2009 15:46:02 23.3 C 6.9 g/m*3 23.3 C 0 km/h
320 02-09-2009 15:58:02 23.5 C 6.77 g/m*3 23.5 C 0 km/h
321 02-09-2009 16:10:02 23.5 C 6.34 g/m*3 23.5 C 0 km/h
322 02-09-2009 16:22:02 23 C 6.17 g/m*3 23 C 0 km/h
323 02-09-2009 16:34:02 22.8 C 6.5 g/m*3 22.8 C 0 km/h
324 02-09-2009 16:46:02 22.5 C 6.19 g/m*3 22.5 C 0 km/h
325 02-09-2009 16:58:02 22.4 C 5.96 g/m*3 22.4 C 0 km/h
Sensor: Nr:Datum:Temp:Abs-Feuchte:Windchill:Wind:
Aussen-T/F 326 02-09-2009 17:10:02 22.6 C 6.23 g/m*3 22.6 C 0 km/h
327 02-09-2009 17:22:03 22.1 C 5.86 g/m*3 22.1 C 0 km/h
328 02-09-2009 17:34:02 22.1 C 6.05 g/m*3 22.1 C 0 km/h
329 02-09-2009 17:46:02 22.2 C 6.09 g/m*3 22.2 C 0 km/h
330 02-09-2009 17:58:02 22 C 6.02 g/m*3 22 C 0 km/h
331 02-09-2009 18:10:02 21.7 C 6.1 g/m*3 21.7 C 0 km/h
332 02-09-2009 18:22:02 21.6 C 6.26 g/m*3 21.6 C 0 km/h
333 02-09-2009 18:34:02 22 C 6.02 g/m*3 22 C 0 km/h
334 02-09-2009 18:46:02 22.9 C 6.13 g/m*3 22.9 C 0 km/h
335 02-09-2009 18:58:02 21.6 C 5.88 g/m*3 21.6 C 0 km/h
336 02-09-2009 19:10:02 21.1 C 5.71 g/m*3 21.1 C 0 km/h
337 02-09-2009 19:22:02 20.9 C 6.01 g/m*3 20.9 C 0 km/h
338 02-09-2009 19:34:01 20.5 C 6.23 g/m*3 20.5 C 0 km/h
339 02-09-2009 19:46:02 20 C 6.22 g/m*3 20 C 0 km/h
340 02-09-2009 19:58:02 19.4 C 6.34 g/m*3 19.4 C 0 km/h
341 02-09-2009 20:10:01 18.8 C 6.44 g/m*3 18.8 C 0 km/h
342 02-09-2009 20:22:02 18.3 C 6.57 g/m*3 18.3 C 0 km/h
343 02-09-2009 20:34:02 17.9 C 6.57 g/m*3 17.9 C 0 km/h
344 02-09-2009 20:46:02 17.7 C 6.79 g/m*3 17.7 C 0 km/h
345 02-09-2009 20:58:02 17.9 C 6.87 g/m*3 17.9 C 0 km/h
346 02-09-2009 21:10:03 18.1 C 6.95 g/m*3 18.1 C 0 km/h
347 02-09-2009 21:22:02 18.1 C 6.95 g/m*3 18.1 C 0 km/h
348 02-09-2009 21:34:02 18.1 C 7.11 g/m*3 18.1 C 0 km/h
349 02-09-2009 21:46:01 18 C 7.07 g/m*3 18 C 0 km/h
350 02-09-2009 21:58:01 17.9 C 7.33 g/m*3 17.9 C 0 km/h
Sensor: Nr:Datum:Temp:Abs-Feuchte:Windchill:Wind:
Aussen-T/F 351 02-09-2009 22:10:02 17.8 C 7.29 g/m*3 17.8 C 0 km/h
352 02-09-2009 22:23:02 16.9 C 8.05 g/m*3 16.9 C 0 km/h
353 02-09-2009 22:35:02 16.2 C 9.52 g/m*3 16.2 C 0 km/h
354 02-09-2009 22:47:03 15.3 C 9.53 g/m*3 15.3 C 0 km/h
355 02-09-2009 22:59:03 15.7 C 10.3 g/m*3 15.7 C 0 km/h
356 02-09-2009 23:11:03 16 C 10.08 g/m*3 16 C 0 km/h
357 02-09-2009 23:23:03 16.2 C 9.79 g/m*3 16.2 C 0 km/h
358 02-09-2009 23:35:03 16 C 9.4 g/m*3 16 C 0 km/h
359 02-09-2009 23:47:03 16 C 9.4 g/m*3 16 C 0 km/h
360 02-09-2009 23:59:03 16.2 C 9.38 g/m*3 16.2 C 0 km/h
361 03-09-2009 00:11:03 16.2 C 9.65 g/m*3 16.2 C 0 km/h
362 03-09-2009 00:23:03 16.4 C 9.21 g/m*3 16.4 C 0 km/h
363 03-09-2009 00:35:03 16.6 C 9.04 g/m*3 16.6 C 0 km/h
364 03-09-2009 00:47:03 16.7 C 8.95 g/m*3 16.7 C 0 km/h
365 03-09-2009 00:59:03 16.8 C 9.15 g/m*3 16.8 C 0 km/h
366 03-09-2009 01:11:03 16.6 C 9.04 g/m*3 16.6 C 0 km/h
367 03-09-2009 01:23:03 16.5 C 8.99 g/m*3 16.5 C 0 km/h
368 03-09-2009 01:35:03 16.6 C 9.04 g/m*3 16.6 C 0 km/h
369 03-09-2009 01:47:03 16.5 C 8.99 g/m*3 16.5 C 0 km/h
370 03-09-2009 01:59:03 16.5 C 8.99 g/m*3 16.5 C 0 km/h
371 03-09-2009 02:11:03 16.4 C 9.07 g/m*3 16.4 C 0 km/h
372 03-09-2009 02:23:03 16.5 C 8.99 g/m*3 16.5 C 0 km/h
373 03-09-2009 02:35:04 15.6 C 9.44 g/m*3 15.6 C 0 km/h
374 03-09-2009 02:47:04 15 C 9.75 g/m*3 15 C 0 km/h
375 03-09-2009 02:59:04 15 C 10 g/m*3 15 C 0 km/h
Sensor: Nr:Datum:Temp:Abs-Feuchte:Windchill:Wind:
Aussen-T/F 376 03-09-2009 03:11:04 15 C 10.26 g/m*3 15 C 0 km/h
377 03-09-2009 03:23:04 14.9 C 10.58 g/m*3 14.9 C 0 km/h
378 03-09-2009 03:35:04 15 C 10.51 g/m*3 15 C 0 km/h
379 03-09-2009 03:47:04 15.1 C 10.58 g/m*3 15.1 C 0 km/h
380 03-09-2009 03:59:04 15.1 C 10.58 g/m*3 15.1 C 0 km/h
381 03-09-2009 04:11:04 15.3 C 10.45 g/m*3 15.3 C 0 km/h
382 03-09-2009 04:23:04 15.3 C 10.45 g/m*3 15.3 C 0 km/h
383 03-09-2009 04:35:04 15.3 C 10.45 g/m*3 15.3 C 0 km/h
384 03-09-2009 04:47:04 15.4 C 10.51 g/m*3 15.4 C 0 km/h
385 03-09-2009 04:59:04 15 C 10.39 g/m*3 15 C 0 km/h
386 03-09-2009 05:11:04 15 C 10.64 g/m*3 15 C 0 km/h
387 03-09-2009 05:23:04 14.9 C 10.83 g/m*3 14.9 C 0 km/h
388 03-09-2009 05:35:04 14.8 C 10.89 g/m*3 14.8 C 0 km/h
389 03-09-2009 05:47:04 14.8 C 10.89 g/m*3 14.8 C 0 km/h
390 03-09-2009 05:59:04 14.7 C 10.83 g/m*3 14.7 C 0 km/h
391 03-09-2009 06:11:04 14.7 C 11.08 g/m*3 14.7 C 0 km/h
392 03-09-2009 06:23:05 14.7 C 11.08 g/m*3 14.7 C 0 km/h
393 03-09-2009 06:35:05 15 C 11.16 g/m*3 15 C 0 km/h
394 03-09-2009 06:47:05 15 C 11.16 g/m*3 15 C 0 km/h
395 03-09-2009 06:59:05 14.8 C 11.15 g/m*3 14.8 C 0 km/h
396 03-09-2009 07:11:02 14.8 C 11.15 g/m*3 14.8 C 0 km/h
397 03-09-2009 07:23:03 14.7 C 11.21 g/m*3 14.7 C 0 km/h
398 03-09-2009 07:35:02 14.9 C 11.47 g/m*3 14.9 C 0 km/h
399 03-09-2009 07:47:02 15.2 C 11.68 g/m*3 15.2 C 0 km/h
400 03-09-2009 07:59:02 15.4 C 11.69 g/m*3 15.4 C 0 km/h
Sensor: Nr:Datum:Temp:Abs-Feuchte:Windchill:Wind:
Aussen-T/F 401 03-09-2009 08:11:02 15.6 C 11.7 g/m*3 15.6 C 0 km/h
402 03-09-2009 08:23:02 15.7 C 11.64 g/m*3 15.7 C 0 km/h
403 03-09-2009 08:35:03 15.8 C 11.44 g/m*3 15.8 C 0 km/h
404 03-09-2009 08:47:02 15.8 C 11.44 g/m*3 15.8 C 0 km/h
405 03-09-2009 08:59:03 15.7 C 11.51 g/m*3 15.7 C 0 km/h
406 03-09-2009 09:11:01 16 C 11.31 g/m*3 16 C 0 km/h
407 03-09-2009 09:23:01 16.4 C 11.17 g/m*3 16.4 C 0 km/h
408 03-09-2009 09:35:02 16.8 C 11.15 g/m*3 16.8 C 0 km/h
409 03-09-2009 09:47:02 17.7 C 10.71 g/m*3 17.7 C 0 km/h
410 03-09-2009 09:59:02 17.8 C 10.62 g/m*3 17.8 C 0 km/h
411 03-09-2009 10:11:02 17.9 C 10.38 g/m*3 17.9 C 0 km/h
412 03-09-2009 10:23:01 18.3 C 10.01 g/m*3 18.3 C 0 km/h
413 03-09-2009 10:35:02 18.6 C 10.03 g/m*3 18.6 C 0 km/h
414 03-09-2009 10:47:01 17 C 10.56 g/m*3 17 C 0 km/h
415 03-09-2009 10:59:01 17.2 C 10.98 g/m*3 17.2 C 0 km/h
416 03-09-2009 11:11:02 17.7 C 10.11 g/m*3 17.7 C 0 km/h
417 03-09-2009 11:23:02 18 C 9.37 g/m*3 18 C 0 km/h
418 03-09-2009 11:35:02 18.2 C 8.7 g/m*3 18.2 C 0 km/h
419 03-09-2009 11:47:01 18.8 C 8.86 g/m*3 18.8 C 0 km/h
420 03-09-2009 11:59:01 18.5 C 8.39 g/m*3 18.5 C 0 km/h
421 03-09-2009 12:11:02 18.7 C 7.68 g/m*3 18.7 C 0 km/h
422 03-09-2009 12:23:02 19.2 C 7.26 g/m*3 19.2 C 0 km/h
423 03-09-2009 12:35:02 19.4 C 6.84 g/m*3 19.4 C 0 km/h
424 03-09-2009 12:47:02 19.3 C 6.47 g/m*3 19.3 C 0 km/h
425 03-09-2009 12:59:02 19.5 C 6.38 g/m*3 19.5 C 0 km/h
Sensor: Nr:Datum:Temp:Abs-Feuchte:Windchill:Wind:
Aussen-T/F 426 03-09-2009 13:11:01 19.4 C 6.17 g/m*3 19.4 C 0 km/h
427 03-09-2009 13:23:02 19.7 C 6.62 g/m*3 19.7 C 0 km/h
428 03-09-2009 13:35:01 19.5 C 6.21 g/m*3 19.5 C 0 km/h
429 03-09-2009 13:47:02 19.9 C 6.36 g/m*3 19.9 C 0 km/h
430 03-09-2009 13:59:02 20.6 C 6.44 g/m*3 20.6 C 0 km/h
431 03-09-2009 14:11:01 20.8 C 6.34 g/m*3 20.8 C 0 km/h
432 03-09-2009 14:23:02 20.9 C 6.37 g/m*3 20.9 C 0 km/h
433 03-09-2009 14:35:01 21.4 C 6.19 g/m*3 21.4 C 0 km/h
434 03-09-2009 14:47:02 21.3 C 5.96 g/m*3 21.3 C 0 km/h
435 03-09-2009 14:59:03 20.8 C 5.98 g/m*3 20.8 C 0 km/h
436 03-09-2009 15:11:02 21.8 C 5.76 g/m*3 21.8 C 0 km/h
437 03-09-2009 15:23:02 22.5 C 5.79 g/m*3 22.5 C 0 km/h
438 03-09-2009 15:35:02 22.5 C 5.19 g/m*3 22.5 C 0 km/h
439 03-09-2009 15:47:02 21.7 C 4.96 g/m*3 21.7 C 0 km/h
440 03-09-2009 15:59:02 21.8 C 5.37 g/m*3 21.8 C 0 km/h
441 03-09-2009 16:11:02 20.8 C 5.43 g/m*3 20.8 C 0 km/h
442 03-09-2009 16:23:01 20.3 C 5.63 g/m*3 20.3 C 0 km/h
443 03-09-2009 16:35:02 20.2 C 5.6 g/m*3 20.2 C 0 km/h
444 03-09-2009 16:47:02 20.1 C 5.56 g/m*3 20.1 C 0 km/h
445 03-09-2009 16:59:02 19.9 C 5.84 g/m*3 19.9 C 0 km/h
446 03-09-2009 17:11:02 19.7 C 5.77 g/m*3 19.7 C 0 km/h
447 03-09-2009 17:23:02 19.6 C 5.91 g/m*3 19.6 C 0 km/h
448 03-09-2009 17:35:02 19.6 C 5.91 g/m*3 19.6 C 0 km/h
449 03-09-2009 17:47:02 19.5 C 5.87 g/m*3 19.5 C 0 km/h
450 03-09-2009 17:59:02 19.4 C 5.84 g/m*3 19.4 C 0 km/h
Sensor: Nr:Datum:Temp:Abs-Feuchte:Windchill:Wind:
Aussen-T/F 451 03-09-2009 18:11:02 18.5 C 6.65 g/m*3 18.5 C 0 km/h
452 03-09-2009 18:23:02 17.6 C 7.5 g/m*3 17.6 C 0 km/h
453 03-09-2009 18:35:02 18.1 C 7.42 g/m*3 18.1 C 0 km/h
454 03-09-2009 18:47:02 18.3 C 7.19 g/m*3 18.3 C 0 km/h
455 03-09-2009 18:59:02 18.2 C 7.15 g/m*3 18.2 C 0 km/h
456 03-09-2009 19:11:02 18.4 C 7.39 g/m*3 18.4 C 0 km/h
457 03-09-2009 19:23:02 18 C 7.22 g/m*3 18 C 0 km/h
458 03-09-2009 19:35:02 17.7 C 7.09 g/m*3 17.7 C 0 km/h
459 03-09-2009 19:47:02 17.7 C 7.09 g/m*3 17.7 C 0 km/h
460 03-09-2009 19:59:02 17.5 C 7.01 g/m*3 17.5 C 0 km/h
461 03-09-2009 20:11:02 17.5 C 7.01 g/m*3 17.5 C 0 km/h
462 03-09-2009 20:23:03 17.5 C 7.01 g/m*3 17.5 C 0 km/h
463 03-09-2009 20:35:02 17.5 C 7.01 g/m*3 17.5 C 0 km/h
464 03-09-2009 20:47:03 17.3 C 6.78 g/m*3 17.3 C 0 km/h
465 03-09-2009 20:59:03 17.1 C 6.7 g/m*3 17.1 C 0 km/h
466 03-09-2009 21:11:02 17.1 C 6.55 g/m*3 17.1 C 0 km/h
467 03-09-2009 21:23:02 17.1 C 6.55 g/m*3 17.1 C 0 km/h
468 03-09-2009 21:35:02 17 C 6.51 g/m*3 17 C 0 km/h
469 03-09-2009 21:48:04 17 C 6.51 g/m*3 17 C 0 km/h
470 03-09-2009 22:00:04 16.6 C 6.5 g/m*3 16.6 C 0 km/h
471 03-09-2009 22:12:04 16.4 C 6.7 g/m*3 16.4 C 0 km/h
472 03-09-2009 22:24:04 16.2 C 6.62 g/m*3 16.2 C 0 km/h
473 03-09-2009 22:36:04 16.2 C 6.62 g/m*3 16.2 C 0 km/h
474 03-09-2009 22:48:04 16.3 C 6.52 g/m*3 16.3 C 0 km/h
475 03-09-2009 23:00:04 16.3 C 6.66 g/m*3 16.3 C 0 km/h
Sensor: Nr:Datum:Temp:Abs-Feuchte:Windchill:Wind:
Aussen-T/F 476 03-09-2009 23:12:04 16.1 C 6.58 g/m*3 16.1 C 0 km/h
477 03-09-2009 23:24:04 16.2 C 6.76 g/m*3 16.2 C 0 km/h
478 03-09-2009 23:36:04 16.2 C 6.9 g/m*3 16.2 C 0 km/h
479 03-09-2009 23:48:05 16.2 C 6.9 g/m*3 16.2 C 0 km/h
480 04-09-2009 00:00:05 16.1 C 6.72 g/m*3 16.1 C 0 km/h
481 04-09-2009 00:12:05 16.1 C 6.72 g/m*3 16.1 C 0 km/h
482 04-09-2009 00:24:05 16.1 C 6.58 g/m*3 16.1 C 0 km/h
483 04-09-2009 00:36:05 16 C 6.54 g/m*3 16 C 0 km/h
484 04-09-2009 00:48:05 15.9 C 6.64 g/m*3 15.9 C 0 km/h
485 04-09-2009 01:00:05 15.8 C 6.73 g/m*3 15.8 C 0 km/h
486 04-09-2009 01:12:05 15.7 C 6.82 g/m*3 15.7 C 0 km/h
487 04-09-2009 01:24:05 15.6 C 6.92 g/m*3 15.6 C 0 km/h
488 04-09-2009 01:36:05 15.6 C 7.05 g/m*3 15.6 C 0 km/h
489 04-09-2009 01:48:05 15.6 C 7.18 g/m*3 15.6 C 0 km/h
490 04-09-2009 02:00:05 15.5 C 7.27 g/m*3 15.5 C 0 km/h
491 04-09-2009 02:12:05 15.4 C 7.36 g/m*3 15.4 C 0 km/h
492 04-09-2009 02:24:05 15.2 C 7.53 g/m*3 15.2 C 0 km/h
493 04-09-2009 02:36:05 15.1 C 7.48 g/m*3 15.1 C 0 km/h
494 04-09-2009 02:48:05 15.1 C 7.61 g/m*3 15.1 C 0 km/h
495 04-09-2009 03:00:05 15.1 C 7.61 g/m*3 15.1 C 0 km/h
496 04-09-2009 03:12:05 15.1 C 7.61 g/m*3 15.1 C 0 km/h
497 04-09-2009 03:24:05 15.1 C 7.61 g/m*3 15.1 C 0 km/h
498 04-09-2009 03:36:05 15 C 7.69 g/m*3 15 C 0 km/h
499 04-09-2009 03:48:06 15.1 C 7.87 g/m*3 15.1 C 0 km/h
500 04-09-2009 04:00:06 15 C 7.82 g/m*3 15 C 0 km/h
Sensor: Nr:Datum:Temp:Abs-Feuchte:Windchill:Wind:
Aussen-T/F 501 04-09-2009 04:12:06 15 C 7.82 g/m*3 15 C 0 km/h
502 04-09-2009 04:24:06 15 C 7.95 g/m*3 15 C 0 km/h
503 04-09-2009 04:36:06 15 C 7.95 g/m*3 15 C 0 km/h
504 04-09-2009 04:48:06 14.9 C 7.9 g/m*3 14.9 C 0 km/h
505 04-09-2009 05:00:06 14.8 C 7.73 g/m*3 14.8 C 0 km/h
506 04-09-2009 05:12:06 14.8 C 7.73 g/m*3 14.8 C 0 km/h
507 04-09-2009 05:24:06 14.6 C 7.76 g/m*3 14.6 C 0 km/h
508 04-09-2009 05:36:06 14.5 C 7.71 g/m*3 14.5 C 0 km/h
509 04-09-2009 05:48:06 14.3 C 7.74 g/m*3 14.3 C 0 km/h
510 04-09-2009 06:00:06 14 C 7.72 g/m*3 14 C 0 km/h
511 04-09-2009 06:12:06 13.8 C 7.63 g/m*3 13.8 C 0 km/h
512 04-09-2009 06:24:06 13.7 C 7.46 g/m*3 13.7 C 0 km/h
513 04-09-2009 06:36:04 13.6 C 7.53 g/m*3 13.6 C 0 km/h
514 04-09-2009 06:48:02 13.7 C 7.58 g/m*3 13.7 C 0 km/h
515 04-09-2009 07:00:02 13.7 C 7.58 g/m*3 13.7 C 0 km/h
516 04-09-2009 07:12:03 13.8 C 7.63 g/m*3 13.8 C 0 km/h
517 04-09-2009 07:24:02 13.7 C 7.58 g/m*3 13.7 C 0 km/h
518 04-09-2009 07:36:01 13.4 C 7.44 g/m*3 13.4 C 0 km/h
519 04-09-2009 07:48:02 13.3 C 7.39 g/m*3 13.3 C 0 km/h
520 04-09-2009 08:00:02 13.2 C 7.35 g/m*3 13.2 C 0 km/h
521 04-09-2009 08:12:01 13.3 C 7.39 g/m*3 13.3 C 0 km/h
522 04-09-2009 08:24:02 13.5 C 7.37 g/m*3 13.5 C 0 km/h
523 04-09-2009 08:36:01 13.8 C 7.27 g/m*3 13.8 C 0 km/h
524 04-09-2009 08:48:01 13.9 C 7.31 g/m*3 13.9 C 0 km/h
525 04-09-2009 09:00:01 13.8 C 7.27 g/m*3 13.8 C 0 km/h
Sensor: Nr:Datum:Temp:Abs-Feuchte:Windchill:Wind:
Aussen-T/F 526 04-09-2009 09:12:01 13.9 C 7.31 g/m*3 13.9 C 0 km/h
527 04-09-2009 09:24:01 14 C 7.12 g/m*3 14 C 0 km/h
528 04-09-2009 09:36:01 14.2 C 7.2 g/m*3 14.2 C 0 km/h
529 04-09-2009 09:48:02 14.4 C 7.17 g/m*3 14.4 C 0 km/h
530 04-09-2009 10:00:02 14.7 C 6.92 g/m*3 14.7 C 0 km/h
531 04-09-2009 10:12:03 15.2 C 6.88 g/m*3 15.2 C 0 km/h
532 04-09-2009 10:24:02 15.5 C 6.74 g/m*3 15.5 C 0 km/h
533 04-09-2009 10:36:02 16.5 C 6.6 g/m*3 16.5 C 0 km/h
534 04-09-2009 10:48:01 17 C 6.66 g/m*3 17 C 0 km/h
535 04-09-2009 11:00:01 17.2 C 6.74 g/m*3 17.2 C 0 km/h
536 04-09-2009 11:12:01 17.5 C 6.86 g/m*3 17.5 C 0 km/h
537 04-09-2009 11:24:01 17.7 C 6.79 g/m*3 17.7 C 0 km/h
538 04-09-2009 11:36:01 18 C 6.45 g/m*3 18 C 0 km/h
539 04-09-2009 11:48:01 17.8 C 6.53 g/m*3 17.8 C 0 km/h
540 04-09-2009 12:00:01 17.6 C 6.75 g/m*3 17.6 C 0 km/h
541 04-09-2009 12:12:01 17.7 C 6.79 g/m*3 17.7 C 0 km/h
542 04-09-2009 12:24:02 17.7 C 6.79 g/m*3 17.7 C 0 km/h
543 04-09-2009 12:36:01 17.6 C 6.9 g/m*3 17.6 C 0 km/h
544 04-09-2009 12:48:02 17.3 C 6.78 g/m*3 17.3 C 0 km/h
545 04-09-2009 13:00:02 16.8 C 7.15 g/m*3 16.8 C 0 km/h
546 04-09-2009 13:12:02 16.2 C 7.72 g/m*3 16.2 C 0 km/h
547 04-09-2009 13:24:03 15.6 C 8.51 g/m*3 15.6 C 0 km/h
548 04-09-2009 13:36:02 15.8 C 9.02 g/m*3 15.8 C 0 km/h
549 04-09-2009 13:48:02 15.5 C 8.99 g/m*3 15.5 C 0 km/h
550 04-09-2009 14:00:02 14.3 C 9.21 g/m*3 14.3 C 0 km/h
Sensor: Nr:Datum:Temp:Abs-Feuchte:Windchill:Wind:
Aussen-T/F 551 04-09-2009 14:12:02 14.1 C 9.71 g/m*3 14.1 C 0 km/h
552 04-09-2009 14:24:02 14 C 10.01 g/m*3 14 C 0 km/h
553 04-09-2009 14:36:02 13.8 C 10.13 g/m*3 13.8 C 0 km/h
554 04-09-2009 14:48:02 13.8 C 10.37 g/m*3 13.8 C 0 km/h
555 04-09-2009 15:00:02 13.7 C 10.42 g/m*3 13.7 C 0 km/h
556 04-09-2009 15:12:01 13.8 C 10.6 g/m*3 13.8 C 0 km/h
557 04-09-2009 15:24:02 13.8 C 10.72 g/m*3 13.8 C 0 km/h
558 04-09-2009 15:36:02 14 C 10.86 g/m*3 14 C 0 km/h
559 04-09-2009 15:48:01 14.1 C 10.92 g/m*3 14.1 C 0 km/h
560 04-09-2009 16:00:02 14.5 C 11.19 g/m*3 14.5 C 0 km/h
561 04-09-2009 16:12:01 14.9 C 11.47 g/m*3 14.9 C 0 km/h
562 04-09-2009 16:24:01 15.5 C 11.76 g/m*3 15.5 C 0 km/h
563 04-09-2009 16:36:02 15.8 C 11.04 g/m*3 15.8 C 0 km/h
564 04-09-2009 16:48:02 15.6 C 10.51 g/m*3 15.6 C 0 km/h
565 04-09-2009 17:00:02 16 C 10.63 g/m*3 16 C 0 km/h
566 04-09-2009 17:12:02 15.7 C 10.7 g/m*3 15.7 C 0 km/h
567 04-09-2009 17:24:02 15.1 C 10.19 g/m*3 15.1 C 0 km/h
568 04-09-2009 17:36:02 14.4 C 10.38 g/m*3 14.4 C 0 km/h
569 04-09-2009 17:48:02 14.2 C 10.38 g/m*3 14.2 C 0 km/h
570 04-09-2009 18:00:02 14 C 10.25 g/m*3 14 C 0 km/h
571 04-09-2009 18:12:02 14.2 C 10.5 g/m*3 14.2 C 0 km/h
572 04-09-2009 18:24:02 14.5 C 10.82 g/m*3 14.5 C 0 km/h
573 04-09-2009 18:36:02 14.2 C 10.5 g/m*3 14.2 C 0 km/h
574 04-09-2009 18:48:02 14 C 9.77 g/m*3 14 C 0 km/h
575 04-09-2009 19:00:02 14.1 C 9.95 g/m*3 14.1 C 0 km/h
Sensor: Nr:Datum:Temp:Abs-Feuchte:Windchill:Wind:
Aussen-T/F 576 04-09-2009 19:12:03 14.6 C 9.89 g/m*3 14.6 C 0 km/h
577 04-09-2009 19:24:02 15 C 9.1 g/m*3 15 C 0 km/h
578 04-09-2009 19:36:02 14.5 C 8.46 g/m*3 14.5 C 0 km/h
579 04-09-2009 19:48:01 13.9 C 7.79 g/m*3 13.9 C 0 km/h
580 04-09-2009 20:00:01 13.3 C 8.2 g/m*3 13.3 C 0 km/h
581 04-09-2009 20:12:02 12.7 C 8.13 g/m*3 12.7 C 0 km/h
582 04-09-2009 20:24:02 12.3 C 8.25 g/m*3 12.3 C 0 km/h
583 04-09-2009 20:36:01 11.9 C 8.37 g/m*3 11.9 C 0 km/h
584 04-09-2009 20:48:01 12 C 7.99 g/m*3 12 C 0 km/h
585 04-09-2009 21:00:01 12.3 C 7.82 g/m*3 12.3 C 0 km/h
586 04-09-2009 21:12:01 12.5 C 7.81 g/m*3 12.5 C 0 km/h
587 04-09-2009 21:24:02 12.5 C 7.7 g/m*3 12.5 C 0 km/h
588 04-09-2009 21:36:01 12.4 C 7.76 g/m*3 12.4 C 0 km/h
589 04-09-2009 21:49:02 12.5 C 7.81 g/m*3 12.5 C 0 km/h
590 04-09-2009 22:01:02 12.4 C 7.76 g/m*3 12.4 C 0 km/h
591 04-09-2009 22:13:02 12 C 7.67 g/m*3 12 C 0 km/h
592 04-09-2009 22:25:02 11.8 C 7.89 g/m*3 11.8 C 0 km/h
593 04-09-2009 22:37:02 11.9 C 7.94 g/m*3 11.9 C 0 km/h
594 04-09-2009 22:49:02 11.9 C 8.05 g/m*3 11.9 C 0 km/h
595 04-09-2009 23:01:02 11.9 C 8.05 g/m*3 11.9 C 0 km/h
596 04-09-2009 23:13:02 12.1 C 7.94 g/m*3 12.1 C 0 km/h
597 04-09-2009 23:25:02 12.5 C 7.81 g/m*3 12.5 C 0 km/h
598 04-09-2009 23:37:02 12.4 C 7.54 g/m*3 12.4 C 0 km/h
599 04-09-2009 23:49:02 12.5 C 7.59 g/m*3 12.5 C 0 km/h
600 05-09-2009 00:01:02 12.7 C 7.68 g/m*3 12.7 C 0 km/h
Sensor: Nr:Datum:Temp:Abs-Feuchte:Windchill:Wind:
Aussen-T/F 601 05-09-2009 00:13:02 12.8 C 7.73 g/m*3 12.8 C 0 km/h
602 05-09-2009 00:25:03 12.8 C 7.84 g/m*3 12.8 C 0 km/h
603 05-09-2009 00:37:03 12.9 C 7.78 g/m*3 12.9 C 0 km/h
604 05-09-2009 00:49:03 12.7 C 7.79 g/m*3 12.7 C 0 km/h
605 05-09-2009 01:01:03 12.5 C 7.81 g/m*3 12.5 C 0 km/h
606 05-09-2009 01:13:03 12.5 C 7.81 g/m*3 12.5 C 0 km/h
607 05-09-2009 01:25:03 12.5 C 7.7 g/m*3 12.5 C 0 km/h
608 05-09-2009 01:37:03 12.6 C 7.74 g/m*3 12.6 C 0 km/h
609 05-09-2009 01:49:03 12.5 C 7.7 g/m*3 12.5 C 0 km/h
610 05-09-2009 02:01:03 12.5 C 7.7 g/m*3 12.5 C 0 km/h
611 05-09-2009 02:13:03 12.6 C 7.63 g/m*3 12.6 C 0 km/h
612 05-09-2009 02:25:03 12.5 C 7.7 g/m*3 12.5 C 0 km/h
613 05-09-2009 02:37:03 12.5 C 7.7 g/m*3 12.5 C 0 km/h
614 05-09-2009 02:49:03 12.6 C 7.63 g/m*3 12.6 C 0 km/h
615 05-09-2009 03:01:03 12.6 C 7.74 g/m*3 12.6 C 0 km/h
616 05-09-2009 03:13:03 12.7 C 7.68 g/m*3 12.7 C 0 km/h
617 05-09-2009 03:25:03 12.8 C 7.73 g/m*3 12.8 C 0 km/h
618 05-09-2009 03:37:03 12.7 C 7.79 g/m*3 12.7 C 0 km/h
619 05-09-2009 03:49:03 12.7 C 7.79 g/m*3 12.7 C 0 km/h
620 05-09-2009 04:01:03 12.8 C 7.84 g/m*3 12.8 C 0 km/h
621 05-09-2009 04:13:04 12.8 C 7.73 g/m*3 12.8 C 0 km/h
622 05-09-2009 04:25:04 12.8 C 7.84 g/m*3 12.8 C 0 km/h
623 05-09-2009 04:37:04 12.7 C 7.79 g/m*3 12.7 C 0 km/h
624 05-09-2009 04:49:04 12.7 C 7.79 g/m*3 12.7 C 0 km/h
625 05-09-2009 05:01:04 12.7 C 7.79 g/m*3 12.7 C 0 km/h
Sensor: Nr:Datum:Temp:Abs-Feuchte:Windchill:Wind:
Aussen-T/F 626 05-09-2009 05:13:04 12.7 C 7.79 g/m*3 12.7 C 0 km/h
627 05-09-2009 05:25:04 12.6 C 7.85 g/m*3 12.6 C 0 km/h
628 05-09-2009 05:37:04 12.6 C 7.85 g/m*3 12.6 C 0 km/h
629 05-09-2009 05:49:04 12.6 C 7.85 g/m*3 12.6 C 0 km/h
630 05-09-2009 06:01:04 12.7 C 7.79 g/m*3 12.7 C 0 km/h
631 05-09-2009 06:13:04 12.5 C 7.7 g/m*3 12.5 C 0 km/h
632 05-09-2009 06:25:04 12.3 C 7.82 g/m*3 12.3 C 0 km/h
633 05-09-2009 06:37:04 12.4 C 7.87 g/m*3 12.4 C 0 km/h
634 05-09-2009 06:49:04 12.5 C 7.81 g/m*3 12.5 C 0 km/h
635 05-09-2009 07:01:04 12.6 C 7.85 g/m*3 12.6 C 0 km/h
636 05-09-2009 07:13:04 12.7 C 7.79 g/m*3 12.7 C 0 km/h
637 05-09-2009 07:25:04 12.5 C 7.7 g/m*3 12.5 C 0 km/h
638 05-09-2009 07:37:04 12.5 C 7.81 g/m*3 12.5 C 0 km/h
639 05-09-2009 07:49:04 12.4 C 7.76 g/m*3 12.4 C 0 km/h
640 05-09-2009 08:01:05 12.4 C 7.87 g/m*3 12.4 C 0 km/h
641 05-09-2009 08:13:05 12.6 C 7.97 g/m*3 12.6 C 0 km/h
642 05-09-2009 08:25:05 12.6 C 7.97 g/m*3 12.6 C 0 km/h
643 05-09-2009 08:37:05 13.1 C 7.99 g/m*3 13.1 C 0 km/h
644 05-09-2009 08:49:05 13.2 C 7.92 g/m*3 13.2 C 0 km/h
645 05-09-2009 09:01:02 13.6 C 8.12 g/m*3 13.6 C 0 km/h
646 05-09-2009 09:13:02 14.1 C 8.01 g/m*3 14.1 C 0 km/h
647 05-09-2009 09:25:01 14.7 C 7.93 g/m*3 14.7 C 0 km/h
648 05-09-2009 09:37:02 14.7 C 7.81 g/m*3 14.7 C 0 km/h
649 05-09-2009 09:49:02 15.1 C 7.87 g/m*3 15.1 C 0 km/h
650 05-09-2009 10:01:02 15.4 C 8.01 g/m*3 15.4 C 0 km/h
Sensor: Nr:Datum:Temp:Abs-Feuchte:Windchill:Wind:
Aussen-T/F 651 05-09-2009 10:13:02 15.1 C 7.74 g/m*3 15.1 C 0 km/h
652 05-09-2009 10:25:02 15.2 C 7.79 g/m*3 15.2 C 0 km/h
653 05-09-2009 10:37:02 15.7 C 7.89 g/m*3 15.7 C 0 km/h
654 05-09-2009 10:49:01 16.3 C 7.63 g/m*3 16.3 C 0 km/h
655 05-09-2009 11:01:02 16.9 C 7.62 g/m*3 16.9 C 0 km/h
656 05-09-2009 11:13:02 17.5 C 7.45 g/m*3 17.5 C 0 km/h
657 05-09-2009 11:25:01 17.3 C 7.51 g/m*3 17.3 C 0 km/h
658 05-09-2009 11:37:01 16.8 C 7.58 g/m*3 16.8 C 0 km/h
659 05-09-2009 11:49:02 16.8 C 7.43 g/m*3 16.8 C 0 km/h
660 05-09-2009 12:01:02 17.3 C 6.92 g/m*3 17.3 C 0 km/h
661 05-09-2009 12:13:02 17.7 C 6.64 g/m*3 17.7 C 0 km/h
662 05-09-2009 12:25:02 17.7 C 6.49 g/m*3 17.7 C 0 km/h
663 05-09-2009 12:37:02 17.7 C 6.34 g/m*3 17.7 C 0 km/h
664 05-09-2009 12:49:02 18 C 6.3 g/m*3 18 C 0 km/h
665 05-09-2009 13:01:02 18.2 C 6.37 g/m*3 18.2 C 0 km/h
666 05-09-2009 13:13:03 18.4 C 6.61 g/m*3 18.4 C 0 km/h
667 05-09-2009 13:25:02 18.2 C 6.22 g/m*3 18.2 C 0 km/h
668 05-09-2009 13:37:02 18 C 5.99 g/m*3 18 C 0 km/h
669 05-09-2009 13:49:01 18.1 C 6.33 g/m*3 18.1 C 0 km/h
670 05-09-2009 14:01:01 18 C 6.3 g/m*3 18 C 0 km/h
671 05-09-2009 14:13:01 18.6 C 5.89 g/m*3 18.6 C 0 km/h
672 05-09-2009 14:25:01 19.9 C 6.01 g/m*3 19.9 C 0 km/h
673 05-09-2009 14:37:01 20.2 C 5.94 g/m*3 20.2 C 0 km/h
674 05-09-2009 14:49:02 20.3 C 5.28 g/m*3 20.3 C 0 km/h
675 05-09-2009 15:01:02 21 C 5.31 g/m*3 21 C 0 km/h
Sensor: Nr:Datum:Temp:Abs-Feuchte:Windchill:Wind:
Aussen-T/F 676 05-09-2009 15:13:02 21.8 C 5.18 g/m*3 21.8 C 0 km/h
677 05-09-2009 15:25:03 21 C 4.95 g/m*3 21 C 0 km/h
678 05-09-2009 15:37:02 22.1 C 5.08 g/m*3 22.1 C 0 km/h
679 05-09-2009 15:49:03 21.8 C 5.18 g/m*3 21.8 C 0 km/h
680 05-09-2009 16:01:02 20 C 5.88 g/m*3 20 C 0 km/h
681 05-09-2009 16:13:02 18.5 C 6.8 g/m*3 18.5 C 0 km/h
682 05-09-2009 16:25:02 16.8 C 7.15 g/m*3 16.8 C 0 km/h
683 05-09-2009 16:37:02 16.9 C 7.48 g/m*3 16.9 C 0 km/h
684 05-09-2009 16:49:02 17.4 C 6.97 g/m*3 17.4 C 0 km/h
685 05-09-2009 17:01:02 17.4 C 6.82 g/m*3 17.4 C 0 km/h
686 05-09-2009 17:13:02 16.8 C 6.86 g/m*3 16.8 C 0 km/h
687 05-09-2009 17:25:02 16.9 C 6.9 g/m*3 16.9 C 0 km/h
688 05-09-2009 17:37:02 18.5 C 6.49 g/m*3 18.5 C 0 km/h
689 05-09-2009 17:49:02 19.5 C 6.21 g/m*3 19.5 C 0 km/h
690 05-09-2009 18:01:01 18.7 C 6.24 g/m*3 18.7 C 0 km/h
691 05-09-2009 18:13:01 17.9 C 6.57 g/m*3 17.9 C 0 km/h
692 05-09-2009 18:25:02 17.9 C 6.26 g/m*3 17.9 C 0 km/h
693 05-09-2009 18:37:02 18.6 C 5.89 g/m*3 18.6 C 0 km/h
694 05-09-2009 18:49:01 18.3 C 6.1 g/m*3 18.3 C 0 km/h
695 05-09-2009 19:01:02 17.8 C 6.53 g/m*3 17.8 C 0 km/h
696 05-09-2009 19:13:02 17.1 C 6.84 g/m*3 17.1 C 0 km/h
697 05-09-2009 19:25:01 17.3 C 7.22 g/m*3 17.3 C 0 km/h
698 05-09-2009 19:37:02 17.3 C 7.37 g/m*3 17.3 C 0 km/h
699 05-09-2009 19:49:02 16.4 C 7.68 g/m*3 16.4 C 0 km/h
700 05-09-2009 20:01:02 15.8 C 7.94 g/m*3 15.8 C 0 km/h
Sensor: Nr:Datum:Temp:Abs-Feuchte:Windchill:Wind:
Aussen-T/F 701 05-09-2009 20:13:02 15.3 C 7.84 g/m*3 15.3 C 0 km/h
702 05-09-2009 20:25:02 14.8 C 7.98 g/m*3 14.8 C 0 km/h
703 05-09-2009 20:37:02 14.6 C 7.88 g/m*3 14.6 C 0 km/h
704 05-09-2009 20:49:02 14 C 7.96 g/m*3 14 C 0 km/h
705 05-09-2009 21:01:02 13.9 C 8.03 g/m*3 13.9 C 0 km/h
706 05-09-2009 21:13:02 13.8 C 8.22 g/m*3 13.8 C 0 km/h
707 05-09-2009 21:25:02 13.7 C 8.17 g/m*3 13.7 C 0 km/h
708 05-09-2009 21:37:02 13.7 C 8.29 g/m*3 13.7 C 0 km/h
709 05-09-2009 21:49:02 13.5 C 8.42 g/m*3 13.5 C 0 km/h
710 05-09-2009 22:01:02 13.2 C 8.38 g/m*3 13.2 C 0 km/h
711 05-09-2009 22:13:02 13.1 C 8.44 g/m*3 13.1 C 0 km/h
712 05-09-2009 22:25:02 12.8 C 8.4 g/m*3 12.8 C 0 km/h
713 05-09-2009 22:37:02 12.8 C 8.29 g/m*3 12.8 C 0 km/h
714 05-09-2009 22:49:02 12.7 C 8.24 g/m*3 12.7 C 0 km/h
715 05-09-2009 23:01:01 12.6 C 8.3 g/m*3 12.6 C 0 km/h
716 05-09-2009 23:13:01 12.5 C 8.14 g/m*3 12.5 C 0 km/h
717 05-09-2009 23:25:02 12.3 C 8.04 g/m*3 12.3 C 0 km/h
718 05-09-2009 23:37:02 12.2 C 8.2 g/m*3 12.2 C 0 km/h
719 05-09-2009 23:49:01 11.8 C 8.1 g/m*3 11.8 C 0 km/h
720 06-09-2009 00:01:02 11.7 C 8.26 g/m*3 11.7 C 0 km/h
721 06-09-2009 00:13:02 11.6 C 8.32 g/m*3 11.6 C 0 km/h
722 06-09-2009 00:25:01 11.4 C 8.42 g/m*3 11.4 C 0 km/h
723 06-09-2009 00:37:02 11.5 C 8.57 g/m*3 11.5 C 0 km/h
724 06-09-2009 00:49:02 11.3 C 8.47 g/m*3 11.3 C 0 km/h
725 06-09-2009 01:01:02 11.2 C 8.41 g/m*3 11.2 C 0 km/h
Sensor: Nr:Datum:Temp:Abs-Feuchte:Windchill:Wind:
Aussen-T/F 726 06-09-2009 01:13:02 11 C 8.41 g/m*3 11 C 0 km/h
727 06-09-2009 01:25:01 10.9 C 8.36 g/m*3 10.9 C 0 km/h
728 06-09-2009 01:37:02 10.8 C 8.4 g/m*3 10.8 C 0 km/h
729 06-09-2009 01:49:02 10.8 C 8.4 g/m*3 10.8 C 0 km/h
730 06-09-2009 02:01:02 10.9 C 8.45 g/m*3 10.9 C 0 km/h
731 06-09-2009 02:13:02 10.9 C 8.45 g/m*3 10.9 C 0 km/h
732 06-09-2009 02:25:02 10.8 C 8.4 g/m*3 10.8 C 0 km/h
733 06-09-2009 02:37:02 10.7 C 8.35 g/m*3 10.7 C 0 km/h
734 06-09-2009 02:50:04 10.6 C 8.39 g/m*3 10.6 C 0 km/h
735 06-09-2009 03:02:04 10.4 C 8.29 g/m*3 10.4 C 0 km/h
736 06-09-2009 03:14:04 10.3 C 8.33 g/m*3 10.3 C 0 km/h
737 06-09-2009 03:26:04 10.2 C 8.37 g/m*3 10.2 C 0 km/h
738 06-09-2009 03:38:02 10.1 C 8.32 g/m*3 10.1 C 0 km/h
739 06-09-2009 03:50:02 10.1 C 8.32 g/m*3 10.1 C 0 km/h
740 06-09-2009 04:02:01 9.9 C 8.4 g/m*3 9.9 C 0 km/h
741 06-09-2009 04:14:01 10 C 8.36 g/m*3 10 C 0 km/h
742 06-09-2009 04:26:01 9.9 C 8.5 g/m*3 9.9 C 0 km/h
743 06-09-2009 04:38:02 9.7 C 8.39 g/m*3 9.7 C 0 km/h
744 06-09-2009 04:50:02 10 C 8.46 g/m*3 10 C 0 km/h
745 06-09-2009 05:02:02 9.7 C 8.48 g/m*3 9.7 C 0 km/h
746 06-09-2009 05:14:02 9.5 C 8.37 g/m*3 9.5 C 0 km/h
747 06-09-2009 05:26:02 9.5 C 8.37 g/m*3 9.5 C 0 km/h
748 06-09-2009 05:38:02 9.4 C 8.32 g/m*3 9.4 C 0 km/h
749 06-09-2009 05:50:01 9.4 C 8.32 g/m*3 9.4 C 0 km/h
750 06-09-2009 06:02:02 9.5 C 8.37 g/m*3 9.5 C 0 km/h
Sensor: Nr:Datum:Temp:Abs-Feuchte:Windchill:Wind:
Aussen-T/F 751 06-09-2009 06:14:02 9.5 C 8.47 g/m*3 9.5 C 0 km/h
752 06-09-2009 06:26:01 9.3 C 8.36 g/m*3 9.3 C 0 km/h
753 06-09-2009 06:38:01 9.3 C 8.36 g/m*3 9.3 C 0 km/h
754 06-09-2009 06:50:01 9.2 C 8.3 g/m*3 9.2 C 0 km/h
755 06-09-2009 07:02:02 9.2 C 8.3 g/m*3 9.2 C 0 km/h
756 06-09-2009 07:14:02 9.1 C 8.25 g/m*3 9.1 C 0 km/h
757 06-09-2009 07:26:01 9.1 C 8.25 g/m*3 9.1 C 0 km/h
758 06-09-2009 07:38:01 9.2 C 8.3 g/m*3 9.2 C 0 km/h
759 06-09-2009 07:50:01 9.3 C 8.36 g/m*3 9.3 C 0 km/h
760 06-09-2009 08:02:02 9.4 C 8.41 g/m*3 9.4 C 0 km/h
761 06-09-2009 08:14:02 9.6 C 8.52 g/m*3 9.6 C 0 km/h
762 06-09-2009 08:26:01 10.2 C 8.76 g/m*3 10.2 C 0 km/h
763 06-09-2009 08:38:01 10.7 C 9.04 g/m*3 10.7 C 0 km/h
764 06-09-2009 08:50:01 11.1 C 9.27 g/m*3 11.1 C 0 km/h
765 06-09-2009 09:02:01 11.4 C 9.44 g/m*3 11.4 C 0 km/h
766 06-09-2009 09:14:01 11.8 C 9.47 g/m*3 11.8 C 0 km/h
767 06-09-2009 09:26:02 11.8 C 9.05 g/m*3 11.8 C 0 km/h
768 06-09-2009 09:38:01 12.3 C 8.9 g/m*3 12.3 C 0 km/h
769 06-09-2009 09:50:02 12.4 C 8.63 g/m*3 12.4 C 0 km/h
770 06-09-2009 10:02:02 12.7 C 8.57 g/m*3 12.7 C 0 km/h
771 06-09-2009 10:14:02 12.9 C 8.57 g/m*3 12.9 C 0 km/h
772 06-09-2009 10:26:02 13.1 C 8.44 g/m*3 13.1 C 0 km/h
773 06-09-2009 10:38:01 13.4 C 8.49 g/m*3 13.4 C 0 km/h
774 06-09-2009 10:50:02 13.8 C 8.58 g/m*3 13.8 C 0 km/h
775 06-09-2009 11:02:01 14.3 C 8.48 g/m*3 14.3 C 0 km/h
Sensor: Nr:Datum:Temp:Abs-Feuchte:Windchill:Wind:
Aussen-T/F 776 06-09-2009 11:14:01 14.7 C 8.31 g/m*3 14.7 C 0 km/h
777 06-09-2009 11:26:01 15 C 8.08 g/m*3 15 C 0 km/h
778 06-09-2009 11:38:02 15.3 C 8.1 g/m*3 15.3 C 0 km/h
779 06-09-2009 11:50:02 15.8 C 8.08 g/m*3 15.8 C 0 km/h
780 06-09-2009 12:02:01 16.1 C 7.95 g/m*3 16.1 C 0 km/h
781 06-09-2009 12:14:01 16.6 C 8.05 g/m*3 16.6 C 0 km/h
782 06-09-2009 12:26:02 16.8 C 7.86 g/m*3 16.8 C 0 km/h
783 06-09-2009 12:38:02 17.1 C 7.42 g/m*3 17.1 C 0 km/h
784 06-09-2009 12:50:02 17.5 C 7.6 g/m*3 17.5 C 0 km/h
785 06-09-2009 13:02:03 17.9 C 7.63 g/m*3 17.9 C 0 km/h
786 06-09-2009 13:14:03 18.3 C 7.04 g/m*3 18.3 C 0 km/h
787 06-09-2009 13:26:02 18.7 C 6.88 g/m*3 18.7 C 0 km/h
788 06-09-2009 13:38:02 19.2 C 6.93 g/m*3 19.2 C 0 km/h
789 06-09-2009 13:50:01 19.7 C 7.13 g/m*3 19.7 C 0 km/h
790 06-09-2009 14:02:03 19.7 C 7.13 g/m*3 19.7 C 0 km/h
791 06-09-2009 14:14:03 20 C 6.91 g/m*3 20 C 0 km/h
792 06-09-2009 14:26:01 20 C 7.09 g/m*3 20 C 0 km/h
793 06-09-2009 14:38:02 20.1 C 7.13 g/m*3 20.1 C 0 km/h
794 06-09-2009 14:50:02 20 C 7.26 g/m*3 20 C 0 km/h
795 06-09-2009 15:02:02 20 C 7.26 g/m*3 20 C 0 km/h
796 06-09-2009 15:14:02 22 C 7.18 g/m*3 22 C 0 km/h
797 06-09-2009 15:26:01 22.5 C 6.99 g/m*3 22.5 C 0 km/h
798 06-09-2009 15:38:02 20.7 C 7.2 g/m*3 20.7 C 0 km/h
799 06-09-2009 15:50:02 20.1 C 6.61 g/m*3 20.1 C 0 km/h
800 06-09-2009 16:02:01 20.3 C 6.51 g/m*3 20.3 C 0 km/h
Sensor: Nr:Datum:Temp:Abs-Feuchte:Windchill:Wind:
Aussen-T/F 801 06-09-2009 16:14:01 21 C 6.41 g/m*3 21 C 0 km/h
802 06-09-2009 16:26:02 22 C 6.21 g/m*3 22 C 0 km/h
803 06-09-2009 16:38:01 22.6 C 6.23 g/m*3 22.6 C 0 km/h
804 06-09-2009 16:50:01 23.1 C 5.58 g/m*3 23.1 C 0 km/h
805 06-09-2009 17:02:02 22 C 5.05 g/m*3 22 C 0 km/h
806 06-09-2009 17:14:02 21.6 C 5.12 g/m*3 21.6 C 0 km/h
807 06-09-2009 17:26:01 21.6 C 5.31 g/m*3 21.6 C 0 km/h
808 06-09-2009 17:38:02 22 C 5.24 g/m*3 22 C 0 km/h
809 06-09-2009 17:50:02 22.3 C 5.73 g/m*3 22.3 C 0 km/h
810 06-09-2009 18:02:02 21.7 C 5.72 g/m*3 21.7 C 0 km/h
811 06-09-2009 18:14:02 21.9 C 5.79 g/m*3 21.9 C 0 km/h
812 06-09-2009 18:26:01 21.3 C 5.78 g/m*3 21.3 C 0 km/h
813 06-09-2009 18:38:02 21.4 C 5.81 g/m*3 21.4 C 0 km/h
814 06-09-2009 18:50:02 21.2 C 5.74 g/m*3 21.2 C 0 km/h
815 06-09-2009 19:02:02 20.8 C 6.34 g/m*3 20.8 C 0 km/h
816 06-09-2009 19:14:02 20.1 C 6.61 g/m*3 20.1 C 0 km/h
817 06-09-2009 19:26:02 19.5 C 6.88 g/m*3 19.5 C 0 km/h
818 06-09-2009 19:38:02 18.8 C 6.93 g/m*3 18.8 C 0 km/h
819 06-09-2009 19:50:02 18 C 7.07 g/m*3 18 C 0 km/h
820 06-09-2009 20:02:02 17.3 C 6.92 g/m*3 17.3 C 0 km/h
821 06-09-2009 20:14:02 16.9 C 7.19 g/m*3 16.9 C 0 km/h
822 06-09-2009 20:26:02 16.7 C 7.25 g/m*3 16.7 C 0 km/h
823 06-09-2009 20:38:02 16.5 C 7.3 g/m*3 16.5 C 0 km/h
824 06-09-2009 20:50:02 16.2 C 7.45 g/m*3 16.2 C 0 km/h
825 06-09-2009 21:02:02 16.1 C 7.4 g/m*3 16.1 C 0 km/h
Sensor: Nr:Datum:Temp:Abs-Feuchte:Windchill:Wind:
Aussen-T/F 826 06-09-2009 21:14:02 15.9 C 7.58 g/m*3 15.9 C 0 km/h
827 06-09-2009 21:26:01 15.9 C 7.58 g/m*3 15.9 C 0 km/h
828 06-09-2009 21:39:02 15.7 C 7.63 g/m*3 15.7 C 0 km/h
829 06-09-2009 21:51:02 15.6 C 7.71 g/m*3 15.6 C 0 km/h
830 06-09-2009 22:03:03 15.3 C 7.7 g/m*3 15.3 C 0 km/h
831 06-09-2009 22:15:03 15 C 7.95 g/m*3 15 C 0 km/h
832 06-09-2009 22:27:03 14.7 C 8.06 g/m*3 14.7 C 0 km/h
833 06-09-2009 22:39:03 14.5 C 8.08 g/m*3 14.5 C 0 km/h
834 06-09-2009 22:51:03 14.3 C 8.11 g/m*3 14.3 C 0 km/h
835 06-09-2009 23:03:03 14 C 8.08 g/m*3 14 C 0 km/h
836 06-09-2009 23:15:03 13.8 C 8.22 g/m*3 13.8 C 0 km/h
837 06-09-2009 23:27:03 13.6 C 8.24 g/m*3 13.6 C 0 km/h
838 06-09-2009 23:39:03 13.4 C 8.14 g/m*3 13.4 C 0 km/h
839 06-09-2009 23:51:03 13.3 C 8.2 g/m*3 13.3 C 0 km/h
840 07-09-2009 00:03:03 13.1 C 8.22 g/m*3 13.1 C 0 km/h
841 07-09-2009 00:15:03 12.9 C 8.23 g/m*3 12.9 C 0 km/h
842 07-09-2009 00:27:03 12.7 C 8.24 g/m*3 12.7 C 0 km/h
843 07-09-2009 00:39:03 12.5 C 8.25 g/m*3 12.5 C 0 km/h
844 07-09-2009 00:51:03 12.3 C 8.25 g/m*3 12.3 C 0 km/h
845 07-09-2009 01:03:03 12.2 C 8.2 g/m*3 12.2 C 0 km/h
846 07-09-2009 01:15:03 12.1 C 8.15 g/m*3 12.1 C 0 km/h
847 07-09-2009 01:27:03 11.8 C 8.1 g/m*3 11.8 C 0 km/h
848 07-09-2009 01:39:03 11.7 C 8.26 g/m*3 11.7 C 0 km/h
849 07-09-2009 01:51:03 11.5 C 8.16 g/m*3 11.5 C 0 km/h
850 07-09-2009 02:03:04 11.5 C 8.26 g/m*3 11.5 C 0 km/h
Sensor: Nr:Datum:Temp:Abs-Feuchte:Windchill:Wind:
Aussen-T/F 851 07-09-2009 02:15:04 11.3 C 8.16 g/m*3 11.3 C 0 km/h
852 07-09-2009 02:27:04 11.2 C 8.01 g/m*3 11.2 C 0 km/h
853 07-09-2009 02:39:04 11.1 C 7.96 g/m*3 11.1 C 0 km/h
854 07-09-2009 02:51:04 11 C 8.01 g/m*3 11 C 0 km/h
855 07-09-2009 03:03:04 10.9 C 8.06 g/m*3 10.9 C 0 km/h
856 07-09-2009 03:15:04 10.7 C 8.05 g/m*3 10.7 C 0 km/h
857 07-09-2009 03:27:04 10.7 C 8.15 g/m*3 10.7 C 0 km/h
858 07-09-2009 03:39:04 10.4 C 8 g/m*3 10.4 C 0 km/h
859 07-09-2009 03:51:04 10.5 C 8.15 g/m*3 10.5 C 0 km/h
860 07-09-2009 04:03:04 10.4 C 8 g/m*3 10.4 C 0 km/h
861 07-09-2009 04:15:04 10.2 C 7.99 g/m*3 10.2 C 0 km/h
862 07-09-2009 04:27:04 10.1 C 7.94 g/m*3 10.1 C 0 km/h
863 07-09-2009 04:39:04 9.9 C 7.94 g/m*3 9.9 C 0 km/h
864 07-09-2009 04:51:04 9.8 C 7.89 g/m*3 9.8 C 0 km/h
865 07-09-2009 05:03:04 9.7 C 7.84 g/m*3 9.7 C 0 km/h
866 07-09-2009 05:15:04 9.7 C 7.84 g/m*3 9.7 C 0 km/h
867 07-09-2009 05:27:04 9.4 C 7.69 g/m*3 9.4 C 0 km/h
868 07-09-2009 05:39:04 9.3 C 7.64 g/m*3 9.3 C 0 km/h
869 07-09-2009 05:51:04 9.1 C 7.54 g/m*3 9.1 C 0 km/h
870 07-09-2009 06:03:04 9.2 C 7.68 g/m*3 9.2 C 0 km/h
871 07-09-2009 06:15:02 9.3 C 7.73 g/m*3 9.3 C 0 km/h
872 07-09-2009 06:27:02 9.6 C 7.97 g/m*3 9.6 C 0 km/h
873 07-09-2009 06:39:03 9.6 C 7.88 g/m*3 9.6 C 0 km/h
874 07-09-2009 06:51:02 9.5 C 7.83 g/m*3 9.5 C 0 km/h
875 07-09-2009 07:03:01 9.6 C 7.88 g/m*3 9.6 C 0 km/h
Sensor: Nr:Datum:Temp:Abs-Feuchte:Windchill:Wind:
Aussen-T/F 876 07-09-2009 07:15:02 9.6 C 7.88 g/m*3 9.6 C 0 km/h
877 07-09-2009 07:27:02 9.6 C 7.88 g/m*3 9.6 C 0 km/h
878 07-09-2009 07:39:02 9.3 C 7.82 g/m*3 9.3 C 0 km/h
879 07-09-2009 07:51:01 9.4 C 7.96 g/m*3 9.4 C 0 km/h
880 07-09-2009 08:03:02 9.5 C 8.01 g/m*3 9.5 C 0 km/h
881 07-09-2009 08:15:01 9.5 C 7.92 g/m*3 9.5 C 0 km/h
882 07-09-2009 08:27:01 9.7 C 8.02 g/m*3 9.7 C 0 km/h
883 07-09-2009 08:39:02 9.9 C 8.12 g/m*3 9.9 C 0 km/h
884 07-09-2009 08:51:01 10 C 7.99 g/m*3 10 C 0 km/h
885 07-09-2009 09:03:02 10.3 C 8.04 g/m*3 10.3 C 0 km/h
886 07-09-2009 09:15:01 10.6 C 8.1 g/m*3 10.6 C 0 km/h
887 07-09-2009 09:27:01 11.3 C 8.36 g/m*3 11.3 C 0 km/h
888 07-09-2009 09:39:02 11.2 C 8.11 g/m*3 11.2 C 0 km/h
889 07-09-2009 09:51:01 11.2 C 8.21 g/m*3 11.2 C 0 km/h
890 07-09-2009 10:03:02 11.7 C 8.58 g/m*3 11.7 C 0 km/h
891 07-09-2009 10:15:02 12.3 C 8.58 g/m*3 12.3 C 0 km/h
892 07-09-2009 10:27:02 13 C 8.73 g/m*3 13 C 0 km/h
893 07-09-2009 10:39:02 13.7 C 8.76 g/m*3 13.7 C 0 km/h
894 07-09-2009 10:51:01 14.3 C 8.85 g/m*3 14.3 C 0 km/h
895 07-09-2009 11:03:02 14.7 C 8.56 g/m*3 14.7 C 0 km/h
896 07-09-2009 11:15:02 15.6 C 8.78 g/m*3 15.6 C 0 km/h
897 07-09-2009 11:27:02 16.3 C 8.88 g/m*3 16.3 C 0 km/h
898 07-09-2009 11:39:01 16.7 C 8.95 g/m*3 16.7 C 0 km/h
899 07-09-2009 11:51:02 17.5 C 8.8 g/m*3 17.5 C 0 km/h
900 07-09-2009 12:03:01 18.5 C 8.7 g/m*3 18.5 C 0 km/h
Sensor: Nr:Datum:Temp:Abs-Feuchte:Windchill:Wind:
Aussen-T/F 901 07-09-2009 12:15:02 19.4 C 8.68 g/m*3 19.4 C 0 km/h
902 07-09-2009 12:27:02 19.8 C 8.2 g/m*3 19.8 C 0 km/h
903 07-09-2009 12:39:01 20.6 C 8.41 g/m*3 20.6 C 0 km/h
904 07-09-2009 12:51:02 21.3 C 8.2 g/m*3 21.3 C 0 km/h
905 07-09-2009 13:03:02 21.8 C 8.44 g/m*3 21.8 C 0 km/h
906 07-09-2009 13:15:02 22.2 C 8.05 g/m*3 22.2 C 0 km/h
907 07-09-2009 13:27:02 22.9 C 8.38 g/m*3 22.9 C 0 km/h
908 07-09-2009 13:39:03 23.3 C 8.15 g/m*3 23.3 C 0 km/h
909 07-09-2009 13:51:02 23.9 C 7.79 g/m*3 23.9 C 0 km/h
910 07-09-2009 14:03:02 24.5 C 7.83 g/m*3 24.5 C 0 km/h
911 07-09-2009 14:15:01 25.4 C 7.77 g/m*3 25.4 C 0 km/h
912 07-09-2009 14:27:01 25.9 C 7.51 g/m*3 25.9 C 0 km/h
913 07-09-2009 14:39:02 26.1 C 7.59 g/m*3 26.1 C 0 km/h
914 07-09-2009 14:51:02 27 C 7.72 g/m*3 27 C 0 km/h
915 07-09-2009 15:03:02 27.8 C 7.26 g/m*3 27.8 C 0 km/h
916 07-09-2009 15:15:01 28.2 C 6.6 g/m*3 28.2 C 0 km/h
917 07-09-2009 15:27:01 27.8 C 6.72 g/m*3 27.8 C 0 km/h
918 07-09-2009 15:39:02 27.5 C 6.88 g/m*3 27.5 C 0 km/h
919 07-09-2009 15:51:02 27.7 C 7.22 g/m*3 27.7 C 0 km/h
920 07-09-2009 16:03:02 28.7 C 6.22 g/m*3 28.7 C 0 km/h
921 07-09-2009 16:15:02 29.3 C 6.13 g/m*3 29.3 C 0 km/h
922 07-09-2009 16:27:02 28.8 C 6.25 g/m*3 28.8 C 0 km/h
923 07-09-2009 16:39:02 27.9 C 5.41 g/m*3 27.9 C 0 km/h
924 07-09-2009 16:51:02 29 C 6.89 g/m*3 29 C 0 km/h
925 07-09-2009 17:03:02 29.7 C 6.56 g/m*3 29.7 C 0 km/h
Sensor: Nr:Datum:Temp:Abs-Feuchte:Windchill:Wind:
Aussen-T/F 926 07-09-2009 17:15:02 30.3 C 6.47 g/m*3 30.3 C 0 km/h
927 07-09-2009 17:27:02 29.1 C 6.64 g/m*3 29.1 C 0 km/h
928 07-09-2009 17:39:02 29.4 C 6.75 g/m*3 29.4 C 0 km/h
929 07-09-2009 17:51:02 29.5 C 6.79 g/m*3 29.5 C 0 km/h
930 07-09-2009 18:03:02 29.1 C 6.64 g/m*3 29.1 C 0 km/h
931 07-09-2009 18:15:02 29.7 C 7.16 g/m*3 29.7 C 0 km/h
932 07-09-2009 18:27:02 29.8 C 6.9 g/m*3 29.8 C 0 km/h
933 07-09-2009 18:39:02 29.4 C 7.93 g/m*3 29.4 C 0 km/h
934 07-09-2009 18:51:02 28.9 C 8 g/m*3 28.9 C 0 km/h
935 07-09-2009 19:03:01 28.4 C 7.51 g/m*3 28.4 C 0 km/h
936 07-09-2009 19:15:02 27.4 C 8.16 g/m*3 27.4 C 0 km/h
937 07-09-2009 19:27:02 26.2 C 7.88 g/m*3 26.2 C 0 km/h
938 07-09-2009 19:39:02 24.7 C 7.92 g/m*3 24.7 C 0 km/h
939 07-09-2009 19:51:02 23.3 C 8.15 g/m*3 23.3 C 0 km/h
940 07-09-2009 20:03:03 22.7 C 8.28 g/m*3 22.7 C 0 km/h
941 07-09-2009 20:15:02 22 C 8.15 g/m*3 22 C 0 km/h
942 07-09-2009 20:27:02 21.7 C 8.39 g/m*3 21.7 C 0 km/h
943 07-09-2009 20:39:02 21.4 C 8.44 g/m*3 21.4 C 0 km/h
944 07-09-2009 20:51:02 21.2 C 8.52 g/m*3 21.2 C 0 km/h
945 07-09-2009 21:03:01 20.9 C 8.56 g/m*3 20.9 C 0 km/h
946 07-09-2009 21:15:02 20.7 C 8.46 g/m*3 20.7 C 0 km/h
947 07-09-2009 21:27:02 20.5 C 8.72 g/m*3 20.5 C 0 km/h
948 07-09-2009 21:39:01 20 C 8.81 g/m*3 20 C 0 km/h
949 07-09-2009 21:51:02 19.6 C 8.78 g/m*3 19.6 C 0 km/h
950 07-09-2009 22:03:01 19.5 C 8.73 g/m*3 19.5 C 0 km/h
Sensor: Nr:Datum:Temp:Abs-Feuchte:Windchill:Wind:
Aussen-T/F 951 07-09-2009 22:15:01 19 C 8.96 g/m*3 19 C 0 km/h
952 07-09-2009 22:27:01 18.6 C 9.07 g/m*3 18.6 C 0 km/h
953 07-09-2009 22:40:01 18.4 C 9.12 g/m*3 18.4 C 0 km/h
954 07-09-2009 22:52:01 18.2 C 9.01 g/m*3 18.2 C 0 km/h
955 07-09-2009 23:04:01 18 C 8.75 g/m*3 18 C 0 km/h
956 07-09-2009 23:16:01 17.9 C 8.86 g/m*3 17.9 C 0 km/h
957 07-09-2009 23:28:01 17.8 C 8.95 g/m*3 17.8 C 0 km/h
958 07-09-2009 23:40:01 17.4 C 8.89 g/m*3 17.4 C 0 km/h
959 07-09-2009 23:52:01 17 C 8.97 g/m*3 17 C 0 km/h
960 08-09-2009 00:04:01 16.7 C 9.1 g/m*3 16.7 C 0 km/h
961 08-09-2009 00:16:01 16.4 C 9.21 g/m*3 16.4 C 0 km/h
962 08-09-2009 00:28:02 16.2 C 9.1 g/m*3 16.2 C 0 km/h
963 08-09-2009 00:40:02 15.9 C 9.21 g/m*3 15.9 C 0 km/h
964 08-09-2009 00:52:02 15.7 C 9.23 g/m*3 15.7 C 0 km/h
965 08-09-2009 01:04:02 15.3 C 9.14 g/m*3 15.3 C 0 km/h
966 08-09-2009 01:16:02 15.2 C 9.09 g/m*3 15.2 C 0 km/h
967 08-09-2009 01:28:02 15.2 C 9.22 g/m*3 15.2 C 0 km/h
968 08-09-2009 01:40:02 15 C 9.23 g/m*3 15 C 0 km/h
969 08-09-2009 01:52:02 14.9 C 9.3 g/m*3 14.9 C 0 km/h
970 08-09-2009 02:04:02 14.6 C 9.26 g/m*3 14.6 C 0 km/h
971 08-09-2009 02:16:02 14.4 C 9.15 g/m*3 14.4 C 0 km/h
972 08-09-2009 02:28:02 14.1 C 8.98 g/m*3 14.1 C 0 km/h
973 08-09-2009 02:40:02 14.1 C 9.1 g/m*3 14.1 C 0 km/h
974 08-09-2009 02:52:02 13.9 C 9.11 g/m*3 13.9 C 0 km/h
975 08-09-2009 03:04:02 13.8 C 9.06 g/m*3 13.8 C 0 km/h
Sensor: Nr:Datum:Temp:Abs-Feuchte:Windchill:Wind:
Aussen-T/F 976 08-09-2009 03:16:02 13.5 C 9.12 g/m*3 13.5 C 0 km/h
977 08-09-2009 03:28:02 13.4 C 9.07 g/m*3 13.4 C 0 km/h
978 08-09-2009 03:40:02 13.2 C 8.96 g/m*3 13.2 C 0 km/h
979 08-09-2009 03:52:02 13.1 C 9.01 g/m*3 13.1 C 0 km/h
980 08-09-2009 04:04:02 13 C 8.96 g/m*3 13 C 0 km/h
981 08-09-2009 04:16:02 12.8 C 8.85 g/m*3 12.8 C 0 km/h
982 08-09-2009 04:28:02 12.7 C 8.79 g/m*3 12.7 C 0 km/h
983 08-09-2009 04:40:03 12.5 C 8.8 g/m*3 12.5 C 0 km/h
984 08-09-2009 04:52:03 12.4 C 8.74 g/m*3 12.4 C 0 km/h
985 08-09-2009 05:04:03 12.2 C 8.74 g/m*3 12.2 C 0 km/h
986 08-09-2009 05:16:03 12.1 C 8.69 g/m*3 12.1 C 0 km/h
987 08-09-2009 05:28:03 11.9 C 8.68 g/m*3 11.9 C 0 km/h
988 08-09-2009 05:40:03 11.8 C 8.63 g/m*3 11.8 C 0 km/h
989 08-09-2009 05:52:03 11.7 C 8.58 g/m*3 11.7 C 0 km/h
990 08-09-2009 06:04:03 11.7 C 8.68 g/m*3 11.7 C 0 km/h
991 08-09-2009 06:16:03 11.6 C 8.73 g/m*3 11.6 C 0 km/h
992 08-09-2009 06:28:03 11.5 C 8.68 g/m*3 11.5 C 0 km/h
993 08-09-2009 06:40:03 11.5 C 8.78 g/m*3 11.5 C 0 km/h
994 08-09-2009 06:52:03 11.5 C 8.68 g/m*3 11.5 C 0 km/h
995 08-09-2009 07:04:02 11.6 C 8.73 g/m*3 11.6 C 0 km/h
996 08-09-2009 07:16:02 11.5 C 8.68 g/m*3 11.5 C 0 km/h
997 08-09-2009 07:28:02 11.5 C 8.68 g/m*3 11.5 C 0 km/h
998 08-09-2009 07:40:01 11.7 C 8.79 g/m*3 11.7 C 0 km/h
999 08-09-2009 07:52:01 11.8 C 8.74 g/m*3 11.8 C 0 km/h
1000 08-09-2009 08:04:01 12 C 8.85 g/m*3 12 C 0 km/h
Sensor: Nr:Datum:Temp:Abs-Feuchte:Windchill:Wind:
Aussen-T/F 1001 08-09-2009 08:16:02 12.1 C 8.9 g/m*3 12.1 C 0 km/h
1002 08-09-2009 08:28:02 12.2 C 8.85 g/m*3 12.2 C 0 km/h
1003 08-09-2009 08:40:01 11.9 C 8.9 g/m*3 11.9 C 0 km/h
1004 08-09-2009 08:52:02 11.9 C 9 g/m*3 11.9 C 0 km/h
1005 08-09-2009 09:04:01 12 C 9.06 g/m*3 12 C 0 km/h
1006 08-09-2009 09:16:01 12.5 C 9.35 g/m*3 12.5 C 0 km/h
1007 08-09-2009 09:28:02 12.7 C 9.24 g/m*3 12.7 C 0 km/h
1008 08-09-2009 09:40:01 13 C 9.3 g/m*3 13 C 0 km/h
1009 08-09-2009 09:52:02 12.8 C 9.3 g/m*3 12.8 C 0 km/h
1010 08-09-2009 10:04:02 13.1 C 9.47 g/m*3 13.1 C 0 km/h
1011 08-09-2009 10:16:02 13.6 C 9.77 g/m*3 13.6 C 0 km/h
1012 08-09-2009 10:28:02 14.2 C 9.89 g/m*3 14.2 C 0 km/h
1013 08-09-2009 10:40:02 14.9 C 10.07 g/m*3 14.9 C 0 km/h
1014 08-09-2009 10:52:02 15.8 C 10.36 g/m*3 15.8 C 0 km/h
1015 08-09-2009 11:04:02 16.5 C 10.39 g/m*3 16.5 C 0 km/h
1016 08-09-2009 11:16:01 17.3 C 10.16 g/m*3 17.3 C 0 km/h
1017 08-09-2009 11:28:01 18.5 C 9.97 g/m*3 18.5 C 0 km/h
1018 08-09-2009 11:40:02 19.1 C 9.84 g/m*3 19.1 C 0 km/h
1019 08-09-2009 11:52:02 19.9 C 9.97 g/m*3 19.9 C 0 km/h
1020 08-09-2009 12:04:02 20.4 C 10.08 g/m*3 20.4 C 0 km/h
1021 08-09-2009 12:16:01 20.9 C 10.56 g/m*3 20.9 C 0 km/h
1022 08-09-2009 12:28:01 21.6 C 10.43 g/m*3 21.6 C 0 km/h
1023 08-09-2009 12:40:02 22.3 C 9.28 g/m*3 22.3 C 0 km/h
1024 08-09-2009 12:52:02 22.9 C 10.01 g/m*3 22.9 C 0 km/h
1025 08-09-2009 13:04:02 23.3 C 10.25 g/m*3 23.3 C 0 km/h
Sensor: Nr:Datum:Temp:Abs-Feuchte:Windchill:Wind:
Aussen-T/F 1026 08-09-2009 13:16:01 24.2 C 9.68 g/m*3 24.2 C 0 km/h
1027 08-09-2009 13:28:01 24.8 C 9.56 g/m*3 24.8 C 0 km/h
1028 08-09-2009 13:40:02 25.6 C 8.57 g/m*3 25.6 C 0 km/h
1029 08-09-2009 13:52:02 26.5 C 7.76 g/m*3 26.5 C 0 km/h
1030 08-09-2009 14:04:02 27.5 C 9 g/m*3 27.5 C 0 km/h
1031 08-09-2009 14:16:02 27.9 C 8.11 g/m*3 27.9 C 0 km/h
1032 08-09-2009 14:28:02 28.8 C 7.67 g/m*3 28.8 C 0 km/h
1033 08-09-2009 14:40:02 29.5 C 7.38 g/m*3 29.5 C 0 km/h
1034 08-09-2009 14:52:01 29.8 C 6.6 g/m*3 29.8 C 0 km/h
1035 08-09-2009 15:04:02 30.3 C 6.78 g/m*3 30.3 C 0 km/h
1036 08-09-2009 15:16:02 30.6 C 6.58 g/m*3 30.6 C 0 km/h
1037 08-09-2009 15:28:02 30.6 C 6.26 g/m*3 30.6 C 0 km/h
1038 08-09-2009 15:40:01 31 C 6.4 g/m*3 31 C 0 km/h
1039 08-09-2009 15:52:02 31.2 C 6.47 g/m*3 31.2 C 0 km/h
1040 08-09-2009 16:04:01 31.4 C 6.54 g/m*3 31.4 C 0 km/h
1041 08-09-2009 16:16:02 31.6 C 6.61 g/m*3 31.6 C 0 km/h
1042 08-09-2009 16:28:02 31.7 C 6.64 g/m*3 31.7 C 0 km/h
1043 08-09-2009 16:40:01 32 C 6.75 g/m*3 32 C 0 km/h
1044 08-09-2009 16:52:02 32 C 6.75 g/m*3 32 C 0 km/h
1045 08-09-2009 17:04:02 31.9 C 6.72 g/m*3 31.9 C 0 km/h
1046 08-09-2009 17:16:02 31.9 C 6.72 g/m*3 31.9 C 0 km/h
1047 08-09-2009 17:28:02 32 C 6.75 g/m*3 32 C 0 km/h
1048 08-09-2009 17:40:03 32 C 6.75 g/m*3 32 C 0 km/h
1049 08-09-2009 17:52:02 31.9 C 6.72 g/m*3 31.9 C 0 km/h
1050 08-09-2009 18:04:02 31.9 C 6.72 g/m*3 31.9 C 0 km/h
Sensor: Nr:Datum:Temp:Abs-Feuchte:Windchill:Wind:
Aussen-T/F 1051 08-09-2009 18:16:02 31.6 C 6.61 g/m*3 31.6 C 0 km/h
1052 08-09-2009 18:28:02 31.2 C 6.47 g/m*3 31.2 C 0 km/h
1053 08-09-2009 18:40:02 31 C 6.4 g/m*3 31 C 0 km/h
1054 08-09-2009 18:52:01 30.5 C 6.23 g/m*3 30.5 C 0 km/h
1055 08-09-2009 19:04:02 29.8 C 6.3 g/m*3 29.8 C 0 km/h
1056 08-09-2009 19:16:01 28.9 C 6.57 g/m*3 28.9 C 0 km/h
1057 08-09-2009 19:28:01 27.9 C 6.76 g/m*3 27.9 C 0 km/h
1058 08-09-2009 19:40:02 26.9 C 6.65 g/m*3 26.9 C 0 km/h
1059 08-09-2009 19:52:01 25.8 C 6.74 g/m*3 25.8 C 0 km/h
1060 08-09-2009 20:04:02 24.9 C 7.1 g/m*3 24.9 C 0 km/h
1061 08-09-2009 20:16:01 24.6 C 6.98 g/m*3 24.6 C 0 km/h
1062 08-09-2009 20:28:01 24.2 C 7.04 g/m*3 24.2 C 0 km/h
1063 08-09-2009 20:40:02 23.9 C 7.36 g/m*3 23.9 C 0 km/h
1064 08-09-2009 20:52:01 23.6 C 7.44 g/m*3 23.6 C 0 km/h
1065 08-09-2009 21:04:01 23.2 C 7.48 g/m*3 23.2 C 0 km/h
1066 08-09-2009 21:16:02 22.6 C 7.63 g/m*3 22.6 C 0 km/h
1067 08-09-2009 21:28:02 22.1 C 8 g/m*3 22.1 C 0 km/h
1068 08-09-2009 21:40:02 21.5 C 8.3 g/m*3 21.5 C 0 km/h
1069 08-09-2009 21:52:01 21 C 8.24 g/m*3 21 C 0 km/h
1070 08-09-2009 22:04:01 20.7 C 8.28 g/m*3 20.7 C 0 km/h
1071 08-09-2009 22:16:01 20.4 C 8.14 g/m*3 20.4 C 0 km/h
1072 08-09-2009 22:28:01 19.8 C 8.2 g/m*3 19.8 C 0 km/h
1073 08-09-2009 22:41:02 19.6 C 8.44 g/m*3 19.6 C 0 km/h
1074 08-09-2009 22:53:02 19.2 C 8.74 g/m*3 19.2 C 0 km/h
1075 08-09-2009 23:05:02 18.8 C 8.86 g/m*3 18.8 C 0 km/h
Sensor: Nr:Datum:Temp:Abs-Feuchte:Windchill:Wind:
Aussen-T/F 1076 08-09-2009 23:17:02 18.5 C 8.54 g/m*3 18.5 C 0 km/h
1077 08-09-2009 23:29:02 18.3 C 8.44 g/m*3 18.3 C 0 km/h
1078 08-09-2009 23:41:02 18 C 8.29 g/m*3 18 C 0 km/h
1079 08-09-2009 23:53:03 17.7 C 8.45 g/m*3 17.7 C 0 km/h
1080 09-09-2009 00:05:03 17.5 C 8.35 g/m*3 17.5 C 0 km/h
1081 09-09-2009 00:17:03 17.3 C 8.4 g/m*3 17.3 C 0 km/h
1082 09-09-2009 00:29:03 17.1 C 8.44 g/m*3 17.1 C 0 km/h
1083 09-09-2009 00:41:03 16.9 C 8.49 g/m*3 16.9 C 0 km/h
1084 09-09-2009 00:53:03 16.6 C 8.33 g/m*3 16.6 C 0 km/h
1085 09-09-2009 01:05:03 16.4 C 8.51 g/m*3 16.4 C 0 km/h
1086 09-09-2009 01:17:03 16.2 C 8.55 g/m*3 16.2 C 0 km/h
1087 09-09-2009 01:29:03 16 C 8.45 g/m*3 16 C 0 km/h
1088 09-09-2009 01:41:03 15.8 C 8.48 g/m*3 15.8 C 0 km/h
1089 09-09-2009 01:53:03 15.6 C 8.64 g/m*3 15.6 C 0 km/h
1090 09-09-2009 02:05:03 15.2 C 8.57 g/m*3 15.2 C 0 km/h
1091 09-09-2009 02:17:03 15 C 8.59 g/m*3 15 C 0 km/h
1092 09-09-2009 02:29:03 14.8 C 8.61 g/m*3 14.8 C 0 km/h
1093 09-09-2009 02:41:03 14.7 C 8.69 g/m*3 14.7 C 0 km/h
1094 09-09-2009 02:53:03 14.6 C 8.63 g/m*3 14.6 C 0 km/h
1095 09-09-2009 03:05:03 14.3 C 8.6 g/m*3 14.3 C 0 km/h
1096 09-09-2009 03:17:03 14.1 C 8.62 g/m*3 14.1 C 0 km/h
1097 09-09-2009 03:29:03 14.1 C 8.74 g/m*3 14.1 C 0 km/h
1098 09-09-2009 03:41:03 13.9 C 8.75 g/m*3 13.9 C 0 km/h
1099 09-09-2009 03:53:03 13.7 C 8.64 g/m*3 13.7 C 0 km/h
1100 09-09-2009 04:05:04 13.5 C 8.66 g/m*3 13.5 C 0 km/h
Sensor: Nr:Datum:Temp:Abs-Feuchte:Windchill:Wind:
Aussen-T/F 1101 09-09-2009 04:17:04 13.4 C 8.6 g/m*3 13.4 C 0 km/h
1102 09-09-2009 04:29:04 13.3 C 8.55 g/m*3 13.3 C 0 km/h
1103 09-09-2009 04:41:04 13.2 C 8.61 g/m*3 13.2 C 0 km/h
1104 09-09-2009 04:53:04 13 C 8.62 g/m*3 13 C 0 km/h
1105 09-09-2009 05:05:04 12.9 C 8.68 g/m*3 12.9 C 0 km/h
1106 09-09-2009 05:17:04 12.7 C 8.57 g/m*3 12.7 C 0 km/h
1107 09-09-2009 05:29:04 12.6 C 8.63 g/m*3 12.6 C 0 km/h
1108 09-09-2009 05:41:04 12.4 C 8.52 g/m*3 12.4 C 0 km/h
1109 09-09-2009 05:53:04 12.2 C 8.42 g/m*3 12.2 C 0 km/h
1110 09-09-2009 06:05:04 12.1 C 8.36 g/m*3 12.1 C 0 km/h
1111 09-09-2009 06:17:04 12 C 8.42 g/m*3 12 C 0 km/h
1112 09-09-2009 06:29:04 11.8 C 8.42 g/m*3 11.8 C 0 km/h
1113 09-09-2009 06:41:04 11.8 C 8.42 g/m*3 11.8 C 0 km/h
1114 09-09-2009 06:53:04 11.7 C 8.47 g/m*3 11.7 C 0 km/h
1115 09-09-2009 07:05:02 11.6 C 8.42 g/m*3 11.6 C 0 km/h
1116 09-09-2009 07:17:01 11.5 C 8.37 g/m*3 11.5 C 0 km/h
1117 09-09-2009 07:29:01 11.6 C 8.42 g/m*3 11.6 C 0 km/h
1118 09-09-2009 07:41:02 11.7 C 8.47 g/m*3 11.7 C 0 km/h
1119 09-09-2009 07:53:02 11.8 C 8.53 g/m*3 11.8 C 0 km/h
1120 09-09-2009 08:05:02 11.9 C 8.58 g/m*3 11.9 C 0 km/h
1121 09-09-2009 08:17:02 12 C 8.53 g/m*3 12 C 0 km/h
1122 09-09-2009 08:29:02 12.3 C 8.69 g/m*3 12.3 C 0 km/h
1123 09-09-2009 08:41:02 12.4 C 8.74 g/m*3 12.4 C 0 km/h
1124 09-09-2009 08:53:01 12.6 C 8.85 g/m*3 12.6 C 0 km/h
1125 09-09-2009 09:05:02 12.7 C 8.79 g/m*3 12.7 C 0 km/h
Sensor: Nr:Datum:Temp:Abs-Feuchte:Windchill:Wind:
Aussen-T/F 1126 09-09-2009 09:17:02 12.8 C 8.85 g/m*3 12.8 C 0 km/h
1127 09-09-2009 09:29:02 13.1 C 8.9 g/m*3 13.1 C 0 km/h
1128 09-09-2009 09:41:02 13.6 C 9.18 g/m*3 13.6 C 0 km/h
1129 09-09-2009 09:53:02 14.3 C 9.21 g/m*3 14.3 C 0 km/h
1130 09-09-2009 10:05:02 15 C 9.1 g/m*3 15 C 0 km/h
1131 09-09-2009 10:17:02 15.2 C 8.96 g/m*3 15.2 C 0 km/h
1132 09-09-2009 10:29:03 15.8 C 9.02 g/m*3 15.8 C 0 km/h
1133 09-09-2009 10:41:01 16.6 C 9.18 g/m*3 16.6 C 0 km/h
1134 09-09-2009 10:53:02 17 C 9.12 g/m*3 17 C 0 km/h
1135 09-09-2009 11:05:01 17.7 C 9.35 g/m*3 17.7 C 0 km/h
1136 09-09-2009 11:17:01 18.2 C 9.17 g/m*3 18.2 C 0 km/h
1137 09-09-2009 11:29:01 18.9 C 9.07 g/m*3 18.9 C 0 km/h
1138 09-09-2009 11:41:02 19.4 C 8.84 g/m*3 19.4 C 0 km/h
1139 09-09-2009 11:53:02 20.2 C 9.09 g/m*3 20.2 C 0 km/h
1140 09-09-2009 12:05:02 20.8 C 9.23 g/m*3 20.8 C 0 km/h
1141 09-09-2009 12:17:02 21.2 C 9.27 g/m*3 21.2 C 0 km/h
1142 09-09-2009 12:29:02 21.8 C 9.4 g/m*3 21.8 C 0 km/h
1143 09-09-2009 12:41:02 22.4 C 9.73 g/m*3 22.4 C 0 km/h
1144 09-09-2009 12:53:01 22.7 C 10.1 g/m*3 22.7 C 0 km/h
1145 09-09-2009 13:05:02 23.8 C 9.68 g/m*3 23.8 C 0 km/h
1146 09-09-2009 13:17:01 24.5 C 9.4 g/m*3 24.5 C 0 km/h
1147 09-09-2009 13:29:01 25.2 C 8.61 g/m*3 25.2 C 0 km/h
1148 09-09-2009 13:41:02 26 C 8.76 g/m*3 26 C 0 km/h
1149 09-09-2009 13:53:02 26.5 C 8.76 g/m*3 26.5 C 0 km/h
1150 09-09-2009 14:05:02 27.4 C 7.1 g/m*3 27.4 C 0 km/h
Sensor: Nr:Datum:Temp:Abs-Feuchte:Windchill:Wind:
Aussen-T/F 1151 09-09-2009 14:17:01 27.7 C 6.95 g/m*3 27.7 C 0 km/h
1152 09-09-2009 14:29:01 27.6 C 7.98 g/m*3 27.6 C 0 km/h
1153 09-09-2009 14:41:02 27.9 C 7.3 g/m*3 27.9 C 0 km/h
1154 09-09-2009 14:53:02 28.6 C 7.03 g/m*3 28.6 C 0 km/h
1155 09-09-2009 15:05:02 28.5 C 7.83 g/m*3 28.5 C 0 km/h
1156 09-09-2009 15:17:02 28.8 C 7.1 g/m*3 28.8 C 0 km/h
1157 09-09-2009 15:29:02 28.7 C 7.63 g/m*3 28.7 C 0 km/h
1158 09-09-2009 15:41:02 28.3 C 7.74 g/m*3 28.3 C 0 km/h
1159 09-09-2009 15:53:01 28.5 C 8.11 g/m*3 28.5 C 0 km/h
1160 09-09-2009 16:05:02 28.8 C 7.67 g/m*3 28.8 C 0 km/h
1161 09-09-2009 16:17:02 28.7 C 7.91 g/m*3 28.7 C 0 km/h
1162 09-09-2009 16:29:02 29 C 7.18 g/m*3 29 C 0 km/h
1163 09-09-2009 16:41:02 29.1 C 6.35 g/m*3 29.1 C 0 km/h
1164 09-09-2009 16:53:02 28.5 C 7.27 g/m*3 28.5 C 0 km/h
1165 09-09-2009 17:05:01 27.3 C 7.33 g/m*3 27.3 C 0 km/h
1166 09-09-2009 17:17:02 27.7 C 8.02 g/m*3 27.7 C 0 km/h
1167 09-09-2009 17:29:03 28.1 C 7.66 g/m*3 28.1 C 0 km/h
1168 09-09-2009 17:41:01 29.3 C 7.88 g/m*3 29.3 C 0 km/h
1169 09-09-2009 17:53:02 30.4 C 7.75 g/m*3 30.4 C 0 km/h
1170 09-09-2009 18:05:01 30 C 7.58 g/m*3 30 C 0 km/h
1171 09-09-2009 18:17:02 30 C 7.58 g/m*3 30 C 0 km/h
1172 09-09-2009 18:29:02 29.7 C 7.46 g/m*3 29.7 C 0 km/h
1173 09-09-2009 18:41:01 28.5 C 8.11 g/m*3 28.5 C 0 km/h
1174 09-09-2009 18:53:02 27.3 C 7.85 g/m*3 27.3 C 0 km/h
1175 09-09-2009 19:05:02 26.2 C 7.88 g/m*3 26.2 C 0 km/h
Sensor: Nr:Datum:Temp:Abs-Feuchte:Windchill:Wind:
Aussen-T/F 1176 09-09-2009 19:17:02 25.5 C 8.29 g/m*3 25.5 C 0 km/h
1177 09-09-2009 19:29:02 24.7 C 8.15 g/m*3 24.7 C 0 km/h
1178 09-09-2009 19:41:02 23.9 C 8 g/m*3 23.9 C 0 km/h
1179 09-09-2009 19:53:02 23.4 C 7.99 g/m*3 23.4 C 0 km/h
1180 09-09-2009 20:05:02 23.1 C 7.86 g/m*3 23.1 C 0 km/h
1181 09-09-2009 20:17:01 22.8 C 7.72 g/m*3 22.8 C 0 km/h
1182 09-09-2009 20:29:01 22.7 C 8.08 g/m*3 22.7 C 0 km/h
1183 09-09-2009 20:41:02 22.6 C 8.44 g/m*3 22.6 C 0 km/h
1184 09-09-2009 20:53:02 22.3 C 8.89 g/m*3 22.3 C 0 km/h
1185 09-09-2009 21:05:02 22 C 9.12 g/m*3 22 C 0 km/h
1186 09-09-2009 21:17:02 22.2 C 9.62 g/m*3 22.2 C 0 km/h
1187 09-09-2009 21:29:02 22.4 C 10.13 g/m*3 22.4 C 0 km/h
1188 09-09-2009 21:41:01 22.7 C 10.71 g/m*3 22.7 C 0 km/h
1189 09-09-2009 21:53:02 22.4 C 10.72 g/m*3 22.4 C 0 km/h
1190 09-09-2009 22:05:01 22.5 C 11.19 g/m*3 22.5 C 0 km/h
1191 09-09-2009 22:17:02 22.3 C 11.45 g/m*3 22.3 C 0 km/h
1192 09-09-2009 22:29:02 22 C 11.84 g/m*3 22 C 0 km/h
1193 09-09-2009 22:41:02 21.7 C 12.4 g/m*3 21.7 C 0 km/h
1194 09-09-2009 22:53:02 21.4 C 12.37 g/m*3 21.4 C 0 km/h
1195 09-09-2009 23:05:02 21.1 C 12.53 g/m*3 21.1 C 0 km/h
1196 09-09-2009 23:18:02 20.8 C 12.49 g/m*3 20.8 C 0 km/h
1197 09-09-2009 23:30:02 20.6 C 12.53 g/m*3 20.6 C 0 km/h
1198 09-09-2009 23:42:02 20.5 C 12.46 g/m*3 20.5 C 0 km/h
1199 09-09-2009 23:54:02 20.3 C 12.31 g/m*3 20.3 C 0 km/h
1200 10-09-2009 00:06:02 20.2 C 12.41 g/m*3 20.2 C 0 km/h
Sensor: Nr:Datum:Temp:Abs-Feuchte:Windchill:Wind:
Aussen-T/F 1201 10-09-2009 00:18:02 20.1 C 12.34 g/m*3 20.1 C 0 km/h
1202 10-09-2009 00:30:02 20.1 C 12.17 g/m*3 20.1 C 0 km/h
1203 10-09-2009 00:42:02 20.2 C 12.06 g/m*3 20.2 C 0 km/h
1204 10-09-2009 00:54:02 20.2 C 11.89 g/m*3 20.2 C 0 km/h
1205 10-09-2009 01:06:02 20.2 C 11.89 g/m*3 20.2 C 0 km/h
1206 10-09-2009 01:18:02 20.2 C 11.89 g/m*3 20.2 C 0 km/h
1207 10-09-2009 01:30:02 20.1 C 11.82 g/m*3 20.1 C 0 km/h
1208 10-09-2009 01:42:02 20 C 11.75 g/m*3 20 C 0 km/h
1209 10-09-2009 01:54:02 19.9 C 11.85 g/m*3 19.9 C 0 km/h
1210 10-09-2009 02:06:02 19.9 C 11.68 g/m*3 19.9 C 0 km/h
1211 10-09-2009 02:18:02 19.9 C 11.68 g/m*3 19.9 C 0 km/h
1212 10-09-2009 02:30:03 19.8 C 11.61 g/m*3 19.8 C 0 km/h
1213 10-09-2009 02:42:03 19.5 C 11.41 g/m*3 19.5 C 0 km/h
1214 10-09-2009 02:54:03 19.5 C 11.58 g/m*3 19.5 C 0 km/h
1215 10-09-2009 03:06:03 19.5 C 11.58 g/m*3 19.5 C 0 km/h
1216 10-09-2009 03:18:03 19.4 C 11.51 g/m*3 19.4 C 0 km/h
1217 10-09-2009 03:30:03 19.4 C 11.51 g/m*3 19.4 C 0 km/h
1218 10-09-2009 03:42:03 19.2 C 11.54 g/m*3 19.2 C 0 km/h
1219 10-09-2009 03:54:03 19.1 C 11.47 g/m*3 19.1 C 0 km/h
1220 10-09-2009 04:06:03 19.1 C 11.47 g/m*3 19.1 C 0 km/h
1221 10-09-2009 04:18:03 18.9 C 11.66 g/m*3 18.9 C 0 km/h
1222 10-09-2009 04:30:03 18.8 C 11.6 g/m*3 18.8 C 0 km/h
1223 10-09-2009 04:42:03 18.6 C 11.62 g/m*3 18.6 C 0 km/h
1224 10-09-2009 04:54:03 18.6 C 11.62 g/m*3 18.6 C 0 km/h
1225 10-09-2009 05:06:03 18.8 C 11.76 g/m*3 18.8 C 0 km/h
Sensor: Nr:Datum:Temp:Abs-Feuchte:Windchill:Wind:
Aussen-T/F 1226 10-09-2009 05:18:03 18.7 C 11.53 g/m*3 18.7 C 0 km/h
1227 10-09-2009 05:30:03 18.4 C 11.48 g/m*3 18.4 C 0 km/h
1228 10-09-2009 05:42:03 18.2 C 11.5 g/m*3 18.2 C 0 km/h
1229 10-09-2009 05:54:03 18.1 C 11.43 g/m*3 18.1 C 0 km/h
1230 10-09-2009 06:06:03 18.3 C 11.41 g/m*3 18.3 C 0 km/h
1231 10-09-2009 06:18:03 18.3 C 11.26 g/m*3 18.3 C 0 km/h
1232 10-09-2009 06:30:03 18.2 C 11.19 g/m*3 18.2 C 0 km/h
1233 10-09-2009 06:42:04 18 C 11.06 g/m*3 18 C 0 km/h
1234 10-09-2009 06:54:04 17.9 C 11.15 g/m*3 17.9 C 0 km/h
1235 10-09-2009 07:06:02 17.9 C 11.15 g/m*3 17.9 C 0 km/h
1236 10-09-2009 07:18:02 18 C 11.06 g/m*3 18 C 0 km/h
1237 10-09-2009 07:30:02 18.2 C 11.04 g/m*3 18.2 C 0 km/h
1238 10-09-2009 07:42:02 18.2 C 10.88 g/m*3 18.2 C 0 km/h
1239 10-09-2009 07:54:02 18.1 C 10.66 g/m*3 18.1 C 0 km/h
1240 10-09-2009 08:06:02 18.1 C 10.66 g/m*3 18.1 C 0 km/h
1241 10-09-2009 08:18:02 18.1 C 10.66 g/m*3 18.1 C 0 km/h
1242 10-09-2009 08:30:02 18 C 10.44 g/m*3 18 C 0 km/h
1243 10-09-2009 08:42:01 18.1 C 10.51 g/m*3 18.1 C 0 km/h
1244 10-09-2009 08:54:02 18 C 10.29 g/m*3 18 C 0 km/h
1245 10-09-2009 09:06:01 18 C 10.29 g/m*3 18 C 0 km/h
1246 10-09-2009 09:18:01 18.1 C 10.35 g/m*3 18.1 C 0 km/h
1247 10-09-2009 09:30:01 18.3 C 10.32 g/m*3 18.3 C 0 km/h
1248 10-09-2009 09:42:02 18.5 C 10.28 g/m*3 18.5 C 0 km/h
1249 10-09-2009 09:54:02 18 C 9.98 g/m*3 18 C 0 km/h
1250 10-09-2009 10:06:02 18 C 10.14 g/m*3 18 C 0 km/h
Sensor: Nr:Datum:Temp:Abs-Feuchte:Windchill:Wind:
Aussen-T/F 1251 10-09-2009 10:18:02 18.3 C 10.32 g/m*3 18.3 C 0 km/h
1252 10-09-2009 10:30:02 18.1 C 10.04 g/m*3 18.1 C 0 km/h
1253 10-09-2009 10:42:02 18.2 C 10.26 g/m*3 18.2 C 0 km/h
1254 10-09-2009 10:54:02 18.2 C 10.1 g/m*3 18.2 C 0 km/h
1255 10-09-2009 11:06:02 18.4 C 10.22 g/m*3 18.4 C 0 km/h
1256 10-09-2009 11:18:02 18.4 C 10.22 g/m*3 18.4 C 0 km/h
1257 10-09-2009 11:30:02 18.3 C 10.16 g/m*3 18.3 C 0 km/h
1258 10-09-2009 11:42:02 18.6 C 10.35 g/m*3 18.6 C 0 km/h
1259 10-09-2009 11:54:01 18.8 C 10.31 g/m*3 18.8 C 0 km/h
1260 10-09-2009 12:06:02 18.9 C 10.37 g/m*3 18.9 C 0 km/h
1261 10-09-2009 12:18:01 18.7 C 10.25 g/m*3 18.7 C 0 km/h
1262 10-09-2009 12:30:01 18.9 C 10.37 g/m*3 18.9 C 0 km/h
1263 10-09-2009 12:42:01 19.1 C 10.33 g/m*3 19.1 C 0 km/h
1264 10-09-2009 12:54:01 18.8 C 10.31 g/m*3 18.8 C 0 km/h
1265 10-09-2009 13:06:02 18.9 C 10.37 g/m*3 18.9 C 0 km/h
1266 10-09-2009 13:18:02 19.1 C 10.16 g/m*3 19.1 C 0 km/h
1267 10-09-2009 13:30:02 19.1 C 10.16 g/m*3 19.1 C 0 km/h
1268 10-09-2009 13:42:01 19.1 C 10.33 g/m*3 19.1 C 0 km/h
1269 10-09-2009 13:54:01 18.8 C 10.31 g/m*3 18.8 C 0 km/h
1270 10-09-2009 14:06:01 18.5 C 10.28 g/m*3 18.5 C 0 km/h
1271 10-09-2009 14:18:02 18.6 C 10.5 g/m*3 18.6 C 0 km/h
1272 10-09-2009 14:30:02 18.8 C 10.47 g/m*3 18.8 C 0 km/h
1273 10-09-2009 14:42:01 19 C 10.27 g/m*3 19 C 0 km/h
1274 10-09-2009 14:54:03 18.8 C 10.47 g/m*3 18.8 C 0 km/h
1275 10-09-2009 15:06:02 18.9 C 10.53 g/m*3 18.9 C 0 km/h
Sensor: Nr:Datum:Temp:Abs-Feuchte:Windchill:Wind:
Aussen-T/F 1276 10-09-2009 15:18:02 18.7 C 10.41 g/m*3 18.7 C 0 km/h
1277 10-09-2009 15:30:03 18.8 C 10.47 g/m*3 18.8 C 0 km/h
1278 10-09-2009 15:42:02 18.9 C 10.53 g/m*3 18.9 C 0 km/h
1279 10-09-2009 15:54:02 18.6 C 10.35 g/m*3 18.6 C 0 km/h
1280 10-09-2009 16:06:01 18.6 C 10.5 g/m*3 18.6 C 0 km/h
1281 10-09-2009 16:18:02 18.5 C 10.44 g/m*3 18.5 C 0 km/h
1282 10-09-2009 16:30:02 18.6 C 10.5 g/m*3 18.6 C 0 km/h
1283 10-09-2009 16:42:02 18.6 C 10.5 g/m*3 18.6 C 0 km/h
1284 10-09-2009 16:54:02 18.7 C 10.57 g/m*3 18.7 C 0 km/h
1285 10-09-2009 17:06:03 18.7 C 10.41 g/m*3 18.7 C 0 km/h
1286 10-09-2009 17:18:02 18.7 C 10.41 g/m*3 18.7 C 0 km/h
1287 10-09-2009 17:30:02 18.6 C 10.35 g/m*3 18.6 C 0 km/h
1288 10-09-2009 17:42:02 18.5 C 10.28 g/m*3 18.5 C 0 km/h
1289 10-09-2009 17:54:02 18.5 C 10.28 g/m*3 18.5 C 0 km/h
1290 10-09-2009 18:06:02 18.3 C 10.16 g/m*3 18.3 C 0 km/h
1291 10-09-2009 18:18:01 18.3 C 10.16 g/m*3 18.3 C 0 km/h
1292 10-09-2009 18:30:01 18.1 C 10.04 g/m*3 18.1 C 0 km/h
1293 10-09-2009 18:42:02 18 C 9.98 g/m*3 18 C 0 km/h
1294 10-09-2009 18:54:02 18 C 9.98 g/m*3 18 C 0 km/h
1295 10-09-2009 19:06:02 18 C 9.98 g/m*3 18 C 0 km/h
1296 10-09-2009 19:18:01 17.9 C 9.92 g/m*3 17.9 C 0 km/h
1297 10-09-2009 19:30:01 17.9 C 9.92 g/m*3 17.9 C 0 km/h
1298 10-09-2009 19:42:02 17.8 C 9.87 g/m*3 17.8 C 0 km/h
1299 10-09-2009 19:54:01 17.7 C 9.66 g/m*3 17.7 C 0 km/h
1300 10-09-2009 20:06:02 17.6 C 9.6 g/m*3 17.6 C 0 km/h
Sensor: Nr:Datum:Temp:Abs-Feuchte:Windchill:Wind:
Aussen-T/F 1301 10-09-2009 20:18:02 17.5 C 9.39 g/m*3 17.5 C 0 km/h
1302 10-09-2009 20:30:02 17.4 C 9.19 g/m*3 17.4 C 0 km/h
1303 10-09-2009 20:42:02 17.3 C 8.99 g/m*3 17.3 C 0 km/h
1304 10-09-2009 20:54:01 17.3 C 8.69 g/m*3 17.3 C 0 km/h
1305 10-09-2009 21:06:01 17.4 C 8.6 g/m*3 17.4 C 0 km/h
1306 10-09-2009 21:18:02 17.4 C 8.45 g/m*3 17.4 C 0 km/h
1307 10-09-2009 21:30:02 17.2 C 8.2 g/m*3 17.2 C 0 km/h
1308 10-09-2009 21:42:02 17.1 C 8.15 g/m*3 17.1 C 0 km/h
1309 10-09-2009 21:54:02 17 C 7.96 g/m*3 17 C 0 km/h
1310 10-09-2009 22:06:03 17 C 7.96 g/m*3 17 C 0 km/h
1311 10-09-2009 22:18:02 17 C 7.96 g/m*3 17 C 0 km/h
1312 10-09-2009 22:30:02 16.9 C 7.91 g/m*3 16.9 C 0 km/h
1313 10-09-2009 22:42:02 16.9 C 7.77 g/m*3 16.9 C 0 km/h
1314 10-09-2009 22:55:03 16.9 C 7.91 g/m*3 16.9 C 0 km/h
1315 10-09-2009 23:07:03 16.8 C 7.72 g/m*3 16.8 C 0 km/h
1316 10-09-2009 23:19:03 16.8 C 7.58 g/m*3 16.8 C 0 km/h
1317 10-09-2009 23:31:03 16.7 C 7.53 g/m*3 16.7 C 0 km/h
1318 10-09-2009 23:43:03 16.7 C 7.67 g/m*3 16.7 C 0 km/h
1319 10-09-2009 23:55:03 16.6 C 7.77 g/m*3 16.6 C 0 km/h
1320 11-09-2009 00:07:03 16.5 C 7.72 g/m*3 16.5 C 0 km/h
1321 11-09-2009 00:19:04 16.4 C 7.96 g/m*3 16.4 C 0 km/h
1322 11-09-2009 00:31:04 16.4 C 7.96 g/m*3 16.4 C 0 km/h
1323 11-09-2009 00:43:04 16.4 C 7.96 g/m*3 16.4 C 0 km/h
1324 11-09-2009 00:55:04 16.3 C 7.77 g/m*3 16.3 C 0 km/h
1325 11-09-2009 01:07:04 16.2 C 7.86 g/m*3 16.2 C 0 km/h
Sensor: Nr:Datum:Temp:Abs-Feuchte:Windchill:Wind:
Aussen-T/F 1326 11-09-2009 01:19:04 16.2 C 7.86 g/m*3 16.2 C 0 km/h
1327 11-09-2009 01:31:04 16.2 C 7.86 g/m*3 16.2 C 0 km/h
1328 11-09-2009 01:43:04 16.1 C 7.68 g/m*3 16.1 C 0 km/h
1329 11-09-2009 01:55:04 16.1 C 7.81 g/m*3 16.1 C 0 km/h
1330 11-09-2009 02:07:04 16.1 C 7.81 g/m*3 16.1 C 0 km/h
1331 11-09-2009 02:19:04 16 C 7.77 g/m*3 16 C 0 km/h
1332 11-09-2009 02:31:04 16 C 7.77 g/m*3 16 C 0 km/h
1333 11-09-2009 02:43:04 15.9 C 7.85 g/m*3 15.9 C 0 km/h
1334 11-09-2009 02:55:04 15.9 C 7.85 g/m*3 15.9 C 0 km/h
1335 11-09-2009 03:07:04 15.9 C 7.99 g/m*3 15.9 C 0 km/h
1336 11-09-2009 03:19:04 15.9 C 7.99 g/m*3 15.9 C 0 km/h
1337 11-09-2009 03:31:04 15.8 C 7.94 g/m*3 15.8 C 0 km/h
1338 11-09-2009 03:43:04 15.8 C 7.94 g/m*3 15.8 C 0 km/h
1339 11-09-2009 03:55:04 15.7 C 8.03 g/m*3 15.7 C 0 km/h
1340 11-09-2009 04:07:05 15.6 C 7.98 g/m*3 15.6 C 0 km/h
1341 11-09-2009 04:19:05 15.5 C 8.06 g/m*3 15.5 C 0 km/h
1342 11-09-2009 04:31:05 15.3 C 8.1 g/m*3 15.3 C 0 km/h
1343 11-09-2009 04:43:05 15.2 C 8.18 g/m*3 15.2 C 0 km/h
1344 11-09-2009 04:55:05 15.1 C 8.13 g/m*3 15.1 C 0 km/h
1345 11-09-2009 05:07:05 15.1 C 8.13 g/m*3 15.1 C 0 km/h
1346 11-09-2009 05:19:05 15 C 8.08 g/m*3 15 C 0 km/h
1347 11-09-2009 05:31:05 14.9 C 8.28 g/m*3 14.9 C 0 km/h
1348 11-09-2009 05:43:05 14.8 C 8.23 g/m*3 14.8 C 0 km/h
1349 11-09-2009 05:55:05 14.7 C 8.18 g/m*3 14.7 C 0 km/h
1350 11-09-2009 06:07:05 14.6 C 8.13 g/m*3 14.6 C 0 km/h
Sensor: Nr:Datum:Temp:Abs-Feuchte:Windchill:Wind:
Aussen-T/F 1351 11-09-2009 06:19:05 14.6 C 8.26 g/m*3 14.6 C 0 km/h
1352 11-09-2009 06:31:04 14.4 C 8.16 g/m*3 14.4 C 0 km/h
1353 11-09-2009 06:43:04 14 C 8.08 g/m*3 14 C 0 km/h
1354 11-09-2009 06:55:02 13.9 C 8.15 g/m*3 13.9 C 0 km/h
1355 11-09-2009 07:07:02 13.5 C 8.19 g/m*3 13.5 C 0 km/h
1356 11-09-2009 07:19:02 13.2 C 8.15 g/m*3 13.2 C 0 km/h
1357 11-09-2009 07:31:02 13 C 8.17 g/m*3 13 C 0 km/h
1358 11-09-2009 07:43:02 12.9 C 8.34 g/m*3 12.9 C 0 km/h
1359 11-09-2009 07:55:02 12.9 C 8.34 g/m*3 12.9 C 0 km/h
1360 11-09-2009 08:07:02 13.1 C 8.33 g/m*3 13.1 C 0 km/h
1361 11-09-2009 08:19:02 13.1 C 8.33 g/m*3 13.1 C 0 km/h
1362 11-09-2009 08:31:01 13.3 C 8.43 g/m*3 13.3 C 0 km/h
1363 11-09-2009 08:43:01 13.4 C 8.37 g/m*3 13.4 C 0 km/h
1364 11-09-2009 08:55:02 13.5 C 8.3 g/m*3 13.5 C 0 km/h
1365 11-09-2009 09:07:01 13.7 C 8.29 g/m*3 13.7 C 0 km/h
1366 11-09-2009 09:19:02 14.2 C 8.3 g/m*3 14.2 C 0 km/h
1367 11-09-2009 09:31:02 14.4 C 8.16 g/m*3 14.4 C 0 km/h
1368 11-09-2009 09:43:02 14.7 C 8.18 g/m*3 14.7 C 0 km/h
1369 11-09-2009 09:55:02 14.9 C 8.28 g/m*3 14.9 C 0 km/h
1370 11-09-2009 10:07:02 15.3 C 8.1 g/m*3 15.3 C 0 km/h
1371 11-09-2009 10:19:02 16.2 C 8.14 g/m*3 16.2 C 0 km/h
1372 11-09-2009 10:31:02 16.9 C 7.91 g/m*3 16.9 C 0 km/h
1373 11-09-2009 10:43:02 17.2 C 7.32 g/m*3 17.2 C 0 km/h
1374 11-09-2009 10:55:02 17.6 C 7.35 g/m*3 17.6 C 0 km/h
1375 11-09-2009 11:07:02 18 C 7.22 g/m*3 18 C 0 km/h
Sensor: Nr:Datum:Temp:Abs-Feuchte:Windchill:Wind:
Aussen-T/F 1376 11-09-2009 11:19:03 18.2 C 7.15 g/m*3 18.2 C 0 km/h
1377 11-09-2009 11:31:02 18.4 C 7.08 g/m*3 18.4 C 0 km/h
1378 11-09-2009 11:43:02 19 C 7.01 g/m*3 19 C 0 km/h
1379 11-09-2009 11:55:02 18.5 C 6.8 g/m*3 18.5 C 0 km/h
1380 11-09-2009 12:07:02 18.3 C 6.88 g/m*3 18.3 C 0 km/h
1381 11-09-2009 12:19:03 18.1 C 6.49 g/m*3 18.1 C 0 km/h
1382 11-09-2009 12:31:02 18.8 C 6.6 g/m*3 18.8 C 0 km/h
1383 11-09-2009 12:43:02 19.1 C 6.56 g/m*3 19.1 C 0 km/h
1384 11-09-2009 12:55:03 19.6 C 6.75 g/m*3 19.6 C 0 km/h
1385 11-09-2009 13:07:02 20.2 C 6.64 g/m*3 20.2 C 0 km/h
1386 11-09-2009 13:19:02 20 C 6.39 g/m*3 20 C 0 km/h
1387 11-09-2009 13:31:02 20.6 C 6.44 g/m*3 20.6 C 0 km/h
1388 11-09-2009 13:43:02 20.8 C 6.34 g/m*3 20.8 C 0 km/h
1389 11-09-2009 13:55:02 21.2 C 6.3 g/m*3 21.2 C 0 km/h
1390 11-09-2009 14:07:01 22.1 C 6.05 g/m*3 22.1 C 0 km/h
1391 11-09-2009 14:19:02 22.3 C 5.92 g/m*3 22.3 C 0 km/h
1392 11-09-2009 14:31:02 22.9 C 5.72 g/m*3 22.9 C 0 km/h
1393 11-09-2009 14:43:02 22.5 C 5.79 g/m*3 22.5 C 0 km/h
1394 11-09-2009 14:55:02 22.7 C 5.66 g/m*3 22.7 C 0 km/h
1395 11-09-2009 15:07:02 23.7 C 5.78 g/m*3 23.7 C 0 km/h
1396 11-09-2009 15:19:02 24.1 C 5.69 g/m*3 24.1 C 0 km/h
1397 11-09-2009 15:31:02 23.6 C 5.53 g/m*3 23.6 C 0 km/h
1398 11-09-2009 15:43:02 23.5 C 5.5 g/m*3 23.5 C 0 km/h
1399 11-09-2009 15:55:02 24.3 C 5.53 g/m*3 24.3 C 0 km/h
1400 11-09-2009 16:07:02 24.2 C 5.5 g/m*3 24.2 C 0 km/h
Sensor: Nr:Datum:Temp:Abs-Feuchte:Windchill:Wind:
Aussen-T/F 1401 11-09-2009 16:19:01 24.2 C 5.5 g/m*3 24.2 C 0 km/h
1402 11-09-2009 16:31:02 23.8 C 5.81 g/m*3 23.8 C 0 km/h
1403 11-09-2009 16:43:03 24.5 C 5.82 g/m*3 24.5 C 0 km/h
1404 11-09-2009 16:55:02 24.4 C 5.56 g/m*3 24.4 C 0 km/h
1405 11-09-2009 17:07:02 23.2 C 5.61 g/m*3 23.2 C 0 km/h
1406 11-09-2009 17:19:01 22.9 C 5.93 g/m*3 22.9 C 0 km/h
1407 11-09-2009 17:31:02 22.6 C 5.62 g/m*3 22.6 C 0 km/h
1408 11-09-2009 17:43:02 23.1 C 5.79 g/m*3 23.1 C 0 km/h
1409 11-09-2009 17:55:02 23.7 C 5.78 g/m*3 23.7 C 0 km/h
1410 11-09-2009 18:07:02 23.8 C 5.81 g/m*3 23.8 C 0 km/h
1411 11-09-2009 18:19:02 23.5 C 5.5 g/m*3 23.5 C 0 km/h
1412 11-09-2009 18:31:02 23.2 C 5.61 g/m*3 23.2 C 0 km/h
1413 11-09-2009 18:43:02 22.7 C 5.66 g/m*3 22.7 C 0 km/h
1414 11-09-2009 18:55:01 22.3 C 5.53 g/m*3 22.3 C 0 km/h
1415 11-09-2009 19:07:02 21.8 C 5.76 g/m*3 21.8 C 0 km/h
1416 11-09-2009 19:19:02 20.6 C 5.73 g/m*3 20.6 C 0 km/h
1417 11-09-2009 19:31:02 20.1 C 5.91 g/m*3 20.1 C 0 km/h
1418 11-09-2009 19:43:02 19.7 C 5.94 g/m*3 19.7 C 0 km/h
1419 11-09-2009 19:55:02 19.1 C 6.07 g/m*3 19.1 C 0 km/h
1420 11-09-2009 20:07:02 18.5 C 6.17 g/m*3 18.5 C 0 km/h
1421 11-09-2009 20:19:02 18 C 6.14 g/m*3 18 C 0 km/h
1422 11-09-2009 20:31:01 17.6 C 6.15 g/m*3 17.6 C 0 km/h
1423 11-09-2009 20:43:01 17.2 C 6.3 g/m*3 17.2 C 0 km/h
1424 11-09-2009 20:55:02 16.7 C 6.4 g/m*3 16.7 C 0 km/h
1425 11-09-2009 21:07:01 16.4 C 6.28 g/m*3 16.4 C 0 km/h
Sensor: Nr:Datum:Temp:Abs-Feuchte:Windchill:Wind:
Aussen-T/F 1426 11-09-2009 21:19:02 16.2 C 6.34 g/m*3 16.2 C 0 km/h
1427 11-09-2009 21:31:02 16 C 6.4 g/m*3 16 C 0 km/h
1428 11-09-2009 21:43:02 15.7 C 6.42 g/m*3 15.7 C 0 km/h
1429 11-09-2009 21:55:02 15.5 C 6.48 g/m*3 15.5 C 0 km/h
1430 11-09-2009 22:07:02 15.3 C 6.53 g/m*3 15.3 C 0 km/h
1431 11-09-2009 22:19:02 15 C 6.41 g/m*3 15 C 0 km/h
1432 11-09-2009 22:31:02 14.9 C 6.5 g/m*3 14.9 C 0 km/h
1433 11-09-2009 22:43:02 14.7 C 6.67 g/m*3 14.7 C 0 km/h
1434 11-09-2009 22:56:03 14.7 C 6.67 g/m*3 14.7 C 0 km/h
1435 11-09-2009 23:08:03 14.7 C 6.8 g/m*3 14.7 C 0 km/h
1436 11-09-2009 23:20:03 14.7 C 6.67 g/m*3 14.7 C 0 km/h
1437 11-09-2009 23:32:04 14.7 C 6.8 g/m*3 14.7 C 0 km/h
1438 11-09-2009 23:44:04 14.6 C 6.76 g/m*3 14.6 C 0 km/h
1439 11-09-2009 23:56:04 14.2 C 6.72 g/m*3 14.2 C 0 km/h
1440 12-09-2009 00:08:04 14.1 C 6.67 g/m*3 14.1 C 0 km/h
1441 12-09-2009 00:20:04 14.3 C 6.76 g/m*3 14.3 C 0 km/h
1442 12-09-2009 00:32:04 14.2 C 6.84 g/m*3 14.2 C 0 km/h
1443 12-09-2009 00:44:04 14.2 C 6.84 g/m*3 14.2 C 0 km/h
1444 12-09-2009 00:56:04 14.1 C 6.8 g/m*3 14.1 C 0 km/h
1445 12-09-2009 01:08:04 14 C 6.88 g/m*3 14 C 0 km/h
1446 12-09-2009 01:20:04 13.9 C 6.95 g/m*3 13.9 C 0 km/h
1447 12-09-2009 01:32:04 13.8 C 7.03 g/m*3 13.8 C 0 km/h
1448 12-09-2009 01:44:04 13.6 C 6.94 g/m*3 13.6 C 0 km/h
1449 12-09-2009 01:56:04 13.5 C 7.02 g/m*3 13.5 C 0 km/h
1450 12-09-2009 02:08:04 13.5 C 7.02 g/m*3 13.5 C 0 km/h
Sensor: Nr:Datum:Temp:Abs-Feuchte:Windchill:Wind:
Aussen-T/F 1451 12-09-2009 02:20:04 13.4 C 6.97 g/m*3 13.4 C 0 km/h
1452 12-09-2009 02:32:04 13.4 C 7.09 g/m*3 13.4 C 0 km/h
1453 12-09-2009 02:44:04 13.4 C 7.09 g/m*3 13.4 C 0 km/h
1454 12-09-2009 02:56:04 13.5 C 7.25 g/m*3 13.5 C 0 km/h
1455 12-09-2009 03:08:04 13.4 C 7.21 g/m*3 13.4 C 0 km/h
1456 12-09-2009 03:20:04 13.4 C 7.21 g/m*3 13.4 C 0 km/h
1457 12-09-2009 03:32:05 13.4 C 7.44 g/m*3 13.4 C 0 km/h
1458 12-09-2009 03:44:05 13.4 C 7.44 g/m*3 13.4 C 0 km/h
1459 12-09-2009 03:56:05 13.4 C 7.44 g/m*3 13.4 C 0 km/h
1460 12-09-2009 04:08:05 13.4 C 7.56 g/m*3 13.4 C 0 km/h
1461 12-09-2009 04:20:05 13.4 C 7.56 g/m*3 13.4 C 0 km/h
1462 12-09-2009 04:32:05 13.4 C 7.67 g/m*3 13.4 C 0 km/h
1463 12-09-2009 04:44:05 13.3 C 7.63 g/m*3 13.3 C 0 km/h
1464 12-09-2009 04:56:05 13.3 C 7.63 g/m*3 13.3 C 0 km/h
1465 12-09-2009 05:08:05 13.2 C 7.69 g/m*3 13.2 C 0 km/h
1466 12-09-2009 05:20:05 13.1 C 7.65 g/m*3 13.1 C 0 km/h
1467 12-09-2009 05:32:05 13 C 7.71 g/m*3 13 C 0 km/h
1468 12-09-2009 05:44:05 13.1 C 7.76 g/m*3 13.1 C 0 km/h
1469 12-09-2009 05:56:05 13.1 C 7.76 g/m*3 13.1 C 0 km/h
1470 12-09-2009 06:08:05 12.9 C 7.89 g/m*3 12.9 C 0 km/h
1471 12-09-2009 06:20:05 12.7 C 7.9 g/m*3 12.7 C 0 km/h
1472 12-09-2009 06:32:05 12.5 C 8.03 g/m*3 12.5 C 0 km/h
1473 12-09-2009 06:44:05 12.4 C 7.98 g/m*3 12.4 C 0 km/h
1474 12-09-2009 06:56:05 12.4 C 8.09 g/m*3 12.4 C 0 km/h
1475 12-09-2009 07:08:05 12.3 C 8.04 g/m*3 12.3 C 0 km/h
Sensor: Nr:Datum:Temp:Abs-Feuchte:Windchill:Wind:
Aussen-T/F 1476 12-09-2009 07:20:06 12.2 C 8.09 g/m*3 12.2 C 0 km/h
1477 12-09-2009 07:32:06 12.2 C 8.2 g/m*3 12.2 C 0 km/h
1478 12-09-2009 07:44:06 12.2 C 8.31 g/m*3 12.2 C 0 km/h
1479 12-09-2009 07:56:02 12.2 C 8.31 g/m*3 12.2 C 0 km/h
1480 12-09-2009 08:08:02 12.2 C 8.31 g/m*3 12.2 C 0 km/h
1481 12-09-2009 08:20:02 12.2 C 8.31 g/m*3 12.2 C 0 km/h
1482 12-09-2009 08:32:01 12.2 C 8.31 g/m*3 12.2 C 0 km/h
1483 12-09-2009 08:44:01 12.2 C 8.31 g/m*3 12.2 C 0 km/h
1484 12-09-2009 08:56:02 12.4 C 8.41 g/m*3 12.4 C 0 km/h
1485 12-09-2009 09:08:01 12.8 C 8.51 g/m*3 12.8 C 0 km/h
1486 12-09-2009 09:20:02 13 C 8.39 g/m*3 13 C 0 km/h
1487 12-09-2009 09:32:02 13.3 C 8.55 g/m*3 13.3 C 0 km/h
1488 12-09-2009 09:44:02 14.5 C 8.33 g/m*3 14.5 C 0 km/h
1489 12-09-2009 09:56:02 15.4 C 8.15 g/m*3 15.4 C 0 km/h
1490 12-09-2009 10:08:03 15.8 C 7.94 g/m*3 15.8 C 0 km/h
1491 12-09-2009 10:20:02 15.9 C 7.85 g/m*3 15.9 C 0 km/h
1492 12-09-2009 10:32:02 16 C 7.77 g/m*3 16 C 0 km/h
1493 12-09-2009 10:44:02 16 C 7.77 g/m*3 16 C 0 km/h
1494 12-09-2009 10:56:01 16.8 C 7.86 g/m*3 16.8 C 0 km/h
1495 12-09-2009 11:08:02 17.3 C 7.51 g/m*3 17.3 C 0 km/h
1496 12-09-2009 11:20:01 17.1 C 7.28 g/m*3 17.1 C 0 km/h
1497 12-09-2009 11:32:02 17.5 C 7.45 g/m*3 17.5 C 0 km/h
1498 12-09-2009 11:44:02 17.9 C 7.33 g/m*3 17.9 C 0 km/h
1499 12-09-2009 11:56:01 18.6 C 7.32 g/m*3 18.6 C 0 km/h
1500 12-09-2009 12:08:02 19.2 C 7.09 g/m*3 19.2 C 0 km/h
Sensor: Nr:Datum:Temp:Abs-Feuchte:Windchill:Wind:
Aussen-T/F 1501 12-09-2009 12:20:01 18.6 C 7 g/m*3 18.6 C 0 km/h
1502 12-09-2009 12:32:02 19 C 7.01 g/m*3 19 C 0 km/h
1503 12-09-2009 12:44:02 19.4 C 7.01 g/m*3 19.4 C 0 km/h
1504 12-09-2009 12:56:01 19.7 C 7.3 g/m*3 19.7 C 0 km/h
1505 12-09-2009 13:08:02 19.7 C 6.79 g/m*3 19.7 C 0 km/h
1506 12-09-2009 13:20:02 19.6 C 6.58 g/m*3 19.6 C 0 km/h
1507 12-09-2009 13:32:02 20.3 C 6.68 g/m*3 20.3 C 0 km/h
1508 12-09-2009 13:44:02 20.9 C 6.56 g/m*3 20.9 C 0 km/h
1509 12-09-2009 13:56:01 21.5 C 6.6 g/m*3 21.5 C 0 km/h
1510 12-09-2009 14:08:02 21 C 6.05 g/m*3 21 C 0 km/h
1511 12-09-2009 14:20:02 20.8 C 6.34 g/m*3 20.8 C 0 km/h
1512 12-09-2009 14:32:01 20.6 C 6.44 g/m*3 20.6 C 0 km/h
1513 12-09-2009 14:44:01 21.7 C 6.1 g/m*3 21.7 C 0 km/h
1514 12-09-2009 14:56:02 22 C 6.02 g/m*3 22 C 0 km/h
1515 12-09-2009 15:08:02 22.3 C 5.92 g/m*3 22.3 C 0 km/h
1516 12-09-2009 15:20:02 23.3 C 5.85 g/m*3 23.3 C 0 km/h
1517 12-09-2009 15:32:02 21.8 C 5.95 g/m*3 21.8 C 0 km/h
1518 12-09-2009 15:44:02 23.5 C 5.71 g/m*3 23.5 C 0 km/h
1519 12-09-2009 15:56:02 23.2 C 5.61 g/m*3 23.2 C 0 km/h
1520 12-09-2009 16:08:02 21.6 C 5.88 g/m*3 21.6 C 0 km/h
1521 12-09-2009 16:20:02 22 C 5.43 g/m*3 22 C 0 km/h
1522 12-09-2009 16:32:01 24.3 C 5.75 g/m*3 24.3 C 0 km/h
1523 12-09-2009 16:44:01 23.4 C 5.47 g/m*3 23.4 C 0 km/h
1524 12-09-2009 16:56:02 24.8 C 5.46 g/m*3 24.8 C 0 km/h
1525 12-09-2009 17:08:01 23.4 C 5.26 g/m*3 23.4 C 0 km/h
Sensor: Nr:Datum:Temp:Abs-Feuchte:Windchill:Wind:
Aussen-T/F 1526 12-09-2009 17:20:02 24.1 C 5.03 g/m*3 24.1 C 0 km/h
1527 12-09-2009 17:32:01 24.5 C 5.15 g/m*3 24.5 C 0 km/h
1528 12-09-2009 17:44:01 24.7 C 4.75 g/m*3 24.7 C 0 km/h
1529 12-09-2009 17:56:02 25.2 C 4.89 g/m*3 25.2 C 0 km/h
1530 12-09-2009 18:08:02 24.9 C 5.04 g/m*3 24.9 C 0 km/h
1531 12-09-2009 18:20:02 24.4 C 4.67 g/m*3 24.4 C 0 km/h
1532 12-09-2009 18:32:03 23.4 C 5.26 g/m*3 23.4 C 0 km/h
1533 12-09-2009 18:44:03 22 C 5.43 g/m*3 22 C 0 km/h
1534 12-09-2009 18:56:02 20.8 C 5.98 g/m*3 20.8 C 0 km/h
1535 12-09-2009 19:08:02 20.4 C 6.19 g/m*3 20.4 C 0 km/h
1536 12-09-2009 19:20:02 20 C 6.05 g/m*3 20 C 0 km/h
1537 12-09-2009 19:32:02 20 C 6.05 g/m*3 20 C 0 km/h
1538 12-09-2009 19:44:02 19.5 C 6.04 g/m*3 19.5 C 0 km/h
1539 12-09-2009 19:56:02 19.3 C 5.97 g/m*3 19.3 C 0 km/h
1540 12-09-2009 20:08:02 18.9 C 5.99 g/m*3 18.9 C 0 km/h
1541 12-09-2009 20:20:02 18.7 C 6.08 g/m*3 18.7 C 0 km/h
1542 12-09-2009 20:32:02 18.3 C 6.25 g/m*3 18.3 C 0 km/h
1543 12-09-2009 20:44:02 18 C 6.3 g/m*3 18 C 0 km/h
1544 12-09-2009 20:56:01 17.7 C 6.49 g/m*3 17.7 C 0 km/h
1545 12-09-2009 21:08:01 17.5 C 6.41 g/m*3 17.5 C 0 km/h
1546 12-09-2009 21:20:01 17.4 C 6.67 g/m*3 17.4 C 0 km/h
1547 12-09-2009 21:32:02 17.1 C 6.55 g/m*3 17.1 C 0 km/h
1548 12-09-2009 21:44:02 17 C 6.51 g/m*3 17 C 0 km/h
1549 12-09-2009 21:56:02 16.8 C 6.72 g/m*3 16.8 C 0 km/h
1550 12-09-2009 22:08:02 16.7 C 6.68 g/m*3 16.7 C 0 km/h
Sensor: Nr:Datum:Temp:Abs-Feuchte:Windchill:Wind:
Aussen-T/F 1551 12-09-2009 22:20:01 16.7 C 6.68 g/m*3 16.7 C 0 km/h
1552 12-09-2009 22:32:02 16.6 C 6.78 g/m*3 16.6 C 0 km/h
1553 12-09-2009 22:44:02 16.5 C 6.88 g/m*3 16.5 C 0 km/h
1554 12-09-2009 22:56:01 16.4 C 6.84 g/m*3 16.4 C 0 km/h
1555 12-09-2009 23:08:02 16.2 C 6.9 g/m*3 16.2 C 0 km/h
1556 12-09-2009 23:20:02 16 C 6.95 g/m*3 16 C 0 km/h
1557 12-09-2009 23:32:02 15.8 C 7 g/m*3 15.8 C 0 km/h
1558 12-09-2009 23:44:02 15.5 C 7.14 g/m*3 15.5 C 0 km/h
1559 12-09-2009 23:56:02 15 C 7.05 g/m*3 15 C 0 km/h
1560 13-09-2009 00:09:03 14.7 C 7.18 g/m*3 14.7 C 0 km/h
1561 13-09-2009 00:21:03 14.6 C 7.51 g/m*3 14.6 C 0 km/h
1562 13-09-2009 00:33:03 14.3 C 7.49 g/m*3 14.3 C 0 km/h
1563 13-09-2009 00:45:03 14.2 C 7.57 g/m*3 14.2 C 0 km/h
1564 13-09-2009 00:57:03 14 C 7.48 g/m*3 14 C 0 km/h
1565 13-09-2009 01:09:03 13.7 C 7.58 g/m*3 13.7 C 0 km/h
1566 13-09-2009 01:21:04 13.7 C 7.7 g/m*3 13.7 C 0 km/h
1567 13-09-2009 01:33:04 13.4 C 7.79 g/m*3 13.4 C 0 km/h
1568 13-09-2009 01:45:04 13.2 C 7.81 g/m*3 13.2 C 0 km/h
1569 13-09-2009 01:57:04 13.1 C 7.87 g/m*3 13.1 C 0 km/h
1570 13-09-2009 02:09:04 13.1 C 7.99 g/m*3 13.1 C 0 km/h
1571 13-09-2009 02:21:04 13.1 C 7.99 g/m*3 13.1 C 0 km/h
1572 13-09-2009 02:33:04 13.1 C 7.99 g/m*3 13.1 C 0 km/h
1573 13-09-2009 02:45:04 13.1 C 7.99 g/m*3 13.1 C 0 km/h
1574 13-09-2009 02:57:04 12.8 C 8.06 g/m*3 12.8 C 0 km/h
1575 13-09-2009 03:09:04 12.6 C 8.08 g/m*3 12.6 C 0 km/h
Sensor: Nr:Datum:Temp:Abs-Feuchte:Windchill:Wind:
Aussen-T/F 1576 13-09-2009 03:21:04 12.4 C 8.09 g/m*3 12.4 C 0 km/h
1577 13-09-2009 03:33:04 12.3 C 8.04 g/m*3 12.3 C 0 km/h
1578 13-09-2009 03:45:04 12.4 C 8.19 g/m*3 12.4 C 0 km/h
1579 13-09-2009 03:57:04 12.7 C 8.35 g/m*3 12.7 C 0 km/h
1580 13-09-2009 04:09:04 12.8 C 8.4 g/m*3 12.8 C 0 km/h
1581 13-09-2009 04:21:04 13 C 8.39 g/m*3 13 C 0 km/h
1582 13-09-2009 04:33:04 12.7 C 8.35 g/m*3 12.7 C 0 km/h
1583 13-09-2009 04:45:04 13 C 8.73 g/m*3 13 C 0 km/h
1584 13-09-2009 04:57:04 13.1 C 8.67 g/m*3 13.1 C 0 km/h
1585 13-09-2009 05:09:05 13.2 C 8.73 g/m*3 13.2 C 0 km/h
1586 13-09-2009 05:21:05 13.4 C 8.83 g/m*3 13.4 C 0 km/h
1587 13-09-2009 05:33:05 13.4 C 8.72 g/m*3 13.4 C 0 km/h
1588 13-09-2009 05:45:05 13.5 C 8.77 g/m*3 13.5 C 0 km/h
1589 13-09-2009 05:57:05 13.5 C 8.77 g/m*3 13.5 C 0 km/h
1590 13-09-2009 06:09:05 13.6 C 8.83 g/m*3 13.6 C 0 km/h
1591 13-09-2009 06:21:05 13.7 C 8.88 g/m*3 13.7 C 0 km/h
1592 13-09-2009 06:33:05 13.7 C 8.88 g/m*3 13.7 C 0 km/h
1593 13-09-2009 06:45:05 13.7 C 8.88 g/m*3 13.7 C 0 km/h
1594 13-09-2009 06:57:05 13.7 C 8.76 g/m*3 13.7 C 0 km/h
1595 13-09-2009 07:09:05 13.6 C 8.71 g/m*3 13.6 C 0 km/h
1596 13-09-2009 07:21:05 13.1 C 8.56 g/m*3 13.1 C 0 km/h
1597 13-09-2009 07:33:05 12.8 C 8.62 g/m*3 12.8 C 0 km/h
1598 13-09-2009 07:45:01 12.7 C 8.57 g/m*3 12.7 C 0 km/h
1599 13-09-2009 07:57:01 12.7 C 8.57 g/m*3 12.7 C 0 km/h
1600 13-09-2009 08:09:02 13 C 8.51 g/m*3 13 C 0 km/h
Sensor: Nr:Datum:Temp:Abs-Feuchte:Windchill:Wind:
Aussen-T/F 1601 13-09-2009 08:21:01 13.2 C 8.5 g/m*3 13.2 C 0 km/h
1602 13-09-2009 08:33:01 13.1 C 8.33 g/m*3 13.1 C 0 km/h
1603 13-09-2009 08:45:01 12.9 C 8.45 g/m*3 12.9 C 0 km/h
1604 13-09-2009 08:57:01 13.1 C 8.56 g/m*3 13.1 C 0 km/h
1605 13-09-2009 09:09:02 13.9 C 8.51 g/m*3 13.9 C 0 km/h
1606 13-09-2009 09:21:01 14.2 C 8.18 g/m*3 14.2 C 0 km/h
1607 13-09-2009 09:33:01 14.4 C 8.03 g/m*3 14.4 C 0 km/h
1608 13-09-2009 09:45:01 14.3 C 7.99 g/m*3 14.3 C 0 km/h
1609 13-09-2009 09:57:01 14.5 C 8.08 g/m*3 14.5 C 0 km/h
1610 13-09-2009 10:09:02 14.7 C 8.18 g/m*3 14.7 C 0 km/h
1611 13-09-2009 10:21:02 15 C 7.95 g/m*3 15 C 0 km/h
1612 13-09-2009 10:33:01 14.7 C 7.68 g/m*3 14.7 C 0 km/h
1613 13-09-2009 10:45:02 15 C 7.82 g/m*3 15 C 0 km/h
1614 13-09-2009 10:57:02 15.2 C 7.79 g/m*3 15.2 C 0 km/h
1615 13-09-2009 11:09:01 15 C 7.82 g/m*3 15 C 0 km/h
1616 13-09-2009 11:21:02 14.4 C 8.16 g/m*3 14.4 C 0 km/h
1617 13-09-2009 11:33:01 13.8 C 8.58 g/m*3 13.8 C 0 km/h
1618 13-09-2009 11:45:02 13.7 C 9.12 g/m*3 13.7 C 0 km/h
1619 13-09-2009 11:57:02 13.6 C 9.06 g/m*3 13.6 C 0 km/h
1620 13-09-2009 12:09:02 14.3 C 9.09 g/m*3 14.3 C 0 km/h
1621 13-09-2009 12:21:02 15.2 C 8.7 g/m*3 15.2 C 0 km/h
1622 13-09-2009 12:33:02 15.6 C 8.64 g/m*3 15.6 C 0 km/h
1623 13-09-2009 12:45:02 15.5 C 8.46 g/m*3 15.5 C 0 km/h
1624 13-09-2009 12:57:02 15.8 C 8.48 g/m*3 15.8 C 0 km/h
1625 13-09-2009 13:09:01 15 C 8.21 g/m*3 15 C 0 km/h
Sensor: Nr:Datum:Temp:Abs-Feuchte:Windchill:Wind:
Aussen-T/F 1626 13-09-2009 13:21:02 14.7 C 9.07 g/m*3 14.7 C 0 km/h
1627 13-09-2009 13:33:02 15 C 8.85 g/m*3 15 C 0 km/h
1628 13-09-2009 13:45:02 15.7 C 8.7 g/m*3 15.7 C 0 km/h
1629 13-09-2009 13:57:02 16.2 C 8.27 g/m*3 16.2 C 0 km/h
1630 13-09-2009 14:09:03 16.8 C 8.44 g/m*3 16.8 C 0 km/h
1631 13-09-2009 14:21:02 17.3 C 7.96 g/m*3 17.3 C 0 km/h
1632 13-09-2009 14:33:02 17.4 C 7.56 g/m*3 17.4 C 0 km/h
1633 13-09-2009 14:45:01 17.6 C 7.5 g/m*3 17.6 C 0 km/h
1634 13-09-2009 14:57:01 17.4 C 7.26 g/m*3 17.4 C 0 km/h
1635 13-09-2009 15:09:02 17.7 C 7.24 g/m*3 17.7 C 0 km/h
1636 13-09-2009 15:21:01 17 C 7.23 g/m*3 17 C 0 km/h
1637 13-09-2009 15:33:02 16.3 C 7.49 g/m*3 16.3 C 0 km/h
1638 13-09-2009 15:45:02 15.5 C 8.06 g/m*3 15.5 C 0 km/h
1639 13-09-2009 15:57:02 15.7 C 8.03 g/m*3 15.7 C 0 km/h
1640 13-09-2009 16:09:02 16.4 C 7.68 g/m*3 16.4 C 0 km/h
1641 13-09-2009 16:21:01 16.9 C 7.48 g/m*3 16.9 C 0 km/h
1642 13-09-2009 16:33:02 17 C 7.52 g/m*3 17 C 0 km/h
1643 13-09-2009 16:45:02 16.8 C 7.29 g/m*3 16.8 C 0 km/h
1644 13-09-2009 16:57:02 17.2 C 7.32 g/m*3 17.2 C 0 km/h
1645 13-09-2009 17:09:02 18.2 C 7.31 g/m*3 18.2 C 0 km/h
1646 13-09-2009 17:21:01 17.8 C 7.13 g/m*3 17.8 C 0 km/h
1647 13-09-2009 17:33:02 17.4 C 7.26 g/m*3 17.4 C 0 km/h
1648 13-09-2009 17:45:01 17.3 C 7.22 g/m*3 17.3 C 0 km/h
1649 13-09-2009 17:57:01 16.7 C 7.25 g/m*3 16.7 C 0 km/h
1650 13-09-2009 18:09:02 16.4 C 7.54 g/m*3 16.4 C 0 km/h
Sensor: Nr:Datum:Temp:Abs-Feuchte:Windchill:Wind:
Aussen-T/F 1651 13-09-2009 18:21:02 16.4 C 7.4 g/m*3 16.4 C 0 km/h
1652 13-09-2009 18:33:01 16.2 C 7.58 g/m*3 16.2 C 0 km/h
1653 13-09-2009 18:45:02 14.7 C 8.44 g/m*3 14.7 C 0 km/h
1654 13-09-2009 18:57:02 14.2 C 8.91 g/m*3 14.2 C 0 km/h
1655 13-09-2009 19:09:02 13.9 C 9.47 g/m*3 13.9 C 0 km/h
1656 13-09-2009 19:21:02 13.6 C 9.77 g/m*3 13.6 C 0 km/h
1657 13-09-2009 19:33:01 13.5 C 9.94 g/m*3 13.5 C 0 km/h
1658 13-09-2009 19:45:02 13.4 C 10 g/m*3 13.4 C 0 km/h
1659 13-09-2009 19:57:02 13.1 C 9.93 g/m*3 13.1 C 0 km/h
1660 13-09-2009 20:09:01 13 C 9.87 g/m*3 13 C 0 km/h
1661 13-09-2009 20:21:02 13.1 C 10.04 g/m*3 13.1 C 0 km/h
1662 13-09-2009 20:33:01 13 C 10.09 g/m*3 13 C 0 km/h
1663 13-09-2009 20:45:03 12.9 C 10.03 g/m*3 12.9 C 0 km/h
1664 13-09-2009 20:57:03 12.8 C 9.97 g/m*3 12.8 C 0 km/h
1665 13-09-2009 21:09:02 12.5 C 9.78 g/m*3 12.5 C 0 km/h
1666 13-09-2009 21:21:03 12.6 C 9.96 g/m*3 12.6 C 0 km/h
1667 13-09-2009 21:33:03 12.8 C 10.08 g/m*3 12.8 C 0 km/h
1668 13-09-2009 21:45:02 12.9 C 10.26 g/m*3 12.9 C 0 km/h
1669 13-09-2009 21:57:02 13.1 C 10.27 g/m*3 13.1 C 0 km/h
1670 13-09-2009 22:09:02 13.2 C 10.33 g/m*3 13.2 C 0 km/h
1671 13-09-2009 22:21:02 13.3 C 10.4 g/m*3 13.3 C 0 km/h
1672 13-09-2009 22:33:03 13.3 C 10.28 g/m*3 13.3 C 0 km/h
1673 13-09-2009 22:45:02 13.3 C 10.28 g/m*3 13.3 C 0 km/h
1674 13-09-2009 22:57:02 13.3 C 10.28 g/m*3 13.3 C 0 km/h
1675 13-09-2009 23:09:02 12.6 C 9.96 g/m*3 12.6 C 0 km/h
Sensor: Nr:Datum:Temp:Abs-Feuchte:Windchill:Wind:
Aussen-T/F 1676 13-09-2009 23:21:02 12.2 C 9.71 g/m*3 12.2 C 0 km/h
1677 13-09-2009 23:34:03 11.8 C 9.58 g/m*3 11.8 C 0 km/h
1678 13-09-2009 23:46:03 11.9 C 9.74 g/m*3 11.9 C 0 km/h
1679 13-09-2009 23:58:03 12.1 C 9.87 g/m*3 12.1 C 0 km/h
1680 14-09-2009 00:10:03 12.1 C 9.87 g/m*3 12.1 C 0 km/h
1681 14-09-2009 00:22:03 12.2 C 10.04 g/m*3 12.2 C 0 km/h
1682 14-09-2009 00:34:03 12 C 9.91 g/m*3 12 C 0 km/h
1683 14-09-2009 00:46:03 11.9 C 9.85 g/m*3 11.9 C 0 km/h
1684 14-09-2009 00:58:03 11.5 C 9.61 g/m*3 11.5 C 0 km/h
1685 14-09-2009 01:10:03 11.3 C 9.49 g/m*3 11.3 C 0 km/h
1686 14-09-2009 01:22:03 11.3 C 9.59 g/m*3 11.3 C 0 km/h
1687 14-09-2009 01:34:03 11.2 C 9.53 g/m*3 11.2 C 0 km/h
1688 14-09-2009 01:46:03 11.3 C 9.59 g/m*3 11.3 C 0 km/h
1689 14-09-2009 01:58:03 11.3 C 9.59 g/m*3 11.3 C 0 km/h
1690 14-09-2009 02:10:03 11.2 C 9.53 g/m*3 11.2 C 0 km/h
1691 14-09-2009 02:22:03 11.2 C 9.63 g/m*3 11.2 C 0 km/h
1692 14-09-2009 02:34:03 11 C 9.51 g/m*3 11 C 0 km/h
1693 14-09-2009 02:46:03 10.9 C 9.45 g/m*3 10.9 C 0 km/h
1694 14-09-2009 02:58:03 10.8 C 9.39 g/m*3 10.8 C 0 km/h
1695 14-09-2009 03:10:03 10.7 C 9.33 g/m*3 10.7 C 0 km/h
1696 14-09-2009 03:22:04 10.7 C 9.33 g/m*3 10.7 C 0 km/h
1697 14-09-2009 03:34:04 10.8 C 9.39 g/m*3 10.8 C 0 km/h
1698 14-09-2009 03:46:04 10.7 C 9.33 g/m*3 10.7 C 0 km/h
1699 14-09-2009 03:58:04 10.8 C 9.39 g/m*3 10.8 C 0 km/h
1700 14-09-2009 04:10:04 11 C 9.51 g/m*3 11 C 0 km/h
Sensor: Nr:Datum:Temp:Abs-Feuchte:Windchill:Wind:
Aussen-T/F 1701 14-09-2009 04:22:04 11.1 C 9.57 g/m*3 11.1 C 0 km/h
1702 14-09-2009 04:34:04 11.1 C 9.57 g/m*3 11.1 C 0 km/h
1703 14-09-2009 04:46:04 11.1 C 9.57 g/m*3 11.1 C 0 km/h
1704 14-09-2009 04:58:04 10.9 C 9.45 g/m*3 10.9 C 0 km/h
1705 14-09-2009 05:10:04 10.7 C 9.33 g/m*3 10.7 C 0 km/h
1706 14-09-2009 05:22:04 10.7 C 9.33 g/m*3 10.7 C 0 km/h
1707 14-09-2009 05:34:04 10.9 C 9.45 g/m*3 10.9 C 0 km/h
1708 14-09-2009 05:46:04 10.9 C 9.45 g/m*3 10.9 C 0 km/h
1709 14-09-2009 05:58:04 10.9 C 9.45 g/m*3 10.9 C 0 km/h
1710 14-09-2009 06:10:04 10.9 C 9.45 g/m*3 10.9 C 0 km/h
1711 14-09-2009 06:22:04 10.9 C 9.45 g/m*3 10.9 C 0 km/h
1712 14-09-2009 06:34:04 10.9 C 9.45 g/m*3 10.9 C 0 km/h
1713 14-09-2009 06:46:04 11 C 9.51 g/m*3 11 C 0 km/h
1714 14-09-2009 06:58:04 11 C 9.51 g/m*3 11 C 0 km/h
1715 14-09-2009 07:10:05 11 C 9.51 g/m*3 11 C 0 km/h
1716 14-09-2009 07:22:05 11 C 9.51 g/m*3 11 C 0 km/h
1717 14-09-2009 07:34:03 11.1 C 9.57 g/m*3 11.1 C 0 km/h
1718 14-09-2009 07:46:02 11.1 C 9.57 g/m*3 11.1 C 0 km/h
1719 14-09-2009 07:58:03 11.1 C 9.57 g/m*3 11.1 C 0 km/h
1720 14-09-2009 08:10:01 11.3 C 9.69 g/m*3 11.3 C 0 km/h
1721 14-09-2009 08:22:02 11.5 C 9.81 g/m*3 11.5 C 0 km/h
1722 14-09-2009 08:34:02 11.7 C 9.94 g/m*3 11.7 C 0 km/h
1723 14-09-2009 08:46:02 11.8 C 10 g/m*3 11.8 C 0 km/h
1724 14-09-2009 08:58:02 12.2 C 10.25 g/m*3 12.2 C 0 km/h
1725 14-09-2009 09:10:02 12.2 C 10.25 g/m*3 12.2 C 0 km/h
Sensor: Nr:Datum:Temp:Abs-Feuchte:Windchill:Wind:
Aussen-T/F 1726 14-09-2009 09:22:02 12.3 C 10.32 g/m*3 12.3 C 0 km/h
1727 14-09-2009 09:34:02 12.4 C 10.38 g/m*3 12.4 C 0 km/h
1728 14-09-2009 09:46:01 12.4 C 10.38 g/m*3 12.4 C 0 km/h
1729 14-09-2009 09:58:01 12.3 C 10.32 g/m*3 12.3 C 0 km/h
1730 14-09-2009 10:10:02 12.3 C 10.21 g/m*3 12.3 C 0 km/h
1731 14-09-2009 10:22:01 12.1 C 10.08 g/m*3 12.1 C 0 km/h
1732 14-09-2009 10:34:01 12.1 C 9.97 g/m*3 12.1 C 0 km/h
1733 14-09-2009 10:46:01 12.2 C 10.04 g/m*3 12.2 C 0 km/h
1734 14-09-2009 10:58:01 12.3 C 10.1 g/m*3 12.3 C 0 km/h
1735 14-09-2009 11:10:01 12.4 C 10.16 g/m*3 12.4 C 0 km/h
1736 14-09-2009 11:22:01 12.6 C 10.29 g/m*3 12.6 C 0 km/h
1737 14-09-2009 11:34:01 12.6 C 10.29 g/m*3 12.6 C 0 km/h
1738 14-09-2009 11:46:01 12.5 C 10.22 g/m*3 12.5 C 0 km/h
1739 14-09-2009 11:58:01 12.4 C 10.27 g/m*3 12.4 C 0 km/h
1740 14-09-2009 12:10:01 12.5 C 10.33 g/m*3 12.5 C 0 km/h
1741 14-09-2009 12:22:02 13.5 C 10.99 g/m*3 13.5 C 0 km/h
1742 14-09-2009 12:34:01 13.9 C 11.27 g/m*3 13.9 C 0 km/h
1743 14-09-2009 12:46:03 14.3 C 11.43 g/m*3 14.3 C 0 km/h
1744 14-09-2009 12:58:03 14.4 C 11.37 g/m*3 14.4 C 0 km/h
1745 14-09-2009 13:10:02 13.9 C 10.91 g/m*3 13.9 C 0 km/h
1746 14-09-2009 13:22:02 13.8 C 10.84 g/m*3 13.8 C 0 km/h
1747 14-09-2009 13:34:02 13.3 C 10.51 g/m*3 13.3 C 0 km/h
1748 14-09-2009 13:46:02 13.4 C 10.69 g/m*3 13.4 C 0 km/h
1749 14-09-2009 13:58:02 13.2 C 10.56 g/m*3 13.2 C 0 km/h
1750 14-09-2009 14:10:02 13 C 10.55 g/m*3 13 C 0 km/h
Sensor: Nr:Datum:Temp:Abs-Feuchte:Windchill:Wind:
Aussen-T/F 1751 14-09-2009 14:22:02 13.1 C 10.61 g/m*3 13.1 C 0 km/h
1752 14-09-2009 14:34:01 13.4 C 10.93 g/m*3 13.4 C 0 km/h
1753 14-09-2009 14:46:02 13.4 C 10.93 g/m*3 13.4 C 0 km/h
1754 14-09-2009 14:58:02 13.8 C 11.2 g/m*3 13.8 C 0 km/h
1755 14-09-2009 15:10:01 13.9 C 11.27 g/m*3 13.9 C 0 km/h
1756 14-09-2009 15:22:01 14.5 C 11.57 g/m*3 14.5 C 0 km/h
1757 14-09-2009 15:34:02 14.4 C 11.5 g/m*3 14.4 C 0 km/h
1758 14-09-2009 15:46:02 15.2 C 11.94 g/m*3 15.2 C 0 km/h
1759 14-09-2009 15:58:02 15.5 C 12.16 g/m*3 15.5 C 0 km/h
1760 14-09-2009 16:10:02 15 C 11.54 g/m*3 15 C 0 km/h
1761 14-09-2009 16:22:02 14.7 C 11.46 g/m*3 14.7 C 0 km/h
1762 14-09-2009 16:34:02 13.8 C 10.72 g/m*3 13.8 C 0 km/h
1763 14-09-2009 16:46:01 13.4 C 10.46 g/m*3 13.4 C 0 km/h
1764 14-09-2009 16:58:01 13.6 C 10.59 g/m*3 13.6 C 0 km/h
1765 14-09-2009 17:10:02 13.7 C 10.66 g/m*3 13.7 C 0 km/h
1766 14-09-2009 17:22:01 13.5 C 10.41 g/m*3 13.5 C 0 km/h
1767 14-09-2009 17:34:02 13.6 C 10.59 g/m*3 13.6 C 0 km/h
1768 14-09-2009 17:46:02 13.7 C 10.66 g/m*3 13.7 C 0 km/h
1769 14-09-2009 17:58:03 13.8 C 10.84 g/m*3 13.8 C 0 km/h
1770 14-09-2009 18:10:02 13.6 C 10.71 g/m*3 13.6 C 0 km/h
1771 14-09-2009 18:22:02 13.2 C 10.45 g/m*3 13.2 C 0 km/h
1772 14-09-2009 18:34:02 13 C 10.32 g/m*3 13 C 0 km/h
1773 14-09-2009 18:46:02 12.6 C 10.18 g/m*3 12.6 C 0 km/h
1774 14-09-2009 18:58:02 12.2 C 9.93 g/m*3 12.2 C 0 km/h
1775 14-09-2009 19:10:01 12.1 C 9.87 g/m*3 12.1 C 0 km/h
Sensor: Nr:Datum:Temp:Abs-Feuchte:Windchill:Wind:
Aussen-T/F 1776 14-09-2009 19:22:02 12 C 9.91 g/m*3 12 C 0 km/h
1777 14-09-2009 19:34:01 11.9 C 9.96 g/m*3 11.9 C 0 km/h
1778 14-09-2009 19:46:01 11.8 C 9.89 g/m*3 11.8 C 0 km/h
1779 14-09-2009 19:58:01 11.7 C 9.94 g/m*3 11.7 C 0 km/h
1780 14-09-2009 20:10:02 11.7 C 9.94 g/m*3 11.7 C 0 km/h
1781 14-09-2009 20:22:02 11.8 C 10 g/m*3 11.8 C 0 km/h
1782 14-09-2009 20:34:02 11.8 C 10 g/m*3 11.8 C 0 km/h
1783 14-09-2009 20:46:02 11.6 C 9.87 g/m*3 11.6 C 0 km/h
1784 14-09-2009 20:58:02 11.7 C 9.94 g/m*3 11.7 C 0 km/h
1785 14-09-2009 21:10:02 11.8 C 10 g/m*3 11.8 C 0 km/h
1786 14-09-2009 21:22:02 11.9 C 10.06 g/m*3 11.9 C 0 km/h
1787 14-09-2009 21:34:02 11.9 C 10.06 g/m*3 11.9 C 0 km/h
1788 14-09-2009 21:46:02 11.9 C 10.06 g/m*3 11.9 C 0 km/h
1789 14-09-2009 21:58:02 11.9 C 10.06 g/m*3 11.9 C 0 km/h
1790 14-09-2009 22:10:02 11.8 C 10 g/m*3 11.8 C 0 km/h
1791 14-09-2009 22:22:03 11.7 C 9.94 g/m*3 11.7 C 0 km/h
1792 14-09-2009 22:34:02 11.7 C 9.94 g/m*3 11.7 C 0 km/h
1793 14-09-2009 22:46:02 11.7 C 9.94 g/m*3 11.7 C 0 km/h
1794 14-09-2009 22:58:02 11.6 C 9.87 g/m*3 11.6 C 0 km/h
1795 14-09-2009 23:11:03 11.5 C 9.81 g/m*3 11.5 C 0 km/h
1796 14-09-2009 23:23:03 11.4 C 9.75 g/m*3 11.4 C 0 km/h
1797 14-09-2009 23:35:03 11.4 C 9.75 g/m*3 11.4 C 0 km/h
1798 14-09-2009 23:47:03 11.5 C 9.81 g/m*3 11.5 C 0 km/h
1799 14-09-2009 23:59:03 11.5 C 9.81 g/m*3 11.5 C 0 km/h
1800 15-09-2009 00:11:03 11.6 C 9.87 g/m*3 11.6 C 0 km/h
Sensor: Nr:Datum:Temp:Abs-Feuchte:Windchill:Wind:
Aussen-T/F 1801 15-09-2009 00:23:03 11.4 C 9.75 g/m*3 11.4 C 0 km/h
1802 15-09-2009 00:35:03 11.4 C 9.75 g/m*3 11.4 C 0 km/h
1803 15-09-2009 00:47:03 11.3 C 9.69 g/m*3 11.3 C 0 km/h
1804 15-09-2009 00:59:03 11.3 C 9.69 g/m*3 11.3 C 0 km/h
1805 15-09-2009 01:11:03 11.2 C 9.63 g/m*3 11.2 C 0 km/h
1806 15-09-2009 01:23:04 11.1 C 9.57 g/m*3 11.1 C 0 km/h
1807 15-09-2009 01:35:04 11.1 C 9.57 g/m*3 11.1 C 0 km/h
1808 15-09-2009 01:47:04 11.1 C 9.57 g/m*3 11.1 C 0 km/h
1809 15-09-2009 01:59:04 11.1 C 9.57 g/m*3 11.1 C 0 km/h
1810 15-09-2009 02:11:04 11.1 C 9.57 g/m*3 11.1 C 0 km/h
1811 15-09-2009 02:23:04 11.2 C 9.63 g/m*3 11.2 C 0 km/h
1812 15-09-2009 02:35:04 11.2 C 9.63 g/m*3 11.2 C 0 km/h
1813 15-09-2009 02:47:04 11.2 C 9.63 g/m*3 11.2 C 0 km/h
1814 15-09-2009 02:59:04 11.1 C 9.57 g/m*3 11.1 C 0 km/h
1815 15-09-2009 03:11:04 11.2 C 9.63 g/m*3 11.2 C 0 km/h
1816 15-09-2009 03:23:04 11.1 C 9.57 g/m*3 11.1 C 0 km/h
1817 15-09-2009 03:35:04 11.1 C 9.57 g/m*3 11.1 C 0 km/h
1818 15-09-2009 03:47:04 11.1 C 9.57 g/m*3 11.1 C 0 km/h
1819 15-09-2009 03:59:04 11.1 C 9.57 g/m*3 11.1 C 0 km/h
1820 15-09-2009 04:11:04 11.1 C 9.57 g/m*3 11.1 C 0 km/h
1821 15-09-2009 04:23:04 11.1 C 9.57 g/m*3 11.1 C 0 km/h
1822 15-09-2009 04:35:04 11.2 C 9.63 g/m*3 11.2 C 0 km/h
1823 15-09-2009 04:47:04 11.2 C 9.63 g/m*3 11.2 C 0 km/h
1824 15-09-2009 04:59:04 11.3 C 9.69 g/m*3 11.3 C 0 km/h
1825 15-09-2009 05:11:04 11.3 C 9.69 g/m*3 11.3 C 0 km/h
Sensor: Nr:Datum:Temp:Abs-Feuchte:Windchill:Wind:
Aussen-T/F 1826 15-09-2009 05:23:04 11.4 C 9.75 g/m*3 11.4 C 0 km/h
1827 15-09-2009 05:35:05 11.4 C 9.75 g/m*3 11.4 C 0 km/h
1828 15-09-2009 05:47:05 11.4 C 9.75 g/m*3 11.4 C 0 km/h
1829 15-09-2009 05:59:05 11.3 C 9.69 g/m*3 11.3 C 0 km/h
1830 15-09-2009 06:11:05 11.3 C 9.69 g/m*3 11.3 C 0 km/h
1831 15-09-2009 06:23:05 11.4 C 9.75 g/m*3 11.4 C 0 km/h
1832 15-09-2009 06:35:05 11.4 C 9.75 g/m*3 11.4 C 0 km/h
1833 15-09-2009 06:47:05 11.4 C 9.75 g/m*3 11.4 C 0 km/h
1834 15-09-2009 06:59:05 11.5 C 9.81 g/m*3 11.5 C 0 km/h
1835 15-09-2009 07:11:05 11.5 C 9.81 g/m*3 11.5 C 0 km/h
1836 15-09-2009 07:23:05 11.5 C 9.81 g/m*3 11.5 C 0 km/h
1837 15-09-2009 07:35:05 11.6 C 9.87 g/m*3 11.6 C 0 km/h
1838 15-09-2009 07:47:03 11.6 C 9.87 g/m*3 11.6 C 0 km/h
1839 15-09-2009 07:59:03 11.7 C 9.94 g/m*3 11.7 C 0 km/h
1840 15-09-2009 08:11:02 11.9 C 10.06 g/m*3 11.9 C 0 km/h
1841 15-09-2009 08:23:02 12 C 10.12 g/m*3 12 C 0 km/h
1842 15-09-2009 08:35:03 11.9 C 10.06 g/m*3 11.9 C 0 km/h
1843 15-09-2009 08:47:02 12.3 C 10.32 g/m*3 12.3 C 0 km/h
1844 15-09-2009 08:59:03 12.6 C 10.51 g/m*3 12.6 C 0 km/h
1845 15-09-2009 09:11:01 12.8 C 10.64 g/m*3 12.8 C 0 km/h
1846 15-09-2009 09:23:02 13.1 C 10.84 g/m*3 13.1 C 0 km/h
1847 15-09-2009 09:35:02 13.5 C 11.11 g/m*3 13.5 C 0 km/h
1848 15-09-2009 09:47:01 13.3 C 10.98 g/m*3 13.3 C 0 km/h
1849 15-09-2009 09:59:01 13.7 C 11.25 g/m*3 13.7 C 0 km/h
1850 15-09-2009 10:11:02 13.8 C 11.32 g/m*3 13.8 C 0 km/h
Sensor: Nr:Datum:Temp:Abs-Feuchte:Windchill:Wind:
Aussen-T/F 1851 15-09-2009 10:23:01 14.2 C 11.6 g/m*3 14.2 C 0 km/h
1852 15-09-2009 10:35:02 14.2 C 11.36 g/m*3 14.2 C 0 km/h
1853 15-09-2009 10:47:01 14.1 C 11.04 g/m*3 14.1 C 0 km/h
1854 15-09-2009 10:59:01 14.4 C 11.13 g/m*3 14.4 C 0 km/h
1855 15-09-2009 11:11:02 15.1 C 11.35 g/m*3 15.1 C 0 km/h
1856 15-09-2009 11:23:01 15 C 10.39 g/m*3 15 C 0 km/h
1857 15-09-2009 11:35:02 15.4 C 10.51 g/m*3 15.4 C 0 km/h
1858 15-09-2009 11:47:01 15.8 C 10.63 g/m*3 15.8 C 0 km/h
1859 15-09-2009 11:59:01 16 C 10.22 g/m*3 16 C 0 km/h
1860 15-09-2009 12:11:02 16.3 C 10.41 g/m*3 16.3 C 0 km/h
1861 15-09-2009 12:23:01 16.5 C 10.25 g/m*3 16.5 C 0 km/h
1862 15-09-2009 12:35:02 16.6 C 10.17 g/m*3 16.6 C 0 km/h
1863 15-09-2009 12:47:01 16.3 C 10.13 g/m*3 16.3 C 0 km/h
1864 15-09-2009 12:59:01 16.2 C 10.2 g/m*3 16.2 C 0 km/h
1865 15-09-2009 13:11:02 15.9 C 10.29 g/m*3 15.9 C 0 km/h
1866 15-09-2009 13:23:02 15.9 C 10.7 g/m*3 15.9 C 0 km/h
1867 15-09-2009 13:35:01 16 C 10.76 g/m*3 16 C 0 km/h
1868 15-09-2009 13:47:02 16.2 C 11.03 g/m*3 16.2 C 0 km/h
1869 15-09-2009 13:59:02 16.5 C 11.09 g/m*3 16.5 C 0 km/h
1870 15-09-2009 14:11:01 16.5 C 10.67 g/m*3 16.5 C 0 km/h
1871 15-09-2009 14:23:02 16.3 C 10.68 g/m*3 16.3 C 0 km/h
1872 15-09-2009 14:35:01 16.1 C 10.69 g/m*3 16.1 C 0 km/h
1873 15-09-2009 14:47:02 15.8 C 10.9 g/m*3 15.8 C 0 km/h
1874 15-09-2009 14:59:02 15.5 C 10.84 g/m*3 15.5 C 0 km/h
1875 15-09-2009 15:11:02 15.2 C 11.03 g/m*3 15.2 C 0 km/h
Sensor: Nr:Datum:Temp:Abs-Feuchte:Windchill:Wind:
Aussen-T/F 1876 15-09-2009 15:23:02 15.3 C 11.23 g/m*3 15.3 C 0 km/h
1877 15-09-2009 15:35:03 15.4 C 11.3 g/m*3 15.4 C 0 km/h
1878 15-09-2009 15:47:02 15.3 C 11.36 g/m*3 15.3 C 0 km/h
1879 15-09-2009 15:59:02 15.2 C 11.29 g/m*3 15.2 C 0 km/h
1880 15-09-2009 16:11:02 15.1 C 11.35 g/m*3 15.1 C 0 km/h
1881 15-09-2009 16:23:01 15 C 11.41 g/m*3 15 C 0 km/h
1882 15-09-2009 16:35:02 15 C 11.41 g/m*3 15 C 0 km/h
1883 15-09-2009 16:47:02 15 C 11.54 g/m*3 15 C 0 km/h
1884 15-09-2009 16:59:02 15 C 11.54 g/m*3 15 C 0 km/h
1885 15-09-2009 17:11:02 15 C 11.54 g/m*3 15 C 0 km/h
1886 15-09-2009 17:23:02 15 C 11.54 g/m*3 15 C 0 km/h
1887 15-09-2009 17:35:02 15.2 C 11.81 g/m*3 15.2 C 0 km/h
1888 15-09-2009 17:47:02 15.4 C 11.96 g/m*3 15.4 C 0 km/h
1889 15-09-2009 17:59:02 15.7 C 12.18 g/m*3 15.7 C 0 km/h
1890 15-09-2009 18:11:02 15.7 C 12.18 g/m*3 15.7 C 0 km/h
1891 15-09-2009 18:23:02 15.8 C 12.25 g/m*3 15.8 C 0 km/h
1892 15-09-2009 18:35:02 15.9 C 12.32 g/m*3 15.9 C 0 km/h
1893 15-09-2009 18:47:02 15.9 C 12.32 g/m*3 15.9 C 0 km/h
1894 15-09-2009 18:59:02 15.8 C 12.25 g/m*3 15.8 C 0 km/h
1895 15-09-2009 19:11:02 15.7 C 12.18 g/m*3 15.7 C 0 km/h
1896 15-09-2009 19:23:03 15.6 C 12.1 g/m*3 15.6 C 0 km/h
1897 15-09-2009 19:35:02 15.4 C 11.96 g/m*3 15.4 C 0 km/h
1898 15-09-2009 19:47:02 15.3 C 11.88 g/m*3 15.3 C 0 km/h
1899 15-09-2009 19:59:02 15.2 C 11.81 g/m*3 15.2 C 0 km/h
1900 15-09-2009 20:11:02 15.2 C 11.81 g/m*3 15.2 C 0 km/h
Sensor: Nr:Datum:Temp:Abs-Feuchte:Windchill:Wind:
Aussen-T/F 1901 15-09-2009 20:23:02 15.2 C 11.94 g/m*3 15.2 C 0 km/h
1902 15-09-2009 20:35:02 15.2 C 11.94 g/m*3 15.2 C 0 km/h
1903 15-09-2009 20:47:02 15.1 C 11.87 g/m*3 15.1 C 0 km/h
1904 15-09-2009 20:59:02 15.1 C 11.87 g/m*3 15.1 C 0 km/h
1905 15-09-2009 21:11:01 15.1 C 11.87 g/m*3 15.1 C 0 km/h
1906 15-09-2009 21:23:02 15.1 C 11.87 g/m*3 15.1 C 0 km/h
1907 15-09-2009 21:35:02 15 C 11.8 g/m*3 15 C 0 km/h
1908 15-09-2009 21:47:02 15 C 11.8 g/m*3 15 C 0 km/h
1909 15-09-2009 21:59:03 15 C 11.8 g/m*3 15 C 0 km/h
1910 15-09-2009 22:11:01 14.9 C 11.85 g/m*3 14.9 C 0 km/h
1911 15-09-2009 22:23:01 14.8 C 11.78 g/m*3 14.8 C 0 km/h
1912 15-09-2009 22:35:02 14.8 C 11.78 g/m*3 14.8 C 0 km/h
1913 15-09-2009 22:47:02 14.8 C 11.78 g/m*3 14.8 C 0 km/h
1914 15-09-2009 22:59:02 14.7 C 11.71 g/m*3 14.7 C 0 km/h
1915 15-09-2009 23:11:01 14.7 C 11.71 g/m*3 14.7 C 0 km/h
1916 15-09-2009 23:23:02 14.7 C 11.71 g/m*3 14.7 C 0 km/h
1917 15-09-2009 23:36:02 14.6 C 11.64 g/m*3 14.6 C 0 km/h
1918 15-09-2009 23:48:02 14.6 C 11.64 g/m*3 14.6 C 0 km/h
1919 16-09-2009 00:00:02 14.6 C 11.64 g/m*3 14.6 C 0 km/h
1920 16-09-2009 00:12:02 14.6 C 11.64 g/m*3 14.6 C 0 km/h
1921 16-09-2009 00:24:02 14.6 C 11.64 g/m*3 14.6 C 0 km/h
1922 16-09-2009 00:36:02 14.6 C 11.64 g/m*3 14.6 C 0 km/h
1923 16-09-2009 00:48:02 14.6 C 11.64 g/m*3 14.6 C 0 km/h
1924 16-09-2009 01:00:02 14.6 C 11.64 g/m*3 14.6 C 0 km/h
1925 16-09-2009 01:12:02 14.6 C 11.64 g/m*3 14.6 C 0 km/h
Sensor: Nr:Datum:Temp:Abs-Feuchte:Windchill:Wind:
Aussen-T/F 1926 16-09-2009 01:24:02 14.6 C 11.64 g/m*3 14.6 C 0 km/h
1927 16-09-2009 01:36:02 14.6 C 11.64 g/m*3 14.6 C 0 km/h
1928 16-09-2009 01:48:02 14.6 C 11.51 g/m*3 14.6 C 0 km/h
1929 16-09-2009 02:00:02 14.4 C 11.37 g/m*3 14.4 C 0 km/h
1930 16-09-2009 02:12:02 14.4 C 11.37 g/m*3 14.4 C 0 km/h
1931 16-09-2009 02:24:02 14.2 C 11.23 g/m*3 14.2 C 0 km/h
1932 16-09-2009 02:36:02 14.6 C 11.51 g/m*3 14.6 C 0 km/h
1933 16-09-2009 02:48:02 14.4 C 11.37 g/m*3 14.4 C 0 km/h
1934 16-09-2009 03:00:02 14.4 C 11.37 g/m*3 14.4 C 0 km/h
1935 16-09-2009 03:12:02 14.4 C 11.37 g/m*3 14.4 C 0 km/h
1936 16-09-2009 03:24:02 14.4 C 11.37 g/m*3 14.4 C 0 km/h
1937 16-09-2009 03:36:03 14.4 C 11.37 g/m*3 14.4 C 0 km/h
1938 16-09-2009 03:48:03 14.4 C 11.37 g/m*3 14.4 C 0 km/h
1939 16-09-2009 04:00:03 14.3 C 11.3 g/m*3 14.3 C 0 km/h
1940 16-09-2009 04:12:03 14.3 C 11.3 g/m*3 14.3 C 0 km/h
1941 16-09-2009 04:24:03 14.1 C 11.04 g/m*3 14.1 C 0 km/h
1942 16-09-2009 04:36:03 14.4 C 11.25 g/m*3 14.4 C 0 km/h
1943 16-09-2009 04:48:03 14.4 C 11.13 g/m*3 14.4 C 0 km/h
1944 16-09-2009 05:00:03 14.3 C 11.06 g/m*3 14.3 C 0 km/h
1945 16-09-2009 05:12:03 14.3 C 11.06 g/m*3 14.3 C 0 km/h
1946 16-09-2009 05:24:03 14.3 C 11.06 g/m*3 14.3 C 0 km/h
1947 16-09-2009 05:36:03 14.3 C 11.06 g/m*3 14.3 C 0 km/h
1948 16-09-2009 05:48:03 14.2 C 10.99 g/m*3 14.2 C 0 km/h
1949 16-09-2009 06:00:03 14.3 C 11.06 g/m*3 14.3 C 0 km/h
1950 16-09-2009 06:12:03 14.3 C 11.06 g/m*3 14.3 C 0 km/h
Sensor: Nr:Datum:Temp:Abs-Feuchte:Windchill:Wind:
Aussen-T/F 1951 16-09-2009 06:24:03 14.3 C 10.93 g/m*3 14.3 C 0 km/h
1952 16-09-2009 06:36:03 14.3 C 10.93 g/m*3 14.3 C 0 km/h
1953 16-09-2009 06:48:03 14.3 C 10.93 g/m*3 14.3 C 0 km/h
1954 16-09-2009 07:00:03 14.3 C 10.93 g/m*3 14.3 C 0 km/h
1955 16-09-2009 07:12:03 14.4 C 11 g/m*3 14.4 C 0 km/h
1956 16-09-2009 07:24:03 14.4 C 11 g/m*3 14.4 C 0 km/h
1957 16-09-2009 07:36:03 14.5 C 11.07 g/m*3 14.5 C 0 km/h
1958 16-09-2009 07:48:04 14.5 C 11.07 g/m*3 14.5 C 0 km/h
1959 16-09-2009 08:00:04 14.5 C 10.94 g/m*3 14.5 C 0 km/h
1960 16-09-2009 08:12:04 14.5 C 10.94 g/m*3 14.5 C 0 km/h
1961 16-09-2009 08:24:04 14.6 C 11.01 g/m*3 14.6 C 0 km/h
1962 16-09-2009 08:36:04 14.8 C 11.15 g/m*3 14.8 C 0 km/h
1963 16-09-2009 08:48:04 14.8 C 11.15 g/m*3 14.8 C 0 km/h
1964 16-09-2009 09:00:04 14.8 C 11.15 g/m*3 14.8 C 0 km/h
1965 16-09-2009 09:12:02 15 C 11.16 g/m*3 15 C 0 km/h
1966 16-09-2009 09:24:02 15.1 C 11.22 g/m*3 15.1 C 0 km/h
1967 16-09-2009 09:36:02 15.2 C 11.29 g/m*3 15.2 C 0 km/h
1968 16-09-2009 09:48:01 15.4 C 11.3 g/m*3 15.4 C 0 km/h
1969 16-09-2009 10:00:01 15.6 C 11.44 g/m*3 15.6 C 0 km/h
1970 16-09-2009 10:12:02 15.7 C 11.37 g/m*3 15.7 C 0 km/h
1971 16-09-2009 10:24:01 15.9 C 11.51 g/m*3 15.9 C 0 km/h
1972 16-09-2009 10:36:02 16 C 11.44 g/m*3 16 C 0 km/h
1973 16-09-2009 10:48:01 16.2 C 11.58 g/m*3 16.2 C 0 km/h
1974 16-09-2009 11:00:01 16.4 C 11.72 g/m*3 16.4 C 0 km/h
1975 16-09-2009 11:12:02 16.5 C 11.65 g/m*3 16.5 C 0 km/h
Sensor: Nr:Datum:Temp:Abs-Feuchte:Windchill:Wind:
Aussen-T/F 1976 16-09-2009 11:24:02 16.8 C 11.87 g/m*3 16.8 C 0 km/h
1977 16-09-2009 11:36:02 17 C 11.87 g/m*3 17 C 0 km/h
1978 16-09-2009 11:48:02 17.1 C 11.94 g/m*3 17.1 C 0 km/h
1979 16-09-2009 12:00:02 17.3 C 11.93 g/m*3 17.3 C 0 km/h
1980 16-09-2009 12:12:01 17.5 C 11.78 g/m*3 17.5 C 0 km/h
1981 16-09-2009 12:24:02 17.7 C 11.92 g/m*3 17.7 C 0 km/h
1982 16-09-2009 12:36:01 18.1 C 11.9 g/m*3 18.1 C 0 km/h
1983 16-09-2009 12:48:02 18.3 C 11.88 g/m*3 18.3 C 0 km/h
1984 16-09-2009 13:00:02 18.7 C 12.01 g/m*3 18.7 C 0 km/h
1985 16-09-2009 13:12:01 19.1 C 11.8 g/m*3 19.1 C 0 km/h
1986 16-09-2009 13:24:01 19.5 C 11.24 g/m*3 19.5 C 0 km/h
1987 16-09-2009 13:36:02 20 C 10.89 g/m*3 20 C 0 km/h
1988 16-09-2009 13:48:02 19.9 C 10.82 g/m*3 19.9 C 0 km/h
1989 16-09-2009 14:00:02 19.6 C 10.8 g/m*3 19.6 C 0 km/h
1990 16-09-2009 14:12:01 19.6 C 10.8 g/m*3 19.6 C 0 km/h
1991 16-09-2009 14:24:02 20 C 10.71 g/m*3 20 C 0 km/h
1992 16-09-2009 14:36:02 20.4 C 10.44 g/m*3 20.4 C 0 km/h
1993 16-09-2009 14:48:02 20.4 C 10.44 g/m*3 20.4 C 0 km/h
1994 16-09-2009 15:00:02 20 C 10.54 g/m*3 20 C 0 km/h
1995 16-09-2009 15:12:03 20.2 C 10.84 g/m*3 20.2 C 0 km/h
1996 16-09-2009 15:24:02 20.3 C 10.73 g/m*3 20.3 C 0 km/h
1997 16-09-2009 15:36:02 20.1 C 10.78 g/m*3 20.1 C 0 km/h
1998 16-09-2009 15:48:01 20 C 10.89 g/m*3 20 C 0 km/h
1999 16-09-2009 16:00:01 19.8 C 11.44 g/m*3 19.8 C 0 km/h
2000 16-09-2009 16:12:02 19.6 C 11.48 g/m*3 19.6 C 0 km/h
Sensor: Nr:Datum:Temp:Abs-Feuchte:Windchill:Wind:
Aussen-T/F 2001 16-09-2009 16:24:01 19.7 C 11.38 g/m*3 19.7 C 0 km/h
2002 16-09-2009 16:36:01 19.7 C 11.38 g/m*3 19.7 C 0 km/h
2003 16-09-2009 16:48:01 19.7 C 11.38 g/m*3 19.7 C 0 km/h
2004 16-09-2009 17:00:01 19.6 C 11.48 g/m*3 19.6 C 0 km/h
2005 16-09-2009 17:12:01 19.7 C 11.38 g/m*3 19.7 C 0 km/h
2006 16-09-2009 17:24:02 19.7 C 11.21 g/m*3 19.7 C 0 km/h
2007 16-09-2009 17:36:01 19.6 C 11.31 g/m*3 19.6 C 0 km/h
2008 16-09-2009 17:48:02 19.5 C 11.08 g/m*3 19.5 C 0 km/h
2009 16-09-2009 18:00:02 19.4 C 11.35 g/m*3 19.4 C 0 km/h
2010 16-09-2009 18:12:02 19.5 C 11.41 g/m*3 19.5 C 0 km/h
2011 16-09-2009 18:24:02 19.4 C 11.35 g/m*3 19.4 C 0 km/h
2012 16-09-2009 18:36:03 19.3 C 11.28 g/m*3 19.3 C 0 km/h
2013 16-09-2009 18:48:03 19.1 C 11.47 g/m*3 19.1 C 0 km/h
2014 16-09-2009 19:00:03 18.8 C 11.6 g/m*3 18.8 C 0 km/h
2015 16-09-2009 19:12:02 18.7 C 11.69 g/m*3 18.7 C 0 km/h
2016 16-09-2009 19:24:02 18.3 C 11.57 g/m*3 18.3 C 0 km/h
2017 16-09-2009 19:36:02 18.1 C 11.59 g/m*3 18.1 C 0 km/h
2018 16-09-2009 19:48:02 18.1 C 11.59 g/m*3 18.1 C 0 km/h
2019 16-09-2009 20:00:02 17.9 C 11.91 g/m*3 17.9 C 0 km/h
2020 16-09-2009 20:12:02 18 C 11.83 g/m*3 18 C 0 km/h
2021 16-09-2009 20:24:02 17.8 C 11.84 g/m*3 17.8 C 0 km/h
2022 16-09-2009 20:36:01 17.3 C 11.79 g/m*3 17.3 C 0 km/h
2023 16-09-2009 20:48:02 17 C 11.72 g/m*3 17 C 0 km/h
2024 16-09-2009 21:00:02 16.9 C 11.94 g/m*3 16.9 C 0 km/h
2025 16-09-2009 21:12:02 17.2 C 12.15 g/m*3 17.2 C 0 km/h
Sensor: Nr:Datum:Temp:Abs-Feuchte:Windchill:Wind:
Aussen-T/F 2026 16-09-2009 21:24:01 17.3 C 12.08 g/m*3 17.3 C 0 km/h
2027 16-09-2009 21:36:01 17.4 C 12.15 g/m*3 17.4 C 0 km/h
2028 16-09-2009 21:48:01 17.4 C 12.15 g/m*3 17.4 C 0 km/h
2029 16-09-2009 22:00:01 17.4 C 12 g/m*3 17.4 C 0 km/h
2030 16-09-2009 22:12:01 17.3 C 11.79 g/m*3 17.3 C 0 km/h
2031 16-09-2009 22:24:01 17.3 C 11.79 g/m*3 17.3 C 0 km/h
2032 16-09-2009 22:36:02 17.3 C 11.79 g/m*3 17.3 C 0 km/h
2033 16-09-2009 22:48:02 17.3 C 11.64 g/m*3 17.3 C 0 km/h
2034 16-09-2009 23:00:02 17.3 C 11.49 g/m*3 17.3 C 0 km/h
2035 16-09-2009 23:12:03 17.2 C 11.42 g/m*3 17.2 C 0 km/h
2036 16-09-2009 23:24:02 17.1 C 11.5 g/m*3 17.1 C 0 km/h
2037 16-09-2009 23:36:02 17.2 C 11.57 g/m*3 17.2 C 0 km/h
2038 16-09-2009 23:48:01 17 C 11.43 g/m*3 17 C 0 km/h
2039 17-09-2009 00:00:01 16.7 C 11.37 g/m*3 16.7 C 0 km/h
2040 17-09-2009 00:12:02 16.7 C 11.51 g/m*3 16.7 C 0 km/h
2041 17-09-2009 00:24:01 16.6 C 11.44 g/m*3 16.6 C 0 km/h
2042 17-09-2009 00:36:02 16.6 C 11.44 g/m*3 16.6 C 0 km/h
2043 17-09-2009 00:48:01 16.6 C 11.44 g/m*3 16.6 C 0 km/h
2044 17-09-2009 01:00:01 16.6 C 11.44 g/m*3 16.6 C 0 km/h
2045 17-09-2009 01:12:02 16.6 C 11.44 g/m*3 16.6 C 0 km/h
2046 17-09-2009 01:24:01 16.7 C 11.37 g/m*3 16.7 C 0 km/h
2047 17-09-2009 01:36:02 16.7 C 11.23 g/m*3 16.7 C 0 km/h
2048 17-09-2009 01:48:01 16.5 C 11.23 g/m*3 16.5 C 0 km/h
2049 17-09-2009 02:00:01 16.5 C 11.23 g/m*3 16.5 C 0 km/h
2050 17-09-2009 02:12:02 16.6 C 11.16 g/m*3 16.6 C 0 km/h
Sensor: Nr:Datum:Temp:Abs-Feuchte:Windchill:Wind:
Aussen-T/F 2051 17-09-2009 02:24:02 16.6 C 11.16 g/m*3 16.6 C 0 km/h
2052 17-09-2009 02:36:02 16.6 C 11.02 g/m*3 16.6 C 0 km/h
2053 17-09-2009 02:48:02 16.6 C 11.02 g/m*3 16.6 C 0 km/h
2054 17-09-2009 03:00:02 16.6 C 11.02 g/m*3 16.6 C 0 km/h
2055 17-09-2009 03:12:01 16.5 C 11.09 g/m*3 16.5 C 0 km/h
2056 17-09-2009 03:24:01 16.5 C 11.09 g/m*3 16.5 C 0 km/h
2057 17-09-2009 03:36:01 16.5 C 10.95 g/m*3 16.5 C 0 km/h
2058 17-09-2009 03:48:01 16.5 C 10.95 g/m*3 16.5 C 0 km/h
2059 17-09-2009 04:00:01 16.4 C 10.89 g/m*3 16.4 C 0 km/h
2060 17-09-2009 04:12:01 16.4 C 10.89 g/m*3 16.4 C 0 km/h
2061 17-09-2009 04:24:01 16.4 C 10.89 g/m*3 16.4 C 0 km/h
2062 17-09-2009 04:36:01 16.3 C 10.68 g/m*3 16.3 C 0 km/h
2063 17-09-2009 04:48:01 16.3 C 10.41 g/m*3 16.3 C 0 km/h
2064 17-09-2009 05:00:01 16.2 C 10.34 g/m*3 16.2 C 0 km/h
2065 17-09-2009 05:12:01 16 C 10.08 g/m*3 16 C 0 km/h
2066 17-09-2009 05:24:02 16 C 10.08 g/m*3 16 C 0 km/h
2067 17-09-2009 05:36:01 15.9 C 10.16 g/m*3 15.9 C 0 km/h
2068 17-09-2009 05:48:02 15.8 C 10.1 g/m*3 15.8 C 0 km/h
2069 17-09-2009 06:00:02 15.8 C 10.1 g/m*3 15.8 C 0 km/h
2070 17-09-2009 06:12:01 15.6 C 9.97 g/m*3 15.6 C 0 km/h
2071 17-09-2009 06:24:02 15.4 C 9.85 g/m*3 15.4 C 0 km/h
2072 17-09-2009 06:36:01 15.4 C 9.85 g/m*3 15.4 C 0 km/h
2073 17-09-2009 06:48:02 15.4 C 9.72 g/m*3 15.4 C 0 km/h
2074 17-09-2009 07:00:02 15.3 C 9.79 g/m*3 15.3 C 0 km/h
2075 17-09-2009 07:12:01 15.3 C 9.79 g/m*3 15.3 C 0 km/h
Sensor: Nr:Datum:Temp:Abs-Feuchte:Windchill:Wind:
Aussen-T/F 2076 17-09-2009 07:24:01 15.3 C 9.66 g/m*3 15.3 C 0 km/h
2077 17-09-2009 07:36:02 15.2 C 9.61 g/m*3 15.2 C 0 km/h
2078 17-09-2009 07:48:01 15.2 C 9.48 g/m*3 15.2 C 0 km/h
2079 17-09-2009 08:00:01 15.2 C 9.35 g/m*3 15.2 C 0 km/h
2080 17-09-2009 08:12:01 15.1 C 9.42 g/m*3 15.1 C 0 km/h
2081 17-09-2009 08:24:01 15.2 C 9.48 g/m*3 15.2 C 0 km/h
2082 17-09-2009 08:36:02 15.3 C 9.27 g/m*3 15.3 C 0 km/h
2083 17-09-2009 08:48:01 15.2 C 9.09 g/m*3 15.2 C 0 km/h
2084 17-09-2009 09:00:01 15.4 C 9.07 g/m*3 15.4 C 0 km/h
2085 17-09-2009 09:12:02 15.5 C 8.99 g/m*3 15.5 C 0 km/h
2086 17-09-2009 09:24:01 15.7 C 9.1 g/m*3 15.7 C 0 km/h
2087 17-09-2009 09:36:01 15.9 C 9.07 g/m*3 15.9 C 0 km/h
2088 17-09-2009 09:48:01 16.1 C 8.77 g/m*3 16.1 C 0 km/h
2089 17-09-2009 10:00:01 16.2 C 8.69 g/m*3 16.2 C 0 km/h
2090 17-09-2009 10:12:02 16.4 C 8.79 g/m*3 16.4 C 0 km/h
2091 17-09-2009 10:24:01 16.6 C 8.76 g/m*3 16.6 C 0 km/h
2092 17-09-2009 10:36:01 17 C 8.54 g/m*3 17 C 0 km/h
2093 17-09-2009 10:48:01 17.3 C 8.84 g/m*3 17.3 C 0 km/h
2094 17-09-2009 11:00:01 17 C 8.68 g/m*3 17 C 0 km/h
2095 17-09-2009 11:12:01 17.3 C 8.69 g/m*3 17.3 C 0 km/h
2096 17-09-2009 11:24:01 17.4 C 8.6 g/m*3 17.4 C 0 km/h
2097 17-09-2009 11:36:01 17.7 C 8.75 g/m*3 17.7 C 0 km/h
2098 17-09-2009 11:48:01 18.1 C 8.65 g/m*3 18.1 C 0 km/h
2099 17-09-2009 12:00:01 18.2 C 8.7 g/m*3 18.2 C 0 km/h
2100 17-09-2009 12:12:01 18.7 C 8.81 g/m*3 18.7 C 0 km/h
Sensor: Nr:Datum:Temp:Abs-Feuchte:Windchill:Wind:
Aussen-T/F 2101 17-09-2009 12:24:02 18.8 C 9.02 g/m*3 18.8 C 0 km/h
2102 17-09-2009 12:36:01 19.3 C 8.96 g/m*3 19.3 C 0 km/h
2103 17-09-2009 12:48:02 20.4 C 8.67 g/m*3 20.4 C 0 km/h
2104 17-09-2009 13:00:02 20.9 C 9.11 g/m*3 20.9 C 0 km/h
2105 17-09-2009 13:12:01 20.8 C 8.87 g/m*3 20.8 C 0 km/h
2106 17-09-2009 13:24:02 21 C 8.43 g/m*3 21 C 0 km/h
2107 17-09-2009 13:36:01 21.6 C 8.53 g/m*3 21.6 C 0 km/h
2108 17-09-2009 13:48:02 22 C 8.73 g/m*3 22 C 0 km/h
2109 17-09-2009 14:00:02 22.9 C 8.38 g/m*3 22.9 C 0 km/h
2110 17-09-2009 14:12:01 23.8 C 7.96 g/m*3 23.8 C 0 km/h
2111 17-09-2009 14:24:01 23.3 C 8.36 g/m*3 23.3 C 0 km/h
2112 17-09-2009 14:36:02 23.1 C 8.68 g/m*3 23.1 C 0 km/h
2113 17-09-2009 14:48:01 23.2 C 8.52 g/m*3 23.2 C 0 km/h
2114 17-09-2009 15:00:01 23 C 9.25 g/m*3 23 C 0 km/h
2115 17-09-2009 15:12:01 22.7 C 9.09 g/m*3 22.7 C 0 km/h
2116 17-09-2009 15:24:01 23.2 C 8.94 g/m*3 23.2 C 0 km/h
2117 17-09-2009 15:36:02 23.7 C 9.2 g/m*3 23.7 C 0 km/h
2118 17-09-2009 15:48:01 23.2 C 8.94 g/m*3 23.2 C 0 km/h
2119 17-09-2009 16:00:01 24.2 C 9.24 g/m*3 24.2 C 0 km/h
2120 17-09-2009 16:12:02 25.1 C 8.33 g/m*3 25.1 C 0 km/h
2121 17-09-2009 16:24:01 25.6 C 9.05 g/m*3 25.6 C 0 km/h
2122 17-09-2009 16:36:01 26.3 C 8.66 g/m*3 26.3 C 0 km/h
2123 17-09-2009 16:48:01 26.7 C 8.35 g/m*3 26.7 C 0 km/h
2124 17-09-2009 17:00:01 26.4 C 7.97 g/m*3 26.4 C 0 km/h
2125 17-09-2009 17:12:02 26.1 C 8.81 g/m*3 26.1 C 0 km/h
Sensor: Nr:Datum:Temp:Abs-Feuchte:Windchill:Wind:
Aussen-T/F 2126 17-09-2009 17:24:01 24.5 C 9.4 g/m*3 24.5 C 0 km/h
2127 17-09-2009 17:36:01 24.2 C 9.46 g/m*3 24.2 C 0 km/h
2128 17-09-2009 17:48:01 24.5 C 9.4 g/m*3 24.5 C 0 km/h
2129 17-09-2009 18:00:01 24.8 C 9.56 g/m*3 24.8 C 0 km/h
2130 17-09-2009 18:12:01 24.4 C 9.35 g/m*3 24.4 C 0 km/h
2131 17-09-2009 18:24:02 23.1 C 9.72 g/m*3 23.1 C 0 km/h
2132 17-09-2009 18:36:01 22.1 C 9.76 g/m*3 22.1 C 0 km/h
2133 17-09-2009 18:48:01 21.3 C 10.07 g/m*3 21.3 C 0 km/h
2134 17-09-2009 19:00:01 20.5 C 10.14 g/m*3 20.5 C 0 km/h
2135 17-09-2009 19:12:01 19.8 C 10.08 g/m*3 19.8 C 0 km/h
2136 17-09-2009 19:24:02 19.4 C 10.01 g/m*3 19.4 C 0 km/h
2137 17-09-2009 19:36:01 18.9 C 10.04 g/m*3 18.9 C 0 km/h
2138 17-09-2009 19:48:02 18.6 C 10.03 g/m*3 18.6 C 0 km/h
2139 17-09-2009 20:00:02 18.2 C 9.95 g/m*3 18.2 C 0 km/h
2140 17-09-2009 20:12:01 17.9 C 10.08 g/m*3 17.9 C 0 km/h
2141 17-09-2009 20:24:02 17.6 C 10.05 g/m*3 17.6 C 0 km/h
2142 17-09-2009 20:36:01 17.3 C 10.02 g/m*3 17.3 C 0 km/h
2143 17-09-2009 20:48:02 17.1 C 9.9 g/m*3 17.1 C 0 km/h
2144 17-09-2009 21:00:02 16.8 C 9.87 g/m*3 16.8 C 0 km/h
2145 17-09-2009 21:12:01 16.9 C 10.21 g/m*3 16.9 C 0 km/h
2146 17-09-2009 21:24:02 17 C 9.98 g/m*3 17 C 0 km/h
2147 17-09-2009 21:36:01 16.9 C 10.21 g/m*3 16.9 C 0 km/h
2148 17-09-2009 21:48:02 17 C 10.27 g/m*3 17 C 0 km/h
2149 17-09-2009 22:00:02 17.3 C 10.31 g/m*3 17.3 C 0 km/h
2150 17-09-2009 22:12:01 17.2 C 10.25 g/m*3 17.2 C 0 km/h
Sensor: Nr:Datum:Temp:Abs-Feuchte:Windchill:Wind:
Aussen-T/F 2151 17-09-2009 22:24:01 17.2 C 9.96 g/m*3 17.2 C 0 km/h
2152 17-09-2009 22:37:02 17.1 C 9.75 g/m*3 17.1 C 0 km/h
2153 17-09-2009 22:49:03 17.2 C 9.81 g/m*3 17.2 C 0 km/h
2154 17-09-2009 23:01:03 17 C 9.12 g/m*3 17 C 0 km/h
2155 17-09-2009 23:13:03 17 C 8.83 g/m*3 17 C 0 km/h
2156 17-09-2009 23:25:03 17.1 C 9.32 g/m*3 17.1 C 0 km/h
2157 17-09-2009 23:37:03 17 C 8.97 g/m*3 17 C 0 km/h
2158 17-09-2009 23:49:03 17 C 9.12 g/m*3 17 C 0 km/h
2159 18-09-2009 00:01:03 16.8 C 9.15 g/m*3 16.8 C 0 km/h
2160 18-09-2009 00:13:03 16.5 C 9.13 g/m*3 16.5 C 0 km/h
2161 18-09-2009 00:25:03 16.3 C 9.02 g/m*3 16.3 C 0 km/h
2162 18-09-2009 00:37:03 16.2 C 8.96 g/m*3 16.2 C 0 km/h
2163 18-09-2009 00:49:03 16.1 C 8.91 g/m*3 16.1 C 0 km/h
2164 18-09-2009 01:01:03 16 C 8.99 g/m*3 16 C 0 km/h
2165 18-09-2009 01:13:03 16 C 8.86 g/m*3 16 C 0 km/h
2166 18-09-2009 01:25:03 16.2 C 8.96 g/m*3 16.2 C 0 km/h
2167 18-09-2009 01:37:03 16.2 C 8.83 g/m*3 16.2 C 0 km/h
2168 18-09-2009 01:49:03 16.2 C 8.96 g/m*3 16.2 C 0 km/h
2169 18-09-2009 02:01:03 15.9 C 8.94 g/m*3 15.9 C 0 km/h
2170 18-09-2009 02:13:03 15.4 C 8.8 g/m*3 15.4 C 0 km/h
2171 18-09-2009 02:25:03 15 C 8.72 g/m*3 15 C 0 km/h
2172 18-09-2009 02:37:03 14.5 C 8.71 g/m*3 14.5 C 0 km/h
2173 18-09-2009 02:49:04 14.3 C 8.85 g/m*3 14.3 C 0 km/h
2174 18-09-2009 03:01:04 14 C 8.68 g/m*3 14 C 0 km/h
2175 18-09-2009 03:13:04 13.7 C 8.76 g/m*3 13.7 C 0 km/h
Sensor: Nr:Datum:Temp:Abs-Feuchte:Windchill:Wind:
Aussen-T/F 2176 18-09-2009 03:25:04 13.6 C 8.83 g/m*3 13.6 C 0 km/h
2177 18-09-2009 03:37:04 13.6 C 8.94 g/m*3 13.6 C 0 km/h
2178 18-09-2009 03:49:04 13.4 C 8.83 g/m*3 13.4 C 0 km/h
2179 18-09-2009 04:01:04 13.2 C 8.73 g/m*3 13.2 C 0 km/h
2180 18-09-2009 04:13:04 13 C 8.73 g/m*3 13 C 0 km/h
2181 18-09-2009 04:25:04 13 C 8.85 g/m*3 13 C 0 km/h
2182 18-09-2009 04:37:04 13.1 C 8.9 g/m*3 13.1 C 0 km/h
2183 18-09-2009 04:49:04 13.3 C 9.13 g/m*3 13.3 C 0 km/h
2184 18-09-2009 05:01:04 13.5 C 9.24 g/m*3 13.5 C 0 km/h
2185 18-09-2009 05:13:04 13.5 C 9.24 g/m*3 13.5 C 0 km/h
2186 18-09-2009 05:25:04 13.3 C 9.13 g/m*3 13.3 C 0 km/h
2187 18-09-2009 05:37:04 13 C 9.07 g/m*3 13 C 0 km/h
2188 18-09-2009 05:49:04 12.7 C 9.02 g/m*3 12.7 C 0 km/h
2189 18-09-2009 06:01:04 12.5 C 9.02 g/m*3 12.5 C 0 km/h
2190 18-09-2009 06:13:04 12.5 C 9.02 g/m*3 12.5 C 0 km/h
2191 18-09-2009 06:25:05 12.6 C 9.18 g/m*3 12.6 C 0 km/h
2192 18-09-2009 06:37:05 12.7 C 9.24 g/m*3 12.7 C 0 km/h
2193 18-09-2009 06:49:05 12.8 C 9.18 g/m*3 12.8 C 0 km/h
2194 18-09-2009 07:01:02 12.7 C 9.13 g/m*3 12.7 C 0 km/h
2195 18-09-2009 07:13:02 12.8 C 9.3 g/m*3 12.8 C 0 km/h
2196 18-09-2009 07:25:02 12.9 C 9.35 g/m*3 12.9 C 0 km/h
2197 18-09-2009 07:37:02 13 C 9.41 g/m*3 13 C 0 km/h
2198 18-09-2009 07:49:02 13.3 C 9.47 g/m*3 13.3 C 0 km/h
2199 18-09-2009 08:01:02 13.4 C 9.53 g/m*3 13.4 C 0 km/h
2200 18-09-2009 08:13:02 13.3 C 9.36 g/m*3 13.3 C 0 km/h
Sensor: Nr:Datum:Temp:Abs-Feuchte:Windchill:Wind:
Aussen-T/F 2201 18-09-2009 08:25:02 13.4 C 9.42 g/m*3 13.4 C 0 km/h
2202 18-09-2009 08:37:02 13.5 C 9.47 g/m*3 13.5 C 0 km/h
2203 18-09-2009 08:49:02 13.7 C 9.47 g/m*3 13.7 C 0 km/h
2204 18-09-2009 09:01:02 13.6 C 9.3 g/m*3 13.6 C 0 km/h
2205 18-09-2009 09:13:02 13.8 C 9.53 g/m*3 13.8 C 0 km/h
2206 18-09-2009 09:25:03 14 C 9.53 g/m*3 14 C 0 km/h
2207 18-09-2009 09:37:02 14 C 9.29 g/m*3 14 C 0 km/h
2208 18-09-2009 09:49:03 14 C 9.29 g/m*3 14 C 0 km/h
2209 18-09-2009 10:01:02 14.4 C 9.39 g/m*3 14.4 C 0 km/h
2210 18-09-2009 10:13:02 14.7 C 9.32 g/m*3 14.7 C 0 km/h
2211 18-09-2009 10:25:02 15 C 9.23 g/m*3 15 C 0 km/h
2212 18-09-2009 10:37:02 15.8 C 9.29 g/m*3 15.8 C 0 km/h
2213 18-09-2009 10:49:02 16.4 C 9.49 g/m*3 16.4 C 0 km/h
2214 18-09-2009 11:01:02 17 C 9.55 g/m*3 17 C 0 km/h
2215 18-09-2009 11:13:02 17.5 C 9.69 g/m*3 17.5 C 0 km/h
2216 18-09-2009 11:25:02 17.7 C 9.66 g/m*3 17.7 C 0 km/h
2217 18-09-2009 11:37:01 18.6 C 9.39 g/m*3 18.6 C 0 km/h
2218 18-09-2009 11:49:02 19.1 C 8.85 g/m*3 19.1 C 0 km/h
2219 18-09-2009 12:01:01 19.5 C 8.73 g/m*3 19.5 C 0 km/h
2220 18-09-2009 12:13:01 19.7 C 8.83 g/m*3 19.7 C 0 km/h
2221 18-09-2009 12:25:01 20 C 8.81 g/m*3 20 C 0 km/h
2222 18-09-2009 12:37:02 20.3 C 8.97 g/m*3 20.3 C 0 km/h
2223 18-09-2009 12:49:02 20.6 C 9.13 g/m*3 20.6 C 0 km/h
2224 18-09-2009 13:01:02 21 C 9.16 g/m*3 21 C 0 km/h
2225 18-09-2009 13:13:02 21.5 C 9.24 g/m*3 21.5 C 0 km/h
Sensor: Nr:Datum:Temp:Abs-Feuchte:Windchill:Wind:
Aussen-T/F 2226 18-09-2009 13:25:02 21.9 C 9.26 g/m*3 21.9 C 0 km/h
2227 18-09-2009 13:37:02 22.7 C 9.29 g/m*3 22.7 C 0 km/h
2228 18-09-2009 13:49:01 23 C 8.84 g/m*3 23 C 0 km/h
2229 18-09-2009 14:01:02 23.6 C 8.93 g/m*3 23.6 C 0 km/h
2230 18-09-2009 14:13:02 24.1 C 8.75 g/m*3 24.1 C 0 km/h
2231 18-09-2009 14:25:01 24.7 C 9.05 g/m*3 24.7 C 0 km/h
2232 18-09-2009 14:37:01 24.4 C 8.46 g/m*3 24.4 C 0 km/h
2233 18-09-2009 14:49:01 23.7 C 8.98 g/m*3 23.7 C 0 km/h
2234 18-09-2009 15:01:02 23.6 C 9.15 g/m*3 23.6 C 0 km/h
2235 18-09-2009 15:13:02 23.9 C 9.3 g/m*3 23.9 C 0 km/h
2236 18-09-2009 15:25:02 24.9 C 8.7 g/m*3 24.9 C 0 km/h
2237 18-09-2009 15:37:01 25.8 C 8.91 g/m*3 25.8 C 0 km/h
2238 18-09-2009 15:49:01 25.5 C 9.47 g/m*3 25.5 C 0 km/h
2239 18-09-2009 16:01:01 25 C 9.44 g/m*3 25 C 0 km/h
2240 18-09-2009 16:13:01 24 C 10.01 g/m*3 24 C 0 km/h
2241 18-09-2009 16:25:02 23.4 C 10.72 g/m*3 23.4 C 0 km/h
2242 18-09-2009 16:37:01 23.3 C 10.66 g/m*3 23.3 C 0 km/h
2243 18-09-2009 16:49:02 23.1 C 10.54 g/m*3 23.1 C 0 km/h
2244 18-09-2009 17:01:01 23.2 C 11.02 g/m*3 23.2 C 0 km/h
2245 18-09-2009 17:13:01 22.9 C 11.24 g/m*3 22.9 C 0 km/h
2246 18-09-2009 17:25:02 24.5 C 10.97 g/m*3 24.5 C 0 km/h
2247 18-09-2009 17:37:01 25.7 C 10.53 g/m*3 25.7 C 0 km/h
2248 18-09-2009 17:49:02 26.7 C 9.87 g/m*3 26.7 C 0 km/h
2249 18-09-2009 18:01:02 26.6 C 9.57 g/m*3 26.6 C 0 km/h
2250 18-09-2009 18:13:02 26.3 C 9.16 g/m*3 26.3 C 0 km/h
Sensor: Nr:Datum:Temp:Abs-Feuchte:Windchill:Wind:
Aussen-T/F 2251 18-09-2009 18:25:02 25.7 C 9.58 g/m*3 25.7 C 0 km/h
2252 18-09-2009 18:37:02 24.4 C 10.01 g/m*3 24.4 C 0 km/h
2253 18-09-2009 18:49:02 23.2 C 10.19 g/m*3 23.2 C 0 km/h
2254 18-09-2009 19:01:02 22.4 C 10.72 g/m*3 22.4 C 0 km/h
2255 18-09-2009 19:13:02 21.7 C 10.68 g/m*3 21.7 C 0 km/h
2256 18-09-2009 19:25:01 21.1 C 10.69 g/m*3 21.1 C 0 km/h
2257 18-09-2009 19:37:02 20.8 C 10.68 g/m*3 20.8 C 0 km/h
2258 18-09-2009 19:49:02 20.4 C 10.79 g/m*3 20.4 C 0 km/h
2259 18-09-2009 20:01:02 20.1 C 10.78 g/m*3 20.1 C 0 km/h
2260 18-09-2009 20:13:02 20 C 10.71 g/m*3 20 C 0 km/h
2261 18-09-2009 20:25:02 19.9 C 10.82 g/m*3 19.9 C 0 km/h
2262 18-09-2009 20:37:02 20 C 10.89 g/m*3 20 C 0 km/h
2263 18-09-2009 20:49:02 20.1 C 10.95 g/m*3 20.1 C 0 km/h
2264 18-09-2009 21:01:02 20 C 11.06 g/m*3 20 C 0 km/h
2265 18-09-2009 21:13:02 19.9 C 11.17 g/m*3 19.9 C 0 km/h
2266 18-09-2009 21:25:02 19.8 C 11.27 g/m*3 19.8 C 0 km/h
2267 18-09-2009 21:37:02 19.6 C 11.14 g/m*3 19.6 C 0 km/h
2268 18-09-2009 21:49:01 19.5 C 10.91 g/m*3 19.5 C 0 km/h
2269 18-09-2009 22:01:01 19.5 C 10.74 g/m*3 19.5 C 0 km/h
2270 18-09-2009 22:13:01 19.5 C 10.74 g/m*3 19.5 C 0 km/h
2271 18-09-2009 22:25:01 19.5 C 10.57 g/m*3 19.5 C 0 km/h
2272 18-09-2009 22:37:02 19.6 C 10.47 g/m*3 19.6 C 0 km/h
2273 18-09-2009 22:50:01 19.6 C 10.64 g/m*3 19.6 C 0 km/h
2274 18-09-2009 23:02:01 19.6 C 10.47 g/m*3 19.6 C 0 km/h
2275 18-09-2009 23:14:01 19.6 C 10.47 g/m*3 19.6 C 0 km/h
Sensor: Nr:Datum:Temp:Abs-Feuchte:Windchill:Wind:
Aussen-T/F 2276 18-09-2009 23:26:01 19.5 C 10.41 g/m*3 19.5 C 0 km/h
2277 18-09-2009 23:38:02 19.5 C 10.24 g/m*3 19.5 C 0 km/h
2278 18-09-2009 23:50:02 19.5 C 10.24 g/m*3 19.5 C 0 km/h
2279 19-09-2009 00:02:02 19.5 C 10.24 g/m*3 19.5 C 0 km/h
2280 19-09-2009 00:14:02 19.4 C 10.18 g/m*3 19.4 C 0 km/h
2281 19-09-2009 00:26:02 19.3 C 10.28 g/m*3 19.3 C 0 km/h
2282 19-09-2009 00:38:02 19.2 C 10.39 g/m*3 19.2 C 0 km/h
2283 19-09-2009 00:50:02 18.9 C 10.69 g/m*3 18.9 C 0 km/h
2284 19-09-2009 01:02:02 18.7 C 10.73 g/m*3 18.7 C 0 km/h
2285 19-09-2009 01:14:02 18.7 C 10.73 g/m*3 18.7 C 0 km/h
2286 19-09-2009 01:26:02 18.6 C 10.82 g/m*3 18.6 C 0 km/h
2287 19-09-2009 01:38:02 18.5 C 10.92 g/m*3 18.5 C 0 km/h
2288 19-09-2009 01:50:02 18.4 C 10.85 g/m*3 18.4 C 0 km/h
2289 19-09-2009 02:02:02 18.3 C 10.79 g/m*3 18.3 C 0 km/h
2290 19-09-2009 02:14:02 18.1 C 10.66 g/m*3 18.1 C 0 km/h
2291 19-09-2009 02:26:02 18.1 C 10.82 g/m*3 18.1 C 0 km/h
2292 19-09-2009 02:38:02 18.1 C 10.97 g/m*3 18.1 C 0 km/h
2293 19-09-2009 02:50:02 18.1 C 10.97 g/m*3 18.1 C 0 km/h
2294 19-09-2009 03:02:02 17.9 C 10.99 g/m*3 17.9 C 0 km/h
2295 19-09-2009 03:14:02 17.9 C 10.99 g/m*3 17.9 C 0 km/h
2296 19-09-2009 03:26:03 17.9 C 10.69 g/m*3 17.9 C 0 km/h
2297 19-09-2009 03:38:03 17.9 C 10.69 g/m*3 17.9 C 0 km/h
2298 19-09-2009 03:50:03 17.9 C 10.54 g/m*3 17.9 C 0 km/h
2299 19-09-2009 04:02:03 17.9 C 10.54 g/m*3 17.9 C 0 km/h
2300 19-09-2009 04:14:03 17.9 C 10.54 g/m*3 17.9 C 0 km/h
Sensor: Nr:Datum:Temp:Abs-Feuchte:Windchill:Wind:
Aussen-T/F 2301 19-09-2009 04:26:03 18 C 10.44 g/m*3 18 C 0 km/h
2302 19-09-2009 04:38:03 17.9 C 10.54 g/m*3 17.9 C 0 km/h
2303 19-09-2009 04:50:03 18 C 10.44 g/m*3 18 C 0 km/h
2304 19-09-2009 05:02:03 18 C 10.29 g/m*3 18 C 0 km/h
2305 19-09-2009 05:14:03 18 C 10.6 g/m*3 18 C 0 km/h
2306 19-09-2009 05:26:03 17.9 C 10.69 g/m*3 17.9 C 0 km/h
2307 19-09-2009 05:38:03 17.9 C 10.69 g/m*3 17.9 C 0 km/h
2308 19-09-2009 05:50:03 17.8 C 10.78 g/m*3 17.8 C 0 km/h
2309 19-09-2009 06:02:03 17.7 C 10.71 g/m*3 17.7 C 0 km/h
2310 19-09-2009 06:14:03 17.5 C 10.73 g/m*3 17.5 C 0 km/h
2311 19-09-2009 06:26:03 17.4 C 10.52 g/m*3 17.4 C 0 km/h
2312 19-09-2009 06:38:03 17.3 C 10.61 g/m*3 17.3 C 0 km/h
2313 19-09-2009 06:50:03 17.1 C 10.48 g/m*3 17.1 C 0 km/h
2314 19-09-2009 07:02:03 16.9 C 10.5 g/m*3 16.9 C 0 km/h
2315 19-09-2009 07:14:03 16.6 C 10.45 g/m*3 16.6 C 0 km/h
2316 19-09-2009 07:26:04 16.6 C 10.45 g/m*3 16.6 C 0 km/h
2317 19-09-2009 07:38:04 16.6 C 10.45 g/m*3 16.6 C 0 km/h
2318 19-09-2009 07:50:04 16.6 C 10.45 g/m*3 16.6 C 0 km/h
2319 19-09-2009 08:02:01 16.8 C 10.58 g/m*3 16.8 C 0 km/h
2320 19-09-2009 08:14:01 17 C 10.56 g/m*3 17 C 0 km/h
2321 19-09-2009 08:26:02 17.2 C 10.69 g/m*3 17.2 C 0 km/h
2322 19-09-2009 08:38:01 17.5 C 10.73 g/m*3 17.5 C 0 km/h
2323 19-09-2009 08:50:02 17.8 C 10.93 g/m*3 17.8 C 0 km/h
2324 19-09-2009 09:02:02 17.9 C 10.69 g/m*3 17.9 C 0 km/h
2325 19-09-2009 09:14:02 18 C 10.29 g/m*3 18 C 0 km/h
Sensor: Nr:Datum:Temp:Abs-Feuchte:Windchill:Wind:
Aussen-T/F 2326 19-09-2009 09:26:02 18.2 C 10.26 g/m*3 18.2 C 0 km/h
2327 19-09-2009 09:38:03 18.4 C 10.07 g/m*3 18.4 C 0 km/h
2328 19-09-2009 09:50:02 18.6 C 10.03 g/m*3 18.6 C 0 km/h
2329 19-09-2009 10:02:01 18.8 C 9.99 g/m*3 18.8 C 0 km/h
2330 19-09-2009 10:14:01 19.1 C 9.67 g/m*3 19.1 C 0 km/h
2331 19-09-2009 10:26:02 19.4 C 9.51 g/m*3 19.4 C 0 km/h
2332 19-09-2009 10:38:02 20 C 9.33 g/m*3 20 C 0 km/h
2333 19-09-2009 10:50:02 20.3 C 9.5 g/m*3 20.3 C 0 km/h
2334 19-09-2009 11:02:03 20.2 C 9.62 g/m*3 20.2 C 0 km/h
2335 19-09-2009 11:14:03 21.1 C 9.58 g/m*3 21.1 C 0 km/h
2336 19-09-2009 11:26:02 22.2 C 9.42 g/m*3 22.2 C 0 km/h
2337 19-09-2009 11:38:02 22 C 9.12 g/m*3 22 C 0 km/h
2338 19-09-2009 11:50:01 22.3 C 9.68 g/m*3 22.3 C 0 km/h
2339 19-09-2009 12:02:02 22.8 C 9.55 g/m*3 22.8 C 0 km/h
2340 19-09-2009 12:14:02 22.7 C 9.5 g/m*3 22.7 C 0 km/h
2341 19-09-2009 12:26:01 22.7 C 9.9 g/m*3 22.7 C 0 km/h
2342 19-09-2009 12:38:02 22.9 C 9.81 g/m*3 22.9 C 0 km/h
2343 19-09-2009 12:50:01 23.4 C 9.46 g/m*3 23.4 C 0 km/h
2344 19-09-2009 13:02:02 23.8 C 9.9 g/m*3 23.8 C 0 km/h
2345 19-09-2009 13:14:02 24 C 10.01 g/m*3 24 C 0 km/h
2346 19-09-2009 13:26:01 24.3 C 9.96 g/m*3 24.3 C 0 km/h
2347 19-09-2009 13:38:02 24.7 C 10.19 g/m*3 24.7 C 0 km/h
2348 19-09-2009 13:50:01 25 C 9.44 g/m*3 25 C 0 km/h
2349 19-09-2009 14:02:02 25.5 C 9.47 g/m*3 25.5 C 0 km/h
2350 19-09-2009 14:14:02 26.1 C 9.55 g/m*3 26.1 C 0 km/h
Sensor: Nr:Datum:Temp:Abs-Feuchte:Windchill:Wind:
Aussen-T/F 2351 19-09-2009 14:26:02 26.2 C 9.35 g/m*3 26.2 C 0 km/h
2352 19-09-2009 14:38:02 26.7 C 9.37 g/m*3 26.7 C 0 km/h
2353 19-09-2009 14:50:01 26.2 C 10.34 g/m*3 26.2 C 0 km/h
2354 19-09-2009 15:02:02 27 C 9.26 g/m*3 27 C 0 km/h
2355 19-09-2009 15:14:02 27.6 C 9.31 g/m*3 27.6 C 0 km/h
2356 19-09-2009 15:26:02 27.5 C 9.79 g/m*3 27.5 C 0 km/h
2357 19-09-2009 15:38:01 28.5 C 9.22 g/m*3 28.5 C 0 km/h
2358 19-09-2009 15:50:02 28.5 C 9.22 g/m*3 28.5 C 0 km/h
2359 19-09-2009 16:02:01 27.9 C 10.01 g/m*3 27.9 C 0 km/h
2360 19-09-2009 16:14:01 27.3 C 10.47 g/m*3 27.3 C 0 km/h
2361 19-09-2009 16:26:02 26.6 C 10.82 g/m*3 26.6 C 0 km/h
2362 19-09-2009 16:38:01 25.8 C 11.32 g/m*3 25.8 C 0 km/h
2363 19-09-2009 16:50:02 25.5 C 10.89 g/m*3 25.5 C 0 km/h
2364 19-09-2009 17:02:02 26.4 C 10.7 g/m*3 26.4 C 0 km/h
2365 19-09-2009 17:14:02 28 C 9.52 g/m*3 28 C 0 km/h
2366 19-09-2009 17:26:02 27.7 C 9.9 g/m*3 27.7 C 0 km/h
2367 19-09-2009 17:38:03 26.5 C 10.26 g/m*3 26.5 C 0 km/h
2368 19-09-2009 17:50:02 25.6 C 10.71 g/m*3 25.6 C 0 km/h
2369 19-09-2009 18:02:01 24.8 C 11.15 g/m*3 24.8 C 0 km/h
2370 19-09-2009 18:14:01 24.2 C 11.44 g/m*3 24.2 C 0 km/h
2371 19-09-2009 18:26:02 23.8 C 11.62 g/m*3 23.8 C 0 km/h
2372 19-09-2009 18:38:02 23.4 C 11.57 g/m*3 23.4 C 0 km/h
2373 19-09-2009 18:50:02 22.9 C 11.65 g/m*3 22.9 C 0 km/h
2374 19-09-2009 19:02:03 22.5 C 11.58 g/m*3 22.5 C 0 km/h
2375 19-09-2009 19:14:03 22.4 C 11.52 g/m*3 22.4 C 0 km/h
Sensor: Nr:Datum:Temp:Abs-Feuchte:Windchill:Wind:
Aussen-T/F 2376 19-09-2009 19:26:02 22.2 C 11.39 g/m*3 22.2 C 0 km/h
2377 19-09-2009 19:38:02 21.8 C 11.51 g/m*3 21.8 C 0 km/h
2378 19-09-2009 19:50:01 21.7 C 11.64 g/m*3 21.7 C 0 km/h
2379 19-09-2009 20:02:02 21.6 C 11.76 g/m*3 21.6 C 0 km/h
2380 19-09-2009 20:14:02 21.6 C 11.76 g/m*3 21.6 C 0 km/h
2381 19-09-2009 20:26:01 21.6 C 11.76 g/m*3 21.6 C 0 km/h
2382 19-09-2009 20:38:02 21.2 C 12.42 g/m*3 21.2 C 0 km/h
2383 19-09-2009 20:50:01 19.7 C 13.41 g/m*3 19.7 C 0 km/h
2384 19-09-2009 21:02:01 19.2 C 13.85 g/m*3 19.2 C 0 km/h
2385 19-09-2009 21:14:01 19.3 C 13.93 g/m*3 19.3 C 0 km/h
2386 19-09-2009 21:26:02 19.2 C 13.85 g/m*3 19.2 C 0 km/h
2387 19-09-2009 21:38:02 19 C 13.53 g/m*3 19 C 0 km/h
2388 19-09-2009 21:50:02 19.2 C 13.36 g/m*3 19.2 C 0 km/h
2389 19-09-2009 22:02:02 19.4 C 13.01 g/m*3 19.4 C 0 km/h
2390 19-09-2009 22:14:02 19.5 C 12.92 g/m*3 19.5 C 0 km/h
2391 19-09-2009 22:26:02 19.3 C 12.94 g/m*3 19.3 C 0 km/h
2392 19-09-2009 22:38:02 19.3 C 12.94 g/m*3 19.3 C 0 km/h
2393 19-09-2009 22:51:02 19 C 12.71 g/m*3 19 C 0 km/h
2394 19-09-2009 23:03:03 18.7 C 12.81 g/m*3 18.7 C 0 km/h
2395 19-09-2009 23:15:03 18.4 C 12.58 g/m*3 18.4 C 0 km/h
2396 19-09-2009 23:27:03 18.2 C 12.59 g/m*3 18.2 C 0 km/h
2397 19-09-2009 23:39:03 18.1 C 12.52 g/m*3 18.1 C 0 km/h
2398 19-09-2009 23:51:03 17.9 C 12.52 g/m*3 17.9 C 0 km/h
2399 20-09-2009 00:03:03 17.7 C 12.52 g/m*3 17.7 C 0 km/h
2400 20-09-2009 00:15:03 17.6 C 12.45 g/m*3 17.6 C 0 km/h
Sensor: Nr:Datum:Temp:Abs-Feuchte:Windchill:Wind:
Aussen-T/F 2401 20-09-2009 00:27:03 17.5 C 12.37 g/m*3 17.5 C 0 km/h
2402 20-09-2009 00:39:03 17.4 C 12.45 g/m*3 17.4 C 0 km/h
2403 20-09-2009 00:51:03 17.3 C 12.37 g/m*3 17.3 C 0 km/h
2404 20-09-2009 01:03:03 17.2 C 12.3 g/m*3 17.2 C 0 km/h
2405 20-09-2009 01:15:03 17.1 C 12.23 g/m*3 17.1 C 0 km/h
2406 20-09-2009 01:27:03 17.2 C 12.45 g/m*3 17.2 C 0 km/h
2407 20-09-2009 01:39:03 17.1 C 12.37 g/m*3 17.1 C 0 km/h
2408 20-09-2009 01:51:03 17.2 C 12.45 g/m*3 17.2 C 0 km/h
2409 20-09-2009 02:03:03 17.4 C 12.6 g/m*3 17.4 C 0 km/h
2410 20-09-2009 02:15:03 17.3 C 12.37 g/m*3 17.3 C 0 km/h
2411 20-09-2009 02:27:03 17.1 C 12.23 g/m*3 17.1 C 0 km/h
2412 20-09-2009 02:39:03 17.2 C 12.3 g/m*3 17.2 C 0 km/h
2413 20-09-2009 02:51:04 17.2 C 12.3 g/m*3 17.2 C 0 km/h
2414 20-09-2009 03:03:04 16.9 C 12.23 g/m*3 16.9 C 0 km/h
2415 20-09-2009 03:15:04 16.6 C 12.15 g/m*3 16.6 C 0 km/h
2416 20-09-2009 03:27:04 16.6 C 12.29 g/m*3 16.6 C 0 km/h
2417 20-09-2009 03:39:04 16.6 C 12.29 g/m*3 16.6 C 0 km/h
2418 20-09-2009 03:51:04 16.7 C 12.36 g/m*3 16.7 C 0 km/h
2419 20-09-2009 04:03:04 16.7 C 12.36 g/m*3 16.7 C 0 km/h
2420 20-09-2009 04:15:04 16.4 C 12 g/m*3 16.4 C 0 km/h
2421 20-09-2009 04:27:04 16.4 C 12 g/m*3 16.4 C 0 km/h
2422 20-09-2009 04:39:04 16.3 C 12.07 g/m*3 16.3 C 0 km/h
2423 20-09-2009 04:51:04 16.2 C 11.86 g/m*3 16.2 C 0 km/h
2424 20-09-2009 05:03:04 16 C 11.72 g/m*3 16 C 0 km/h
2425 20-09-2009 05:15:04 15.8 C 11.85 g/m*3 15.8 C 0 km/h
Sensor: Nr:Datum:Temp:Abs-Feuchte:Windchill:Wind:
Aussen-T/F 2426 20-09-2009 05:27:04 15.6 C 11.7 g/m*3 15.6 C 0 km/h
2427 20-09-2009 05:39:04 15.4 C 11.69 g/m*3 15.4 C 0 km/h
2428 20-09-2009 05:51:04 15.3 C 11.62 g/m*3 15.3 C 0 km/h
2429 20-09-2009 06:03:04 15.3 C 11.75 g/m*3 15.3 C 0 km/h
2430 20-09-2009 06:15:04 15.4 C 11.96 g/m*3 15.4 C 0 km/h
2431 20-09-2009 06:27:04 15.2 C 11.68 g/m*3 15.2 C 0 km/h
2432 20-09-2009 06:39:05 15.2 C 11.81 g/m*3 15.2 C 0 km/h
2433 20-09-2009 06:51:05 15.4 C 11.96 g/m*3 15.4 C 0 km/h
2434 20-09-2009 07:03:05 15.3 C 11.88 g/m*3 15.3 C 0 km/h
2435 20-09-2009 07:15:05 15.2 C 11.81 g/m*3 15.2 C 0 km/h
2436 20-09-2009 07:27:05 15.2 C 11.81 g/m*3 15.2 C 0 km/h
2437 20-09-2009 07:39:05 15.4 C 11.96 g/m*3 15.4 C 0 km/h
2438 20-09-2009 07:51:05 15.4 C 11.96 g/m*3 15.4 C 0 km/h
2439 20-09-2009 08:03:05 15.6 C 12.1 g/m*3 15.6 C 0 km/h
2440 20-09-2009 08:15:05 15.8 C 12.25 g/m*3 15.8 C 0 km/h
2441 20-09-2009 08:27:05 15.9 C 12.19 g/m*3 15.9 C 0 km/h
2442 20-09-2009 08:39:02 15.8 C 12.11 g/m*3 15.8 C 0 km/h
2443 20-09-2009 08:51:02 15.9 C 12.05 g/m*3 15.9 C 0 km/h
2444 20-09-2009 09:03:02 16.1 C 12.06 g/m*3 16.1 C 0 km/h
2445 20-09-2009 09:15:02 16.3 C 12.21 g/m*3 16.3 C 0 km/h
2446 20-09-2009 09:27:03 16.5 C 12.22 g/m*3 16.5 C 0 km/h
2447 20-09-2009 09:39:02 16.6 C 12.15 g/m*3 16.6 C 0 km/h
2448 20-09-2009 09:51:02 16.9 C 12.23 g/m*3 16.9 C 0 km/h
2449 20-09-2009 10:03:01 17.4 C 12.3 g/m*3 17.4 C 0 km/h
2450 20-09-2009 10:15:02 17.7 C 12.22 g/m*3 17.7 C 0 km/h
Sensor: Nr:Datum:Temp:Abs-Feuchte:Windchill:Wind:
Aussen-T/F 2451 20-09-2009 10:27:02 18.3 C 12.35 g/m*3 18.3 C 0 km/h
2452 20-09-2009 10:39:01 18.5 C 12.18 g/m*3 18.5 C 0 km/h
2453 20-09-2009 10:51:02 18.8 C 12.24 g/m*3 18.8 C 0 km/h
2454 20-09-2009 11:03:02 18.9 C 12.15 g/m*3 18.9 C 0 km/h
2455 20-09-2009 11:15:02 19.4 C 12.01 g/m*3 19.4 C 0 km/h
2456 20-09-2009 11:27:02 20.2 C 12.06 g/m*3 20.2 C 0 km/h
2457 20-09-2009 11:39:02 20.8 C 11.95 g/m*3 20.8 C 0 km/h
2458 20-09-2009 11:51:02 21.3 C 11.74 g/m*3 21.3 C 0 km/h
2459 20-09-2009 12:03:02 22 C 11.84 g/m*3 22 C 0 km/h
2460 20-09-2009 12:15:01 22 C 11.84 g/m*3 22 C 0 km/h
2461 20-09-2009 12:27:01 22.5 C 12.18 g/m*3 22.5 C 0 km/h
2462 20-09-2009 12:39:02 23.5 C 12.27 g/m*3 23.5 C 0 km/h
2463 20-09-2009 12:51:02 23.8 C 11.83 g/m*3 23.8 C 0 km/h
2464 20-09-2009 13:03:02 24.1 C 11.38 g/m*3 24.1 C 0 km/h
2465 20-09-2009 13:15:02 24.3 C 11.29 g/m*3 24.3 C 0 km/h
2466 20-09-2009 13:27:02 24.6 C 11.25 g/m*3 24.6 C 0 km/h
2467 20-09-2009 13:39:02 25.4 C 11.06 g/m*3 25.4 C 0 km/h
2468 20-09-2009 13:51:02 26.3 C 10.64 g/m*3 26.3 C 0 km/h
2469 20-09-2009 14:03:02 26.4 C 10.21 g/m*3 26.4 C 0 km/h
2470 20-09-2009 14:15:02 25.9 C 10.41 g/m*3 25.9 C 0 km/h
2471 20-09-2009 14:27:02 26.2 C 9.85 g/m*3 26.2 C 0 km/h
2472 20-09-2009 14:39:02 26 C 9.74 g/m*3 26 C 0 km/h
2473 20-09-2009 14:51:02 25.7 C 10.29 g/m*3 25.7 C 0 km/h
2474 20-09-2009 15:03:02 25.5 C 9.94 g/m*3 25.5 C 0 km/h
2475 20-09-2009 15:15:03 25.2 C 10.48 g/m*3 25.2 C 0 km/h
Sensor: Nr:Datum:Temp:Abs-Feuchte:Windchill:Wind:
Aussen-T/F 2476 20-09-2009 15:27:03 26.9 C 9.73 g/m*3 26.9 C 0 km/h
2477 20-09-2009 15:39:02 27.6 C 9.84 g/m*3 27.6 C 0 km/h
2478 20-09-2009 15:51:02 27.3 C 9.16 g/m*3 27.3 C 0 km/h
2479 20-09-2009 16:03:02 27 C 8.75 g/m*3 27 C 0 km/h
2480 20-09-2009 16:15:02 27.4 C 8.95 g/m*3 27.4 C 0 km/h
2481 20-09-2009 16:27:02 27.3 C 8.9 g/m*3 27.3 C 0 km/h
2482 20-09-2009 16:39:02 26.8 C 9.16 g/m*3 26.8 C 0 km/h
2483 20-09-2009 16:51:02 26.7 C 8.61 g/m*3 26.7 C 0 km/h
2484 20-09-2009 17:03:02 26.9 C 8.45 g/m*3 26.9 C 0 km/h
2485 20-09-2009 17:15:02 26.5 C 8.76 g/m*3 26.5 C 0 km/h
2486 20-09-2009 17:27:02 26.1 C 9.06 g/m*3 26.1 C 0 km/h
2487 20-09-2009 17:39:02 26.4 C 9.21 g/m*3 26.4 C 0 km/h
2488 20-09-2009 17:51:02 25.8 C 9.15 g/m*3 25.8 C 0 km/h
2489 20-09-2009 18:03:01 24.7 C 9.51 g/m*3 24.7 C 0 km/h
2490 20-09-2009 18:15:02 24 C 9.57 g/m*3 24 C 0 km/h
2491 20-09-2009 18:27:02 23.7 C 9.84 g/m*3 23.7 C 0 km/h
2492 20-09-2009 18:39:01 23.7 C 10.48 g/m*3 23.7 C 0 km/h
2493 20-09-2009 18:51:02 23.3 C 10.45 g/m*3 23.3 C 0 km/h
2494 20-09-2009 19:03:01 22.7 C 10.71 g/m*3 22.7 C 0 km/h
2495 20-09-2009 19:15:01 22.1 C 10.74 g/m*3 22.1 C 0 km/h
2496 20-09-2009 19:27:01 21.7 C 11.06 g/m*3 21.7 C 0 km/h
2497 20-09-2009 19:39:02 21.2 C 11.12 g/m*3 21.2 C 0 km/h
2498 20-09-2009 19:51:02 20.9 C 10.93 g/m*3 20.9 C 0 km/h
2499 20-09-2009 20:03:02 20.7 C 10.98 g/m*3 20.7 C 0 km/h
2500 20-09-2009 20:15:02 20.4 C 10.97 g/m*3 20.4 C 0 km/h
Sensor: Nr:Datum:Temp:Abs-Feuchte:Windchill:Wind:
Aussen-T/F 2501 20-09-2009 20:27:02 20.1 C 10.95 g/m*3 20.1 C 0 km/h
2502 20-09-2009 20:39:02 19.9 C 11.34 g/m*3 19.9 C 0 km/h
2503 20-09-2009 20:51:01 19.9 C 11.34 g/m*3 19.9 C 0 km/h
2504 20-09-2009 21:03:02 20 C 11.23 g/m*3 20 C 0 km/h
2505 20-09-2009 21:15:01 20.1 C 11.3 g/m*3 20.1 C 0 km/h
2506 20-09-2009 21:27:01 19.7 C 11.55 g/m*3 19.7 C 0 km/h
2507 20-09-2009 21:39:02 19.3 C 11.44 g/m*3 19.3 C 0 km/h
2508 20-09-2009 21:51:02 19.1 C 11.31 g/m*3 19.1 C 0 km/h
2509 20-09-2009 22:03:01 18.8 C 11.6 g/m*3 18.8 C 0 km/h
2510 20-09-2009 22:15:02 18.5 C 11.55 g/m*3 18.5 C 0 km/h
2511 20-09-2009 22:27:02 18.5 C 11.55 g/m*3 18.5 C 0 km/h
2512 20-09-2009 22:39:02 18.4 C 11.48 g/m*3 18.4 C 0 km/h
2513 20-09-2009 22:51:01 18.5 C 11.71 g/m*3 18.5 C 0 km/h
2514 20-09-2009 23:03:02 18.7 C 11.85 g/m*3 18.7 C 0 km/h
2515 20-09-2009 23:15:01 18.9 C 11.83 g/m*3 18.9 C 0 km/h
2516 20-09-2009 23:27:01 19 C 11.73 g/m*3 19 C 0 km/h
2517 20-09-2009 23:39:02 19 C 11.73 g/m*3 19 C 0 km/h
2518 20-09-2009 23:51:02 19.1 C 11.97 g/m*3 19.1 C 0 km/h
2519 21-09-2009 00:03:02 18.7 C 11.85 g/m*3 18.7 C 0 km/h
2520 21-09-2009 00:15:02 18.5 C 12.02 g/m*3 18.5 C 0 km/h
2521 21-09-2009 00:27:02 18.3 C 12.04 g/m*3 18.3 C 0 km/h
2522 21-09-2009 00:39:02 18.1 C 12.05 g/m*3 18.1 C 0 km/h
2523 21-09-2009 00:51:01 18 C 12.13 g/m*3 18 C 0 km/h
2524 21-09-2009 01:03:02 17.8 C 12.14 g/m*3 17.8 C 0 km/h
2525 21-09-2009 01:15:02 17.8 C 12.29 g/m*3 17.8 C 0 km/h
Sensor: Nr:Datum:Temp:Abs-Feuchte:Windchill:Wind:
Aussen-T/F 2526 21-09-2009 01:27:02 17.7 C 12.22 g/m*3 17.7 C 0 km/h
2527 21-09-2009 01:39:01 17.6 C 12.3 g/m*3 17.6 C 0 km/h
2528 21-09-2009 01:51:02 17.5 C 12.23 g/m*3 17.5 C 0 km/h
2529 21-09-2009 02:03:01 17.5 C 12.23 g/m*3 17.5 C 0 km/h
2530 21-09-2009 02:15:02 17.5 C 12.23 g/m*3 17.5 C 0 km/h
2531 21-09-2009 02:27:02 17.5 C 12.23 g/m*3 17.5 C 0 km/h
2532 21-09-2009 02:39:01 17.4 C 12.15 g/m*3 17.4 C 0 km/h
2533 21-09-2009 02:52:04 17.5 C 12.37 g/m*3 17.5 C 0 km/h
2534 21-09-2009 03:04:04 17.5 C 12.37 g/m*3 17.5 C 0 km/h
2535 21-09-2009 03:16:03 17.6 C 12.3 g/m*3 17.6 C 0 km/h
2536 21-09-2009 03:28:03 17.7 C 12.37 g/m*3 17.7 C 0 km/h
2537 21-09-2009 03:40:01 17.8 C 12.29 g/m*3 17.8 C 0 km/h
2538 21-09-2009 03:52:01 17.9 C 12.37 g/m*3 17.9 C 0 km/h
2539 21-09-2009 04:04:01 17.9 C 12.21 g/m*3 17.9 C 0 km/h
2540 21-09-2009 04:16:02 17.9 C 12.21 g/m*3 17.9 C 0 km/h
2541 21-09-2009 04:28:02 17.9 C 12.21 g/m*3 17.9 C 0 km/h
2542 21-09-2009 04:40:01 17.9 C 12.21 g/m*3 17.9 C 0 km/h
2543 21-09-2009 04:52:03 17.7 C 12.22 g/m*3 17.7 C 0 km/h
2544 21-09-2009 05:04:02 17.7 C 12.07 g/m*3 17.7 C 0 km/h
2545 21-09-2009 05:16:02 17.7 C 12.07 g/m*3 17.7 C 0 km/h
2546 21-09-2009 05:28:02 17.6 C 12 g/m*3 17.6 C 0 km/h
2547 21-09-2009 05:40:02 17.5 C 11.93 g/m*3 17.5 C 0 km/h
2548 21-09-2009 05:52:02 17.4 C 11.86 g/m*3 17.4 C 0 km/h
2549 21-09-2009 06:04:02 17.4 C 11.86 g/m*3 17.4 C 0 km/h
2550 21-09-2009 06:16:02 17.4 C 11.86 g/m*3 17.4 C 0 km/h
Sensor: Nr:Datum:Temp:Abs-Feuchte:Windchill:Wind:
Aussen-T/F 2551 21-09-2009 06:28:03 17.5 C 11.78 g/m*3 17.5 C 0 km/h
2552 21-09-2009 06:40:01 17.3 C 11.79 g/m*3 17.3 C 0 km/h
2553 21-09-2009 06:52:02 17.5 C 11.93 g/m*3 17.5 C 0 km/h
2554 21-09-2009 07:04:01 17.3 C 11.64 g/m*3 17.3 C 0 km/h
2555 21-09-2009 07:16:01 17.4 C 11.71 g/m*3 17.4 C 0 km/h
2556 21-09-2009 07:28:01 17.3 C 11.79 g/m*3 17.3 C 0 km/h
2557 21-09-2009 07:40:02 17.4 C 11.86 g/m*3 17.4 C 0 km/h
2558 21-09-2009 07:52:02 17.3 C 11.79 g/m*3 17.3 C 0 km/h
2559 21-09-2009 08:04:02 17.4 C 11.71 g/m*3 17.4 C 0 km/h
2560 21-09-2009 08:16:02 17.2 C 11.57 g/m*3 17.2 C 0 km/h
2561 21-09-2009 08:28:02 16.9 C 11.65 g/m*3 16.9 C 0 km/h
2562 21-09-2009 08:40:02 16.8 C 11.58 g/m*3 16.8 C 0 km/h
2563 21-09-2009 08:52:02 17 C 11.58 g/m*3 17 C 0 km/h
2564 21-09-2009 09:04:03 17.3 C 11.64 g/m*3 17.3 C 0 km/h
2565 21-09-2009 09:16:02 17.1 C 11.35 g/m*3 17.1 C 0 km/h
2566 21-09-2009 09:28:02 17.1 C 11.35 g/m*3 17.1 C 0 km/h
2567 21-09-2009 09:40:02 17 C 11.29 g/m*3 17 C 0 km/h
2568 21-09-2009 09:52:01 17.1 C 11.35 g/m*3 17.1 C 0 km/h
2569 21-09-2009 10:04:02 17.7 C 11.16 g/m*3 17.7 C 0 km/h
2570 21-09-2009 10:16:01 18.5 C 11.39 g/m*3 18.5 C 0 km/h
2571 21-09-2009 10:28:01 19.5 C 11.08 g/m*3 19.5 C 0 km/h
2572 21-09-2009 10:40:01 19.8 C 10.93 g/m*3 19.8 C 0 km/h
2573 21-09-2009 10:52:01 20.3 C 10.9 g/m*3 20.3 C 0 km/h
2574 21-09-2009 11:04:02 20 C 10.37 g/m*3 20 C 0 km/h
2575 21-09-2009 11:16:01 19.7 C 10.36 g/m*3 19.7 C 0 km/h
Sensor: Nr:Datum:Temp:Abs-Feuchte:Windchill:Wind:
Aussen-T/F 2576 21-09-2009 11:28:01 19.6 C 10.47 g/m*3 19.6 C 0 km/h
2577 21-09-2009 11:40:01 19.6 C 10.47 g/m*3 19.6 C 0 km/h
2578 21-09-2009 11:52:01 19.3 C 10.28 g/m*3 19.3 C 0 km/h
2579 21-09-2009 12:04:02 19.2 C 10.39 g/m*3 19.2 C 0 km/h
2580 21-09-2009 12:16:01 19.7 C 10.53 g/m*3 19.7 C 0 km/h
2581 21-09-2009 12:28:01 21.2 C 10.56 g/m*3 21.2 C 0 km/h
2582 21-09-2009 12:40:01 21.6 C 10.43 g/m*3 21.6 C 0 km/h
2583 21-09-2009 12:52:01 21.2 C 10.19 g/m*3 21.2 C 0 km/h
2584 21-09-2009 13:04:02 21.3 C 10.07 g/m*3 21.3 C 0 km/h
2585 21-09-2009 13:16:02 20.8 C 10.14 g/m*3 20.8 C 0 km/h
2586 21-09-2009 13:28:02 20.8 C 9.96 g/m*3 20.8 C 0 km/h
2587 21-09-2009 13:40:01 20.5 C 9.79 g/m*3 20.5 C 0 km/h
2588 21-09-2009 13:52:01 20.1 C 9.56 g/m*3 20.1 C 0 km/h
2589 21-09-2009 14:04:01 20.5 C 9.61 g/m*3 20.5 C 0 km/h
2590 21-09-2009 14:16:02 20.4 C 9.2 g/m*3 20.4 C 0 km/h
2591 21-09-2009 14:28:02 20.6 C 9.31 g/m*3 20.6 C 0 km/h
2592 21-09-2009 14:40:01 21.3 C 9.32 g/m*3 21.3 C 0 km/h
2593 21-09-2009 14:52:01 22.3 C 9.48 g/m*3 22.3 C 0 km/h
2594 21-09-2009 15:04:01 22.8 C 9.14 g/m*3 22.8 C 0 km/h
2595 21-09-2009 15:16:02 23.4 C 9.25 g/m*3 23.4 C 0 km/h
2596 21-09-2009 15:28:02 23.8 C 9.03 g/m*3 23.8 C 0 km/h
2597 21-09-2009 15:40:01 23.6 C 8.93 g/m*3 23.6 C 0 km/h
2598 21-09-2009 15:52:01 24 C 8.92 g/m*3 24 C 0 km/h
2599 21-09-2009 16:04:01 24.5 C 8.95 g/m*3 24.5 C 0 km/h
2600 21-09-2009 16:16:02 25 C 8.52 g/m*3 25 C 0 km/h
Sensor: Nr:Datum:Temp:Abs-Feuchte:Windchill:Wind:
Aussen-T/F 2601 21-09-2009 16:28:02 24.5 C 8.5 g/m*3 24.5 C 0 km/h
2602 21-09-2009 16:40:01 22.8 C 8.74 g/m*3 22.8 C 0 km/h
2603 21-09-2009 16:52:03 22.7 C 8.89 g/m*3 22.7 C 0 km/h
2604 21-09-2009 17:04:02 22.4 C 9.14 g/m*3 22.4 C 0 km/h
2605 21-09-2009 17:16:02 22.6 C 8.84 g/m*3 22.6 C 0 km/h
2606 21-09-2009 17:28:02 22.7 C 8.89 g/m*3 22.7 C 0 km/h
2607 21-09-2009 17:40:02 22.8 C 8.53 g/m*3 22.8 C 0 km/h
2608 21-09-2009 17:52:02 22.5 C 8.39 g/m*3 22.5 C 0 km/h
2609 21-09-2009 18:04:02 22.5 C 8.59 g/m*3 22.5 C 0 km/h
2610 21-09-2009 18:16:02 21.8 C 8.44 g/m*3 21.8 C 0 km/h
2611 21-09-2009 18:28:03 21.2 C 8.52 g/m*3 21.2 C 0 km/h
2612 21-09-2009 18:40:01 21 C 8.61 g/m*3 21 C 0 km/h
2613 21-09-2009 18:52:02 20.8 C 8.69 g/m*3 20.8 C 0 km/h
2614 21-09-2009 19:04:01 20.4 C 8.67 g/m*3 20.4 C 0 km/h
2615 21-09-2009 19:16:02 20 C 8.99 g/m*3 20 C 0 km/h
2616 21-09-2009 19:28:02 19.4 C 9.34 g/m*3 19.4 C 0 km/h
2617 21-09-2009 19:40:02 19.1 C 9.18 g/m*3 19.1 C 0 km/h
2618 21-09-2009 19:52:02 18.5 C 9.33 g/m*3 18.5 C 0 km/h
2619 21-09-2009 20:04:02 18.3 C 9.38 g/m*3 18.3 C 0 km/h
2620 21-09-2009 20:16:02 18 C 9.22 g/m*3 18 C 0 km/h
2621 21-09-2009 20:28:02 17.8 C 9.11 g/m*3 17.8 C 0 km/h
2622 21-09-2009 20:40:03 17.5 C 9.24 g/m*3 17.5 C 0 km/h
2623 21-09-2009 20:52:02 17.2 C 9.23 g/m*3 17.2 C 0 km/h
2624 21-09-2009 21:05:02 17 C 9.26 g/m*3 17 C 0 km/h
2625 21-09-2009 21:17:02 16.8 C 9.44 g/m*3 16.8 C 0 km/h
Sensor: Nr:Datum:Temp:Abs-Feuchte:Windchill:Wind:
Aussen-T/F 2626 21-09-2009 21:29:02 16.7 C 9.52 g/m*3 16.7 C 0 km/h
2627 21-09-2009 21:41:02 16.5 C 9.55 g/m*3 16.5 C 0 km/h
2628 21-09-2009 21:53:02 16.2 C 9.65 g/m*3 16.2 C 0 km/h
2629 21-09-2009 22:05:02 16.1 C 9.6 g/m*3 16.1 C 0 km/h
2630 21-09-2009 22:17:02 15.9 C 9.75 g/m*3 15.9 C 0 km/h
2631 21-09-2009 22:29:02 15.7 C 9.77 g/m*3 15.7 C 0 km/h
2632 21-09-2009 22:41:02 15.5 C 9.65 g/m*3 15.5 C 0 km/h
2633 21-09-2009 22:53:02 15.4 C 9.72 g/m*3 15.4 C 0 km/h
2634 21-09-2009 23:05:02 15.2 C 9.61 g/m*3 15.2 C 0 km/h
2635 21-09-2009 23:17:02 15.1 C 9.55 g/m*3 15.1 C 0 km/h
2636 21-09-2009 23:29:02 14.8 C 9.75 g/m*3 14.8 C 0 km/h
2637 21-09-2009 23:41:02 14.7 C 9.69 g/m*3 14.7 C 0 km/h
2638 21-09-2009 23:53:02 14.5 C 9.7 g/m*3 14.5 C 0 km/h
2639 22-09-2009 00:05:03 14.5 C 9.7 g/m*3 14.5 C 0 km/h
2640 22-09-2009 00:17:03 14.2 C 9.52 g/m*3 14.2 C 0 km/h
2641 22-09-2009 00:29:03 14 C 9.53 g/m*3 14 C 0 km/h
2642 22-09-2009 00:41:03 14 C 9.41 g/m*3 14 C 0 km/h
2643 22-09-2009 00:53:03 13.9 C 9.47 g/m*3 13.9 C 0 km/h
2644 22-09-2009 01:05:03 13.8 C 9.53 g/m*3 13.8 C 0 km/h
2645 22-09-2009 01:17:03 13.7 C 9.71 g/m*3 13.7 C 0 km/h
2646 22-09-2009 01:29:03 13.5 C 9.59 g/m*3 13.5 C 0 km/h
2647 22-09-2009 01:41:03 13.4 C 9.53 g/m*3 13.4 C 0 km/h
2648 22-09-2009 01:53:03 13.3 C 9.59 g/m*3 13.3 C 0 km/h
2649 22-09-2009 02:05:03 13.1 C 9.47 g/m*3 13.1 C 0 km/h
2650 22-09-2009 02:17:03 13.1 C 9.47 g/m*3 13.1 C 0 km/h
Sensor: Nr:Datum:Temp:Abs-Feuchte:Windchill:Wind:
Aussen-T/F 2651 22-09-2009 02:29:03 13 C 9.41 g/m*3 13 C 0 km/h
2652 22-09-2009 02:41:03 12.8 C 9.52 g/m*3 12.8 C 0 km/h
2653 22-09-2009 02:53:03 12.7 C 9.35 g/m*3 12.7 C 0 km/h
2654 22-09-2009 03:05:03 12.6 C 9.4 g/m*3 12.6 C 0 km/h
2655 22-09-2009 03:17:03 12.4 C 9.29 g/m*3 12.4 C 0 km/h
2656 22-09-2009 03:29:03 12.4 C 9.29 g/m*3 12.4 C 0 km/h
2657 22-09-2009 03:41:03 12.3 C 9.34 g/m*3 12.3 C 0 km/h
2658 22-09-2009 03:53:04 12.2 C 9.28 g/m*3 12.2 C 0 km/h
2659 22-09-2009 04:05:04 12.1 C 9.22 g/m*3 12.1 C 0 km/h
2660 22-09-2009 04:17:04 12.1 C 9.22 g/m*3 12.1 C 0 km/h
2661 22-09-2009 04:29:04 11.8 C 9.05 g/m*3 11.8 C 0 km/h
2662 22-09-2009 04:41:04 11.7 C 9.1 g/m*3 11.7 C 0 km/h
2663 22-09-2009 04:53:04 11.6 C 9.04 g/m*3 11.6 C 0 km/h
2664 22-09-2009 05:05:04 11.6 C 9.15 g/m*3 11.6 C 0 km/h
2665 22-09-2009 05:17:04 11.6 C 9.25 g/m*3 11.6 C 0 km/h
2666 22-09-2009 05:29:04 11.6 C 9.25 g/m*3 11.6 C 0 km/h
2667 22-09-2009 05:41:04 11.7 C 9.2 g/m*3 11.7 C 0 km/h
2668 22-09-2009 05:53:04 11.6 C 9.15 g/m*3 11.6 C 0 km/h
2669 22-09-2009 06:05:04 11.5 C 9.09 g/m*3 11.5 C 0 km/h
2670 22-09-2009 06:17:02 11.4 C 9.03 g/m*3 11.4 C 0 km/h
2671 22-09-2009 06:29:02 11.2 C 8.92 g/m*3 11.2 C 0 km/h
2672 22-09-2009 06:41:02 11.1 C 8.86 g/m*3 11.1 C 0 km/h
2673 22-09-2009 06:53:01 11.1 C 8.86 g/m*3 11.1 C 0 km/h
2674 22-09-2009 07:05:02 11.2 C 8.92 g/m*3 11.2 C 0 km/h
2675 22-09-2009 07:17:01 11.4 C 9.03 g/m*3 11.4 C 0 km/h
Sensor: Nr:Datum:Temp:Abs-Feuchte:Windchill:Wind:
Aussen-T/F 2676 22-09-2009 07:29:01 11.4 C 9.03 g/m*3 11.4 C 0 km/h
2677 22-09-2009 07:41:02 11.2 C 8.92 g/m*3 11.2 C 0 km/h
2678 22-09-2009 07:53:01 11.4 C 9.03 g/m*3 11.4 C 0 km/h
2679 22-09-2009 08:05:02 11.3 C 8.87 g/m*3 11.3 C 0 km/h
2680 22-09-2009 08:17:01 11.1 C 8.76 g/m*3 11.1 C 0 km/h
2681 22-09-2009 08:29:01 10.9 C 8.75 g/m*3 10.9 C 0 km/h
2682 22-09-2009 08:41:02 11.1 C 8.86 g/m*3 11.1 C 0 km/h
2683 22-09-2009 08:53:01 11.2 C 8.92 g/m*3 11.2 C 0 km/h
2684 22-09-2009 09:05:02 11.5 C 8.99 g/m*3 11.5 C 0 km/h
2685 22-09-2009 09:17:01 11.6 C 9.04 g/m*3 11.6 C 0 km/h
2686 22-09-2009 09:29:01 11.7 C 9.1 g/m*3 11.7 C 0 km/h
2687 22-09-2009 09:41:02 12 C 9.17 g/m*3 12 C 0 km/h
2688 22-09-2009 09:53:02 12.1 C 9.01 g/m*3 12.1 C 0 km/h
2689 22-09-2009 10:05:02 12.8 C 9.41 g/m*3 12.8 C 0 km/h
2690 22-09-2009 10:17:02 13 C 9.07 g/m*3 13 C 0 km/h
2691 22-09-2009 10:29:02 13 C 8.96 g/m*3 13 C 0 km/h
2692 22-09-2009 10:41:02 13.2 C 9.19 g/m*3 13.2 C 0 km/h
2693 22-09-2009 10:53:01 13.5 C 9.36 g/m*3 13.5 C 0 km/h
2694 22-09-2009 11:05:02 14 C 9.53 g/m*3 14 C 0 km/h
2695 22-09-2009 11:17:02 14.4 C 9.52 g/m*3 14.4 C 0 km/h
2696 22-09-2009 11:29:02 14.9 C 9.69 g/m*3 14.9 C 0 km/h
2697 22-09-2009 11:41:02 15.6 C 9.71 g/m*3 15.6 C 0 km/h
2698 22-09-2009 11:53:02 16.4 C 10.05 g/m*3 16.4 C 0 km/h
2699 22-09-2009 12:05:02 17.2 C 10.4 g/m*3 17.2 C 0 km/h
2700 22-09-2009 12:17:02 17.8 C 10.02 g/m*3 17.8 C 0 km/h
Sensor: Nr:Datum:Temp:Abs-Feuchte:Windchill:Wind:
Aussen-T/F 2701 22-09-2009 12:29:02 18.5 C 9.81 g/m*3 18.5 C 0 km/h
2702 22-09-2009 12:41:02 18.9 C 9.56 g/m*3 18.9 C 0 km/h
2703 22-09-2009 12:53:02 19.6 C 9.79 g/m*3 19.6 C 0 km/h
2704 22-09-2009 13:05:02 20 C 9.68 g/m*3 20 C 0 km/h
2705 22-09-2009 13:17:02 20.5 C 9.25 g/m*3 20.5 C 0 km/h
2706 22-09-2009 13:29:02 21 C 9.34 g/m*3 21 C 0 km/h
2707 22-09-2009 13:41:01 21.7 C 8.77 g/m*3 21.7 C 0 km/h
2708 22-09-2009 13:53:02 22.2 C 8.05 g/m*3 22.2 C 0 km/h
2709 22-09-2009 14:05:01 23.1 C 8.48 g/m*3 23.1 C 0 km/h
2710 22-09-2009 14:17:02 23.7 C 7.91 g/m*3 23.7 C 0 km/h
2711 22-09-2009 14:29:02 24.3 C 8.41 g/m*3 24.3 C 0 km/h
2712 22-09-2009 14:41:01 24.7 C 8.15 g/m*3 24.7 C 0 km/h
2713 22-09-2009 14:53:02 24.7 C 7.47 g/m*3 24.7 C 0 km/h
2714 22-09-2009 15:05:02 25.4 C 7.77 g/m*3 25.4 C 0 km/h
2715 22-09-2009 15:17:02 26.1 C 7.59 g/m*3 26.1 C 0 km/h
2716 22-09-2009 15:29:02 26.4 C 7.97 g/m*3 26.4 C 0 km/h
2717 22-09-2009 15:41:03 27.1 C 7.76 g/m*3 27.1 C 0 km/h
2718 22-09-2009 15:53:02 27.8 C 7.8 g/m*3 27.8 C 0 km/h
2719 22-09-2009 16:05:01 28.2 C 7.7 g/m*3 28.2 C 0 km/h
2720 22-09-2009 16:17:02 29.1 C 7.22 g/m*3 29.1 C 0 km/h
2721 22-09-2009 16:29:02 29.2 C 7.26 g/m*3 29.2 C 0 km/h
2722 22-09-2009 16:41:02 28 C 8.16 g/m*3 28 C 0 km/h
2723 22-09-2009 16:53:02 26 C 8.52 g/m*3 26 C 0 km/h
2724 22-09-2009 17:05:03 27 C 8.49 g/m*3 27 C 0 km/h
2725 22-09-2009 17:17:02 27.7 C 8.29 g/m*3 27.7 C 0 km/h
Sensor: Nr:Datum:Temp:Abs-Feuchte:Windchill:Wind:
Aussen-T/F 2726 22-09-2009 17:29:02 27.6 C 8.51 g/m*3 27.6 C 0 km/h
2727 22-09-2009 17:41:03 27.5 C 8.47 g/m*3 27.5 C 0 km/h
2728 22-09-2009 17:53:02 27.5 C 8.47 g/m*3 27.5 C 0 km/h
2729 22-09-2009 18:05:02 26.7 C 8.61 g/m*3 26.7 C 0 km/h
2730 22-09-2009 18:17:02 26.2 C 8.37 g/m*3 26.2 C 0 km/h
2731 22-09-2009 18:29:02 25.6 C 8.57 g/m*3 25.6 C 0 km/h
2732 22-09-2009 18:41:02 24.9 C 8.7 g/m*3 24.9 C 0 km/h
2733 22-09-2009 18:53:02 24.4 C 8.23 g/m*3 24.4 C 0 km/h
2734 22-09-2009 19:05:02 23.5 C 8.04 g/m*3 23.5 C 0 km/h
2735 22-09-2009 19:17:02 22.5 C 7.99 g/m*3 22.5 C 0 km/h
2736 22-09-2009 19:29:02 21.5 C 8.3 g/m*3 21.5 C 0 km/h
2737 22-09-2009 19:41:02 20.7 C 8.46 g/m*3 20.7 C 0 km/h
2738 22-09-2009 19:53:01 20 C 8.47 g/m*3 20 C 0 km/h
2739 22-09-2009 20:05:02 19.7 C 8.66 g/m*3 19.7 C 0 km/h
2740 22-09-2009 20:17:01 19.2 C 8.24 g/m*3 19.2 C 0 km/h
2741 22-09-2009 20:29:01 19.1 C 8.03 g/m*3 19.1 C 0 km/h
2742 22-09-2009 20:41:02 19 C 8.15 g/m*3 19 C 0 km/h
2743 22-09-2009 20:53:02 18.8 C 8.05 g/m*3 18.8 C 0 km/h
2744 22-09-2009 21:05:02 18.8 C 7.89 g/m*3 18.8 C 0 km/h
2745 22-09-2009 21:17:02 18.7 C 7.84 g/m*3 18.7 C 0 km/h
2746 22-09-2009 21:29:02 18.3 C 7.97 g/m*3 18.3 C 0 km/h
2747 22-09-2009 21:41:02 18.1 C 8.03 g/m*3 18.1 C 0 km/h
2748 22-09-2009 21:53:01 17.8 C 8.2 g/m*3 17.8 C 0 km/h
2749 22-09-2009 22:05:02 17.4 C 8.45 g/m*3 17.4 C 0 km/h
2750 22-09-2009 22:18:03 17.2 C 8.49 g/m*3 17.2 C 0 km/h
Sensor: Nr:Datum:Temp:Abs-Feuchte:Windchill:Wind:
Aussen-T/F 2751 22-09-2009 22:30:03 17 C 8.39 g/m*3 17 C 0 km/h
2752 22-09-2009 22:42:03 16.4 C 9.07 g/m*3 16.4 C 0 km/h
2753 22-09-2009 22:54:03 16.3 C 9.02 g/m*3 16.3 C 0 km/h
2754 22-09-2009 23:06:03 16.1 C 8.91 g/m*3 16.1 C 0 km/h
2755 22-09-2009 23:18:03 16 C 8.99 g/m*3 16 C 0 km/h
2756 22-09-2009 23:30:03 15.9 C 9.07 g/m*3 15.9 C 0 km/h
2757 22-09-2009 23:42:03 15.6 C 9.04 g/m*3 15.6 C 0 km/h
2758 22-09-2009 23:54:03 15.4 C 9.2 g/m*3 15.4 C 0 km/h
2759 23-09-2009 00:06:03 15.1 C 9.16 g/m*3 15.1 C 0 km/h
2760 23-09-2009 00:18:03 14.8 C 9.25 g/m*3 14.8 C 0 km/h
2761 23-09-2009 00:30:03 14.7 C 9.32 g/m*3 14.7 C 0 km/h
2762 23-09-2009 00:42:03 14.6 C 9.26 g/m*3 14.6 C 0 km/h
2763 23-09-2009 00:54:03 14.4 C 9.27 g/m*3 14.4 C 0 km/h
2764 23-09-2009 01:06:03 14.4 C 9.27 g/m*3 14.4 C 0 km/h
2765 23-09-2009 01:18:03 14.2 C 9.28 g/m*3 14.2 C 0 km/h
2766 23-09-2009 01:30:03 14.4 C 9.27 g/m*3 14.4 C 0 km/h
2767 23-09-2009 01:42:03 14.1 C 9.1 g/m*3 14.1 C 0 km/h
2768 23-09-2009 01:54:03 14 C 9.05 g/m*3 14 C 0 km/h
2769 23-09-2009 02:06:04 13.8 C 9.06 g/m*3 13.8 C 0 km/h
2770 23-09-2009 02:18:04 13.7 C 9.12 g/m*3 13.7 C 0 km/h
2771 23-09-2009 02:30:04 13.4 C 8.95 g/m*3 13.4 C 0 km/h
2772 23-09-2009 02:42:04 13.3 C 9.01 g/m*3 13.3 C 0 km/h
2773 23-09-2009 02:54:04 13.2 C 9.07 g/m*3 13.2 C 0 km/h
2774 23-09-2009 03:06:04 13.1 C 9.01 g/m*3 13.1 C 0 km/h
2775 23-09-2009 03:18:04 12.9 C 9.13 g/m*3 12.9 C 0 km/h
Sensor: Nr:Datum:Temp:Abs-Feuchte:Windchill:Wind:
Aussen-T/F 2776 23-09-2009 03:30:04 12.9 C 9.13 g/m*3 12.9 C 0 km/h
2777 23-09-2009 03:42:04 12.8 C 9.18 g/m*3 12.8 C 0 km/h
2778 23-09-2009 03:54:04 12.7 C 9.13 g/m*3 12.7 C 0 km/h
2779 23-09-2009 04:06:04 12.6 C 9.07 g/m*3 12.6 C 0 km/h
2780 23-09-2009 04:18:04 12.5 C 9.13 g/m*3 12.5 C 0 km/h
2781 23-09-2009 04:30:04 12.4 C 9.18 g/m*3 12.4 C 0 km/h
2782 23-09-2009 04:42:04 12.3 C 9.12 g/m*3 12.3 C 0 km/h
2783 23-09-2009 04:54:04 12.3 C 9.12 g/m*3 12.3 C 0 km/h
2784 23-09-2009 05:06:04 12.1 C 9.01 g/m*3 12.1 C 0 km/h
2785 23-09-2009 05:18:04 12.1 C 9.01 g/m*3 12.1 C 0 km/h
2786 23-09-2009 05:30:04 11.9 C 8.9 g/m*3 11.9 C 0 km/h
2787 23-09-2009 05:42:04 11.8 C 8.84 g/m*3 11.8 C 0 km/h
2788 23-09-2009 05:54:04 11.8 C 8.84 g/m*3 11.8 C 0 km/h
2789 23-09-2009 06:06:05 11.6 C 8.83 g/m*3 11.6 C 0 km/h
2790 23-09-2009 06:18:05 11.5 C 8.78 g/m*3 11.5 C 0 km/h
2791 23-09-2009 06:30:05 11.3 C 8.67 g/m*3 11.3 C 0 km/h
2792 23-09-2009 06:42:05 11.2 C 8.72 g/m*3 11.2 C 0 km/h
2793 23-09-2009 06:54:05 11.1 C 8.66 g/m*3 11.1 C 0 km/h
2794 23-09-2009 07:06:03 11.1 C 8.66 g/m*3 11.1 C 0 km/h
2795 23-09-2009 07:18:03 10.9 C 8.65 g/m*3 10.9 C 0 km/h
2796 23-09-2009 07:30:03 10.9 C 8.65 g/m*3 10.9 C 0 km/h
2797 23-09-2009 07:42:04 11 C 8.71 g/m*3 11 C 0 km/h
2798 23-09-2009 07:54:02 10.9 C 8.75 g/m*3 10.9 C 0 km/h
2799 23-09-2009 08:06:02 10.9 C 8.85 g/m*3 10.9 C 0 km/h
2800 23-09-2009 08:18:02 11 C 8.81 g/m*3 11 C 0 km/h
Sensor: Nr:Datum:Temp:Abs-Feuchte:Windchill:Wind:
Aussen-T/F 2801 23-09-2009 08:30:02 11 C 8.81 g/m*3 11 C 0 km/h
2802 23-09-2009 08:42:02 11.1 C 8.86 g/m*3 11.1 C 0 km/h
2803 23-09-2009 08:54:02 11.3 C 8.98 g/m*3 11.3 C 0 km/h
2804 23-09-2009 09:06:02 11.4 C 9.14 g/m*3 11.4 C 0 km/h
2805 23-09-2009 09:18:01 11.5 C 9.19 g/m*3 11.5 C 0 km/h
2806 23-09-2009 09:30:01 11.7 C 9.31 g/m*3 11.7 C 0 km/h
2807 23-09-2009 09:42:02 12.3 C 9.66 g/m*3 12.3 C 0 km/h
2808 23-09-2009 09:54:02 12.9 C 9.92 g/m*3 12.9 C 0 km/h
2809 23-09-2009 10:06:02 13.5 C 9.94 g/m*3 13.5 C 0 km/h
2810 23-09-2009 10:18:02 14.3 C 9.83 g/m*3 14.3 C 0 km/h
2811 23-09-2009 10:30:02 14.8 C 9.75 g/m*3 14.8 C 0 km/h
2812 23-09-2009 10:42:02 15.2 C 9.48 g/m*3 15.2 C 0 km/h
2813 23-09-2009 10:54:02 15.6 C 9.58 g/m*3 15.6 C 0 km/h
2814 23-09-2009 11:06:02 15.9 C 9.48 g/m*3 15.9 C 0 km/h
2815 23-09-2009 11:18:02 16.6 C 9.32 g/m*3 16.6 C 0 km/h
2816 23-09-2009 11:30:02 17.2 C 9.23 g/m*3 17.2 C 0 km/h
2817 23-09-2009 11:42:02 17.8 C 9.26 g/m*3 17.8 C 0 km/h
2818 23-09-2009 11:54:01 18.3 C 9.22 g/m*3 18.3 C 0 km/h
2819 23-09-2009 12:06:02 19.1 C 9.34 g/m*3 19.1 C 0 km/h
2820 23-09-2009 12:18:01 19.5 C 9.4 g/m*3 19.5 C 0 km/h
2821 23-09-2009 12:30:01 19.6 C 8.95 g/m*3 19.6 C 0 km/h
2822 23-09-2009 12:42:01 19.4 C 8.84 g/m*3 19.4 C 0 km/h
2823 23-09-2009 12:54:01 19.5 C 9.23 g/m*3 19.5 C 0 km/h
2824 23-09-2009 13:06:02 20.4 C 9.2 g/m*3 20.4 C 0 km/h
2825 23-09-2009 13:18:01 21 C 9.16 g/m*3 21 C 0 km/h
Sensor: Nr:Datum:Temp:Abs-Feuchte:Windchill:Wind:
Aussen-T/F 2826 23-09-2009 13:30:01 21.6 C 9.1 g/m*3 21.6 C 0 km/h
2827 23-09-2009 13:42:01 22.1 C 8.98 g/m*3 22.1 C 0 km/h
2828 23-09-2009 13:54:01 22.5 C 8.99 g/m*3 22.5 C 0 km/h
2829 23-09-2009 14:06:02 22.7 C 8.69 g/m*3 22.7 C 0 km/h
2830 23-09-2009 14:18:02 23.5 C 8.88 g/m*3 23.5 C 0 km/h
2831 23-09-2009 14:30:02 24.1 C 8.53 g/m*3 24.1 C 0 km/h
2832 23-09-2009 14:42:01 24.3 C 8.63 g/m*3 24.3 C 0 km/h
2833 23-09-2009 14:54:01 24.7 C 8.6 g/m*3 24.7 C 0 km/h
2834 23-09-2009 15:06:02 25.6 C 8.33 g/m*3 25.6 C 0 km/h
2835 23-09-2009 15:18:01 26.1 C 8.32 g/m*3 26.1 C 0 km/h
2836 23-09-2009 15:30:01 26.1 C 8.57 g/m*3 26.1 C 0 km/h
2837 23-09-2009 15:42:02 26.6 C 8.31 g/m*3 26.6 C 0 km/h
2838 23-09-2009 15:54:02 26.6 C 8.56 g/m*3 26.6 C 0 km/h
2839 23-09-2009 16:06:02 27.1 C 8.02 g/m*3 27.1 C 0 km/h
2840 23-09-2009 16:18:02 26.8 C 8.14 g/m*3 26.8 C 0 km/h
2841 23-09-2009 16:30:02 26.1 C 8.57 g/m*3 26.1 C 0 km/h
2842 23-09-2009 16:42:02 26.4 C 8.71 g/m*3 26.4 C 0 km/h
2843 23-09-2009 16:54:01 27.5 C 8.2 g/m*3 27.5 C 0 km/h
2844 23-09-2009 17:06:02 27.6 C 8.25 g/m*3 27.6 C 0 km/h
2845 23-09-2009 17:18:01 26.2 C 8.62 g/m*3 26.2 C 0 km/h
2846 23-09-2009 17:30:01 25.3 C 9.13 g/m*3 25.3 C 0 km/h
2847 23-09-2009 17:42:02 24.5 C 9.4 g/m*3 24.5 C 0 km/h
2848 23-09-2009 17:54:02 23.7 C 9.63 g/m*3 23.7 C 0 km/h
2849 23-09-2009 18:06:02 23.7 C 9.84 g/m*3 23.7 C 0 km/h
2850 23-09-2009 18:18:01 24 C 9.36 g/m*3 24 C 0 km/h
Sensor: Nr:Datum:Temp:Abs-Feuchte:Windchill:Wind:
Aussen-T/F 2851 23-09-2009 18:30:01 24 C 9.57 g/m*3 24 C 0 km/h
2852 23-09-2009 18:42:02 23.8 C 9.68 g/m*3 23.8 C 0 km/h
2853 23-09-2009 18:54:02 23 C 9.66 g/m*3 23 C 0 km/h
2854 23-09-2009 19:06:02 21.6 C 9.48 g/m*3 21.6 C 0 km/h
2855 23-09-2009 19:18:02 21.1 C 9.58 g/m*3 21.1 C 0 km/h
2856 23-09-2009 19:30:02 20.8 C 9.78 g/m*3 20.8 C 0 km/h
2857 23-09-2009 19:42:02 20.3 C 9.67 g/m*3 20.3 C 0 km/h
2858 23-09-2009 19:54:01 20 C 9.85 g/m*3 20 C 0 km/h
2859 23-09-2009 20:06:02 19.7 C 10.02 g/m*3 19.7 C 0 km/h
2860 23-09-2009 20:18:01 19.4 C 9.84 g/m*3 19.4 C 0 km/h
2861 23-09-2009 20:30:01 19.1 C 10 g/m*3 19.1 C 0 km/h
2862 23-09-2009 20:42:01 18.7 C 10.09 g/m*3 18.7 C 0 km/h
2863 23-09-2009 20:54:01 18.4 C 10.07 g/m*3 18.4 C 0 km/h
2864 23-09-2009 21:06:02 18.4 C 10.22 g/m*3 18.4 C 0 km/h
2865 23-09-2009 21:18:01 18.6 C 10.19 g/m*3 18.6 C 0 km/h
2866 23-09-2009 21:30:01 18.5 C 10.13 g/m*3 18.5 C 0 km/h
2867 23-09-2009 21:42:01 18.3 C 10.16 g/m*3 18.3 C 0 km/h
2868 23-09-2009 21:54:01 18 C 10.14 g/m*3 18 C 0 km/h
2869 23-09-2009 22:06:02 17.9 C 10.23 g/m*3 17.9 C 0 km/h
2870 23-09-2009 22:18:01 18.2 C 10.26 g/m*3 18.2 C 0 km/h
2871 23-09-2009 22:30:01 18.2 C 10.1 g/m*3 18.2 C 0 km/h
2872 23-09-2009 22:42:02 18.2 C 10.26 g/m*3 18.2 C 0 km/h
2873 23-09-2009 22:54:02 18.3 C 10.32 g/m*3 18.3 C 0 km/h
2874 23-09-2009 23:06:02 18.2 C 10.26 g/m*3 18.2 C 0 km/h
2875 23-09-2009 23:18:02 18.1 C 10.35 g/m*3 18.1 C 0 km/h
Sensor: Nr:Datum:Temp:Abs-Feuchte:Windchill:Wind:
Aussen-T/F 2876 23-09-2009 23:30:02 18.1 C 10.35 g/m*3 18.1 C 0 km/h
2877 23-09-2009 23:42:02 18 C 10.29 g/m*3 18 C 0 km/h
2878 23-09-2009 23:54:02 17.8 C 10.47 g/m*3 17.8 C 0 km/h
2879 24-09-2009 00:06:02 17.6 C 10.5 g/m*3 17.6 C 0 km/h
2880 24-09-2009 00:18:02 17.6 C 10.5 g/m*3 17.6 C 0 km/h
2881 24-09-2009 00:30:02 17.5 C 10.44 g/m*3 17.5 C 0 km/h
2882 24-09-2009 00:42:02 17.2 C 10.4 g/m*3 17.2 C 0 km/h
2883 24-09-2009 00:54:01 16.9 C 10.5 g/m*3 16.9 C 0 km/h
2884 24-09-2009 01:06:02 16.7 C 10.37 g/m*3 16.7 C 0 km/h
2885 24-09-2009 01:18:01 16.8 C 10.58 g/m*3 16.8 C 0 km/h
2886 24-09-2009 01:30:01 16.8 C 10.58 g/m*3 16.8 C 0 km/h
2887 24-09-2009 01:42:01 16.8 C 10.58 g/m*3 16.8 C 0 km/h
2888 24-09-2009 01:54:01 16.6 C 10.59 g/m*3 16.6 C 0 km/h
2889 24-09-2009 02:06:02 16.6 C 10.59 g/m*3 16.6 C 0 km/h
2890 24-09-2009 02:18:01 16.6 C 10.59 g/m*3 16.6 C 0 km/h
2891 24-09-2009 02:30:01 16.6 C 10.59 g/m*3 16.6 C 0 km/h
2892 24-09-2009 02:42:02 16.5 C 10.67 g/m*3 16.5 C 0 km/h
2893 24-09-2009 02:55:03 16.5 C 10.67 g/m*3 16.5 C 0 km/h
2894 24-09-2009 03:07:03 16.6 C 10.59 g/m*3 16.6 C 0 km/h
2895 24-09-2009 03:19:03 16.6 C 10.59 g/m*3 16.6 C 0 km/h
2896 24-09-2009 03:31:01 16.3 C 10.54 g/m*3 16.3 C 0 km/h
2897 24-09-2009 03:43:01 16.1 C 10.55 g/m*3 16.1 C 0 km/h
2898 24-09-2009 03:55:01 16.2 C 10.62 g/m*3 16.2 C 0 km/h
2899 24-09-2009 04:07:02 16.3 C 10.68 g/m*3 16.3 C 0 km/h
2900 24-09-2009 04:19:01 16.4 C 10.75 g/m*3 16.4 C 0 km/h
Sensor: Nr:Datum:Temp:Abs-Feuchte:Windchill:Wind:
Aussen-T/F 2901 24-09-2009 04:31:02 16.4 C 10.75 g/m*3 16.4 C 0 km/h
2902 24-09-2009 04:43:03 16.4 C 10.61 g/m*3 16.4 C 0 km/h
2903 24-09-2009 04:55:02 16.4 C 10.61 g/m*3 16.4 C 0 km/h
2904 24-09-2009 05:07:02 16.4 C 10.61 g/m*3 16.4 C 0 km/h
2905 24-09-2009 05:19:01 16.2 C 10.62 g/m*3 16.2 C 0 km/h
2906 24-09-2009 05:31:02 16.2 C 10.62 g/m*3 16.2 C 0 km/h
2907 24-09-2009 05:43:02 16.2 C 10.76 g/m*3 16.2 C 0 km/h
2908 24-09-2009 05:55:02 16.3 C 10.82 g/m*3 16.3 C 0 km/h
2909 24-09-2009 06:07:02 16.3 C 10.68 g/m*3 16.3 C 0 km/h
2910 24-09-2009 06:19:01 16.2 C 10.62 g/m*3 16.2 C 0 km/h
2911 24-09-2009 06:31:02 16.2 C 10.62 g/m*3 16.2 C 0 km/h
2912 24-09-2009 06:43:02 16 C 10.63 g/m*3 16 C 0 km/h
2913 24-09-2009 06:55:02 16 C 10.63 g/m*3 16 C 0 km/h
2914 24-09-2009 07:07:02 15.9 C 10.7 g/m*3 15.9 C 0 km/h
2915 24-09-2009 07:19:01 15.9 C 10.7 g/m*3 15.9 C 0 km/h
2916 24-09-2009 07:31:02 16.1 C 10.69 g/m*3 16.1 C 0 km/h
2917 24-09-2009 07:43:02 16.2 C 10.76 g/m*3 16.2 C 0 km/h
2918 24-09-2009 07:55:02 16.2 C 10.76 g/m*3 16.2 C 0 km/h
2919 24-09-2009 08:07:02 16.2 C 10.62 g/m*3 16.2 C 0 km/h
2920 24-09-2009 08:19:02 16.1 C 10.55 g/m*3 16.1 C 0 km/h
2921 24-09-2009 08:31:02 16.2 C 10.62 g/m*3 16.2 C 0 km/h
2922 24-09-2009 08:43:02 16.3 C 10.68 g/m*3 16.3 C 0 km/h
2923 24-09-2009 08:55:01 16.5 C 10.81 g/m*3 16.5 C 0 km/h
2924 24-09-2009 09:07:02 16.6 C 10.74 g/m*3 16.6 C 0 km/h
2925 24-09-2009 09:19:02 16.5 C 10.67 g/m*3 16.5 C 0 km/h
Sensor: Nr:Datum:Temp:Abs-Feuchte:Windchill:Wind:
Aussen-T/F 2926 24-09-2009 09:31:02 16.6 C 10.74 g/m*3 16.6 C 0 km/h
2927 24-09-2009 09:43:02 16.8 C 10.58 g/m*3 16.8 C 0 km/h
2928 24-09-2009 09:55:01 16.9 C 10.64 g/m*3 16.9 C 0 km/h
2929 24-09-2009 10:07:02 16.9 C 10.64 g/m*3 16.9 C 0 km/h
2930 24-09-2009 10:19:01 17.1 C 10.77 g/m*3 17.1 C 0 km/h
2931 24-09-2009 10:31:02 17.3 C 10.75 g/m*3 17.3 C 0 km/h
2932 24-09-2009 10:43:02 17.8 C 10.93 g/m*3 17.8 C 0 km/h
2933 24-09-2009 10:55:02 18.1 C 10.66 g/m*3 18.1 C 0 km/h
2934 24-09-2009 11:07:02 18.4 C 10.7 g/m*3 18.4 C 0 km/h
2935 24-09-2009 11:19:02 18.6 C 10.82 g/m*3 18.6 C 0 km/h
2936 24-09-2009 11:31:02 19.3 C 10.62 g/m*3 19.3 C 0 km/h
2937 24-09-2009 11:43:03 19.7 C 10.36 g/m*3 19.7 C 0 km/h
2938 24-09-2009 11:55:02 20.1 C 10.43 g/m*3 20.1 C 0 km/h
2939 24-09-2009 12:07:02 20.1 C 10.08 g/m*3 20.1 C 0 km/h
2940 24-09-2009 12:19:02 19.9 C 10.48 g/m*3 19.9 C 0 km/h
2941 24-09-2009 12:31:02 19.5 C 10.41 g/m*3 19.5 C 0 km/h
2942 24-09-2009 12:43:02 19.9 C 10.65 g/m*3 19.9 C 0 km/h
2943 24-09-2009 12:55:01 20.6 C 10.56 g/m*3 20.6 C 0 km/h
2944 24-09-2009 13:07:01 20.9 C 10.38 g/m*3 20.9 C 0 km/h
2945 24-09-2009 13:19:01 19.4 C 10.34 g/m*3 19.4 C 0 km/h
2946 24-09-2009 13:31:01 17.7 C 11.16 g/m*3 17.7 C 0 km/h
2947 24-09-2009 13:43:01 17.5 C 11.33 g/m*3 17.5 C 0 km/h
2948 24-09-2009 13:55:01 17.6 C 11.4 g/m*3 17.6 C 0 km/h
2949 24-09-2009 14:07:01 18.1 C 10.97 g/m*3 18.1 C 0 km/h
2950 24-09-2009 14:19:01 18.5 C 10.6 g/m*3 18.5 C 0 km/h
Sensor: Nr:Datum:Temp:Abs-Feuchte:Windchill:Wind:
Aussen-T/F 2951 24-09-2009 14:31:01 18.7 C 10.25 g/m*3 18.7 C 0 km/h
2952 24-09-2009 14:43:01 19.4 C 10.51 g/m*3 19.4 C 0 km/h
2953 24-09-2009 14:55:01 19.8 C 10.08 g/m*3 19.8 C 0 km/h
2954 24-09-2009 15:07:01 20.3 C 10.02 g/m*3 20.3 C 0 km/h
2955 24-09-2009 15:19:02 20.2 C 9.97 g/m*3 20.2 C 0 km/h
2956 24-09-2009 15:31:01 19.7 C 9.85 g/m*3 19.7 C 0 km/h
2957 24-09-2009 15:43:01 19.4 C 10.01 g/m*3 19.4 C 0 km/h
2958 24-09-2009 15:55:01 19.7 C 10.02 g/m*3 19.7 C 0 km/h
2959 24-09-2009 16:07:01 19.7 C 9.51 g/m*3 19.7 C 0 km/h
2960 24-09-2009 16:19:02 19.6 C 9.96 g/m*3 19.6 C 0 km/h
2961 24-09-2009 16:31:01 19.5 C 9.9 g/m*3 19.5 C 0 km/h
2962 24-09-2009 16:43:01 19.5 C 9.73 g/m*3 19.5 C 0 km/h
2963 24-09-2009 16:55:02 19 C 9.61 g/m*3 19 C 0 km/h
2964 24-09-2009 17:07:02 19 C 9.78 g/m*3 19 C 0 km/h
2965 24-09-2009 17:19:03 18.8 C 9.66 g/m*3 18.8 C 0 km/h
2966 24-09-2009 17:31:02 18.5 C 9.81 g/m*3 18.5 C 0 km/h
2967 24-09-2009 17:43:02 18.5 C 9.97 g/m*3 18.5 C 0 km/h
2968 24-09-2009 17:55:03 18.5 C 10.13 g/m*3 18.5 C 0 km/h
2969 24-09-2009 18:07:02 18.6 C 10.35 g/m*3 18.6 C 0 km/h
2970 24-09-2009 18:19:02 18.5 C 10.28 g/m*3 18.5 C 0 km/h
2971 24-09-2009 18:31:02 18.5 C 10.13 g/m*3 18.5 C 0 km/h
2972 24-09-2009 18:43:02 18.2 C 9.79 g/m*3 18.2 C 0 km/h
2973 24-09-2009 18:55:02 18.3 C 10.01 g/m*3 18.3 C 0 km/h
2974 24-09-2009 19:07:02 17.9 C 9.77 g/m*3 17.9 C 0 km/h
2975 24-09-2009 19:19:02 17.7 C 9.66 g/m*3 17.7 C 0 km/h
Sensor: Nr:Datum:Temp:Abs-Feuchte:Windchill:Wind:
Aussen-T/F 2976 24-09-2009 19:31:02 17.6 C 9.6 g/m*3 17.6 C 0 km/h
2977 24-09-2009 19:43:02 17.4 C 9.63 g/m*3 17.4 C 0 km/h
2978 24-09-2009 19:55:02 17.2 C 9.67 g/m*3 17.2 C 0 km/h
2979 24-09-2009 20:07:01 16.9 C 9.92 g/m*3 16.9 C 0 km/h
2980 24-09-2009 20:19:02 16.6 C 10.03 g/m*3 16.6 C 0 km/h
2981 24-09-2009 20:31:02 16.4 C 10.05 g/m*3 16.4 C 0 km/h
2982 24-09-2009 20:43:02 16.1 C 10.01 g/m*3 16.1 C 0 km/h
2983 24-09-2009 20:55:02 15.7 C 10.03 g/m*3 15.7 C 0 km/h
2984 24-09-2009 21:07:01 15.5 C 10.05 g/m*3 15.5 C 0 km/h
2985 24-09-2009 21:19:02 15.5 C 10.18 g/m*3 15.5 C 0 km/h
2986 24-09-2009 21:31:01 15.3 C 10.19 g/m*3 15.3 C 0 km/h
2987 24-09-2009 21:43:01 15 C 10.13 g/m*3 15 C 0 km/h
2988 24-09-2009 21:55:03 14.8 C 10.26 g/m*3 14.8 C 0 km/h
2989 24-09-2009 22:08:03 14.8 C 10.39 g/m*3 14.8 C 0 km/h
2990 24-09-2009 22:20:03 14.7 C 10.32 g/m*3 14.7 C 0 km/h
2991 24-09-2009 22:32:03 14.3 C 10.2 g/m*3 14.3 C 0 km/h
2992 24-09-2009 22:44:03 14.1 C 10.07 g/m*3 14.1 C 0 km/h
2993 24-09-2009 22:56:04 14 C 10.01 g/m*3 14 C 0 km/h
2994 24-09-2009 23:08:04 14 C 10.13 g/m*3 14 C 0 km/h
2995 24-09-2009 23:20:04 14 C 10.13 g/m*3 14 C 0 km/h
2996 24-09-2009 23:32:04 13.8 C 10.13 g/m*3 13.8 C 0 km/h
2997 24-09-2009 23:44:04 13.4 C 9.88 g/m*3 13.4 C 0 km/h
2998 24-09-2009 23:56:04 13.2 C 9.76 g/m*3 13.2 C 0 km/h
2999 25-09-2009 00:08:04 13 C 9.64 g/m*3 13 C 0 km/h
3000 25-09-2009 00:20:04 12.8 C 9.63 g/m*3 12.8 C 0 km/h
Sensor: Nr:Datum:Temp:Abs-Feuchte:Windchill:Wind:
Aussen-T/F 3001 25-09-2009 00:32:04 12.7 C 9.57 g/m*3 12.7 C 0 km/h
3002 25-09-2009 00:44:04 12.5 C 9.57 g/m*3 12.5 C 0 km/h
3003 25-09-2009 00:56:04 12.4 C 9.51 g/m*3 12.4 C 0 km/h
3004 25-09-2009 01:08:04 12.3 C 9.45 g/m*3 12.3 C 0 km/h
3005 25-09-2009 01:20:04 12.5 C 9.68 g/m*3 12.5 C 0 km/h
3006 25-09-2009 01:32:04 12.6 C 9.74 g/m*3 12.6 C 0 km/h
3007 25-09-2009 01:44:04 12.6 C 9.74 g/m*3 12.6 C 0 km/h
3008 25-09-2009 01:56:04 12.7 C 9.8 g/m*3 12.7 C 0 km/h
3009 25-09-2009 02:08:04 12.8 C 9.74 g/m*3 12.8 C 0 km/h
3010 25-09-2009 02:20:04 12.8 C 9.74 g/m*3 12.8 C 0 km/h
3011 25-09-2009 02:32:04 12.8 C 9.63 g/m*3 12.8 C 0 km/h
3012 25-09-2009 02:44:04 12.7 C 9.57 g/m*3 12.7 C 0 km/h
3013 25-09-2009 02:56:04 12.5 C 9.57 g/m*3 12.5 C 0 km/h
3014 25-09-2009 03:08:05 12.4 C 9.51 g/m*3 12.4 C 0 km/h
3015 25-09-2009 03:20:05 12.2 C 9.39 g/m*3 12.2 C 0 km/h
3016 25-09-2009 03:32:05 12.3 C 9.56 g/m*3 12.3 C 0 km/h
3017 25-09-2009 03:44:05 12.3 C 9.56 g/m*3 12.3 C 0 km/h
3018 25-09-2009 03:56:05 12.4 C 9.62 g/m*3 12.4 C 0 km/h
3019 25-09-2009 04:08:05 12.3 C 9.56 g/m*3 12.3 C 0 km/h
3020 25-09-2009 04:20:05 11.8 C 9.26 g/m*3 11.8 C 0 km/h
3021 25-09-2009 04:32:05 11.7 C 9.2 g/m*3 11.7 C 0 km/h
3022 25-09-2009 04:44:05 11.7 C 9.31 g/m*3 11.7 C 0 km/h
3023 25-09-2009 04:56:05 11.5 C 9.19 g/m*3 11.5 C 0 km/h
3024 25-09-2009 05:08:05 11.2 C 9.02 g/m*3 11.2 C 0 km/h
3025 25-09-2009 05:20:05 11.1 C 8.96 g/m*3 11.1 C 0 km/h
Sensor: Nr:Datum:Temp:Abs-Feuchte:Windchill:Wind:
Aussen-T/F 3026 25-09-2009 05:32:05 11.1 C 9.07 g/m*3 11.1 C 0 km/h
3027 25-09-2009 05:44:05 11 C 9.01 g/m*3 11 C 0 km/h
3028 25-09-2009 05:56:05 10.8 C 8.9 g/m*3 10.8 C 0 km/h
3029 25-09-2009 06:08:05 10.8 C 8.99 g/m*3 10.8 C 0 km/h
3030 25-09-2009 06:20:05 10.9 C 9.05 g/m*3 10.9 C 0 km/h
3031 25-09-2009 06:32:05 11 C 9.01 g/m*3 11 C 0 km/h
3032 25-09-2009 06:44:05 10.9 C 8.95 g/m*3 10.9 C 0 km/h
3033 25-09-2009 06:56:05 10.9 C 8.95 g/m*3 10.9 C 0 km/h
3034 25-09-2009 07:08:06 11.1 C 8.96 g/m*3 11.1 C 0 km/h
3035 25-09-2009 07:20:06 11.1 C 8.96 g/m*3 11.1 C 0 km/h
3036 25-09-2009 07:32:04 11 C 8.91 g/m*3 11 C 0 km/h
3037 25-09-2009 07:44:04 10.9 C 8.95 g/m*3 10.9 C 0 km/h
3038 25-09-2009 07:56:02 11.1 C 9.07 g/m*3 11.1 C 0 km/h
3039 25-09-2009 08:08:02 11.3 C 9.18 g/m*3 11.3 C 0 km/h
3040 25-09-2009 08:20:02 11.4 C 9.14 g/m*3 11.4 C 0 km/h
3041 25-09-2009 08:32:02 11.6 C 9.25 g/m*3 11.6 C 0 km/h
3042 25-09-2009 08:44:02 11.9 C 9.43 g/m*3 11.9 C 0 km/h
3043 25-09-2009 08:56:02 11.8 C 9.16 g/m*3 11.8 C 0 km/h
3044 25-09-2009 09:08:01 11.9 C 9.21 g/m*3 11.9 C 0 km/h
3045 25-09-2009 09:20:01 12.4 C 9.4 g/m*3 12.4 C 0 km/h
3046 25-09-2009 09:32:02 12.7 C 9.35 g/m*3 12.7 C 0 km/h
3047 25-09-2009 09:44:02 13.2 C 9.42 g/m*3 13.2 C 0 km/h
3048 25-09-2009 09:56:02 13.4 C 9.18 g/m*3 13.4 C 0 km/h
3049 25-09-2009 10:08:02 14 C 9.17 g/m*3 14 C 0 km/h
3050 25-09-2009 10:20:02 14.1 C 8.86 g/m*3 14.1 C 0 km/h
Sensor: Nr:Datum:Temp:Abs-Feuchte:Windchill:Wind:
Aussen-T/F 3051 25-09-2009 10:32:02 14.3 C 8.85 g/m*3 14.3 C 0 km/h
3052 25-09-2009 10:44:02 14.4 C 8.65 g/m*3 14.4 C 0 km/h
3053 25-09-2009 10:56:02 14.6 C 8.76 g/m*3 14.6 C 0 km/h
3054 25-09-2009 11:08:02 14.7 C 8.69 g/m*3 14.7 C 0 km/h
3055 25-09-2009 11:20:01 15 C 8.59 g/m*3 15 C 0 km/h
3056 25-09-2009 11:32:02 15 C 8.72 g/m*3 15 C 0 km/h
3057 25-09-2009 11:44:02 15 C 8.85 g/m*3 15 C 0 km/h
3058 25-09-2009 11:56:02 15.5 C 8.99 g/m*3 15.5 C 0 km/h
3059 25-09-2009 12:08:02 15.7 C 8.83 g/m*3 15.7 C 0 km/h
3060 25-09-2009 12:20:02 16.3 C 8.74 g/m*3 16.3 C 0 km/h
3061 25-09-2009 12:32:02 16.6 C 8.9 g/m*3 16.6 C 0 km/h
3062 25-09-2009 12:44:02 16.9 C 8.77 g/m*3 16.9 C 0 km/h
3063 25-09-2009 12:56:03 17.7 C 8.6 g/m*3 17.7 C 0 km/h
3064 25-09-2009 13:08:02 18.2 C 8.24 g/m*3 18.2 C 0 km/h
3065 25-09-2009 13:20:02 18.8 C 8.37 g/m*3 18.8 C 0 km/h
3066 25-09-2009 13:32:02 19.4 C 7.67 g/m*3 19.4 C 0 km/h
3067 25-09-2009 13:44:02 20 C 7.09 g/m*3 20 C 0 km/h
3068 25-09-2009 13:56:02 20.9 C 7.1 g/m*3 20.9 C 0 km/h
3069 25-09-2009 14:08:02 21 C 5.86 g/m*3 21 C 0 km/h
3070 25-09-2009 14:20:01 21.3 C 6.15 g/m*3 21.3 C 0 km/h
3071 25-09-2009 14:32:02 22.7 C 6.26 g/m*3 22.7 C 0 km/h
3072 25-09-2009 14:44:02 22.1 C 6.05 g/m*3 22.1 C 0 km/h
3073 25-09-2009 14:56:02 21.5 C 6.6 g/m*3 21.5 C 0 km/h
3074 25-09-2009 15:08:02 20.4 C 6.55 g/m*3 20.4 C 0 km/h
3075 25-09-2009 15:20:02 20.5 C 7.12 g/m*3 20.5 C 0 km/h
Sensor: Nr:Datum:Temp:Abs-Feuchte:Windchill:Wind:
Aussen-T/F 3076 25-09-2009 15:32:02 22.1 C 6.44 g/m*3 22.1 C 0 km/h
3077 25-09-2009 15:44:02 23.1 C 5.58 g/m*3 23.1 C 0 km/h
3078 25-09-2009 15:56:02 21.1 C 5.53 g/m*3 21.1 C 0 km/h
3079 25-09-2009 16:08:02 21.3 C 5.96 g/m*3 21.3 C 0 km/h
3080 25-09-2009 16:20:02 21.2 C 6.12 g/m*3 21.2 C 0 km/h
3081 25-09-2009 16:32:02 20.4 C 6.37 g/m*3 20.4 C 0 km/h
3082 25-09-2009 16:44:02 20.5 C 6.41 g/m*3 20.5 C 0 km/h
3083 25-09-2009 16:56:02 21.4 C 6.19 g/m*3 21.4 C 0 km/h
3084 25-09-2009 17:08:02 20.8 C 5.98 g/m*3 20.8 C 0 km/h
3085 25-09-2009 17:20:02 21.5 C 6.22 g/m*3 21.5 C 0 km/h
3086 25-09-2009 17:32:02 21.5 C 6.41 g/m*3 21.5 C 0 km/h
3087 25-09-2009 17:44:02 20.8 C 6.7 g/m*3 20.8 C 0 km/h
3088 25-09-2009 17:56:01 20 C 6.91 g/m*3 20 C 0 km/h
3089 25-09-2009 18:08:01 19.9 C 7.39 g/m*3 19.9 C 0 km/h
3090 25-09-2009 18:20:02 19.5 C 7.55 g/m*3 19.5 C 0 km/h
3091 25-09-2009 18:32:01 19.1 C 7.38 g/m*3 19.1 C 0 km/h
3092 25-09-2009 18:44:01 18.6 C 7.48 g/m*3 18.6 C 0 km/h
3093 25-09-2009 18:56:02 18.4 C 7.55 g/m*3 18.4 C 0 km/h
3094 25-09-2009 19:08:02 17.8 C 7.44 g/m*3 17.8 C 0 km/h
3095 25-09-2009 19:20:03 17 C 7.23 g/m*3 17 C 0 km/h
3096 25-09-2009 19:32:02 16.8 C 7.43 g/m*3 16.8 C 0 km/h
3097 25-09-2009 19:44:02 16.5 C 7.44 g/m*3 16.5 C 0 km/h
3098 25-09-2009 19:56:03 16.2 C 7.31 g/m*3 16.2 C 0 km/h
3099 25-09-2009 20:08:02 16 C 7.49 g/m*3 16 C 0 km/h
3100 25-09-2009 20:20:02 15.6 C 7.45 g/m*3 15.6 C 0 km/h
Sensor: Nr:Datum:Temp:Abs-Feuchte:Windchill:Wind:
Aussen-T/F 3101 25-09-2009 20:32:02 15.2 C 7.53 g/m*3 15.2 C 0 km/h
3102 25-09-2009 20:44:02 15.1 C 7.61 g/m*3 15.1 C 0 km/h
3103 25-09-2009 20:56:02 15.3 C 7.7 g/m*3 15.3 C 0 km/h
3104 25-09-2009 21:08:02 15.5 C 7.93 g/m*3 15.5 C 0 km/h
3105 25-09-2009 21:20:02 15.5 C 8.06 g/m*3 15.5 C 0 km/h
3106 25-09-2009 21:32:02 15.6 C 8.11 g/m*3 15.6 C 0 km/h
3107 25-09-2009 21:44:02 15.4 C 8.01 g/m*3 15.4 C 0 km/h
3108 25-09-2009 21:56:02 15.1 C 8 g/m*3 15.1 C 0 km/h
3109 25-09-2009 22:08:02 14.9 C 8.03 g/m*3 14.9 C 0 km/h
3110 25-09-2009 22:21:03 14.6 C 8.01 g/m*3 14.6 C 0 km/h
3111 25-09-2009 22:33:03 14.3 C 7.86 g/m*3 14.3 C 0 km/h
3112 25-09-2009 22:45:03 13.9 C 7.91 g/m*3 13.9 C 0 km/h
3113 25-09-2009 22:57:03 13.7 C 7.93 g/m*3 13.7 C 0 km/h
3114 25-09-2009 23:09:03 13.3 C 7.97 g/m*3 13.3 C 0 km/h
3115 25-09-2009 23:21:03 13.1 C 7.99 g/m*3 13.1 C 0 km/h
3116 25-09-2009 23:33:03 13 C 8.05 g/m*3 13 C 0 km/h
3117 25-09-2009 23:45:03 12.7 C 8.13 g/m*3 12.7 C 0 km/h
3118 25-09-2009 23:57:03 12.6 C 8.08 g/m*3 12.6 C 0 km/h
3119 26-09-2009 00:09:03 12.4 C 8.09 g/m*3 12.4 C 0 km/h
3120 26-09-2009 00:21:03 12.1 C 7.94 g/m*3 12.1 C 0 km/h
3121 26-09-2009 00:33:03 12.1 C 8.04 g/m*3 12.1 C 0 km/h
3122 26-09-2009 00:45:03 11.8 C 8.1 g/m*3 11.8 C 0 km/h
3123 26-09-2009 00:57:03 11.8 C 8.1 g/m*3 11.8 C 0 km/h
3124 26-09-2009 01:09:03 11.7 C 8.05 g/m*3 11.7 C 0 km/h
3125 26-09-2009 01:21:03 11.6 C 8.11 g/m*3 11.6 C 0 km/h
Sensor: Nr:Datum:Temp:Abs-Feuchte:Windchill:Wind:
Aussen-T/F 3126 26-09-2009 01:33:03 11.7 C 8.16 g/m*3 11.7 C 0 km/h
3127 26-09-2009 01:45:03 11.5 C 8.06 g/m*3 11.5 C 0 km/h
3128 26-09-2009 01:57:03 11.2 C 7.91 g/m*3 11.2 C 0 km/h
3129 26-09-2009 02:09:04 11.1 C 7.86 g/m*3 11.1 C 0 km/h
3130 26-09-2009 02:21:04 10.9 C 7.86 g/m*3 10.9 C 0 km/h
3131 26-09-2009 02:33:04 10.7 C 7.86 g/m*3 10.7 C 0 km/h
3132 26-09-2009 02:45:04 10.6 C 7.81 g/m*3 10.6 C 0 km/h
3133 26-09-2009 02:57:04 10.4 C 7.81 g/m*3 10.4 C 0 km/h
3134 26-09-2009 03:09:04 10.1 C 7.66 g/m*3 10.1 C 0 km/h
3135 26-09-2009 03:21:04 10 C 7.61 g/m*3 10 C 0 km/h
3136 26-09-2009 03:33:04 9.8 C 7.61 g/m*3 9.8 C 0 km/h
3137 26-09-2009 03:45:04 9.7 C 7.65 g/m*3 9.7 C 0 km/h
3138 26-09-2009 03:57:04 9.5 C 7.55 g/m*3 9.5 C 0 km/h
3139 26-09-2009 04:09:04 9.3 C 7.55 g/m*3 9.3 C 0 km/h
3140 26-09-2009 04:21:04 9.2 C 7.5 g/m*3 9.2 C 0 km/h
3141 26-09-2009 04:33:04 9.1 C 7.54 g/m*3 9.1 C 0 km/h
3142 26-09-2009 04:45:04 9 C 7.49 g/m*3 9 C 0 km/h
3143 26-09-2009 04:57:04 8.8 C 7.57 g/m*3 8.8 C 0 km/h
3144 26-09-2009 05:09:04 8.7 C 7.52 g/m*3 8.7 C 0 km/h
3145 26-09-2009 05:21:04 8.6 C 7.48 g/m*3 8.6 C 0 km/h
3146 26-09-2009 05:33:04 8.5 C 7.43 g/m*3 8.5 C 0 km/h
3147 26-09-2009 05:45:04 8.4 C 7.3 g/m*3 8.4 C 0 km/h
3148 26-09-2009 05:57:04 8.2 C 7.29 g/m*3 8.2 C 0 km/h
3149 26-09-2009 06:09:05 8 C 7.19 g/m*3 8 C 0 km/h
3150 26-09-2009 06:21:05 7.8 C 7.26 g/m*3 7.8 C 0 km/h
Sensor: Nr:Datum:Temp:Abs-Feuchte:Windchill:Wind:
Aussen-T/F 3151 26-09-2009 06:33:05 7.8 C 7.26 g/m*3 7.8 C 0 km/h
3152 26-09-2009 06:45:05 7.8 C 7.26 g/m*3 7.8 C 0 km/h
3153 26-09-2009 06:57:05 7.8 C 7.35 g/m*3 7.8 C 0 km/h
3154 26-09-2009 07:09:05 7.9 C 7.39 g/m*3 7.9 C 0 km/h
3155 26-09-2009 07:21:05 7.9 C 7.39 g/m*3 7.9 C 0 km/h
3156 26-09-2009 07:33:05 7.9 C 7.39 g/m*3 7.9 C 0 km/h
3157 26-09-2009 07:45:05 8.1 C 7.41 g/m*3 8.1 C 0 km/h
3158 26-09-2009 07:57:05 7.9 C 7.39 g/m*3 7.9 C 0 km/h
3159 26-09-2009 08:09:05 7.8 C 7.43 g/m*3 7.8 C 0 km/h
3160 26-09-2009 08:21:05 7.9 C 7.47 g/m*3 7.9 C 0 km/h
3161 26-09-2009 08:33:05 8 C 7.44 g/m*3 8 C 0 km/h
3162 26-09-2009 08:45:02 8.1 C 7.49 g/m*3 8.1 C 0 km/h
3163 26-09-2009 08:57:02 8.5 C 7.77 g/m*3 8.5 C 0 km/h
3164 26-09-2009 09:09:03 8.7 C 7.78 g/m*3 8.7 C 0 km/h
3165 26-09-2009 09:21:02 9.1 C 7.9 g/m*3 9.1 C 0 km/h
3166 26-09-2009 09:33:02 9.2 C 7.95 g/m*3 9.2 C 0 km/h
3167 26-09-2009 09:45:01 9.5 C 8.1 g/m*3 9.5 C 0 km/h
3168 26-09-2009 09:57:01 9.9 C 8.31 g/m*3 9.9 C 0 km/h
3169 26-09-2009 10:09:02 10.2 C 8.37 g/m*3 10.2 C 0 km/h
3170 26-09-2009 10:21:01 10.9 C 8.65 g/m*3 10.9 C 0 km/h
3171 26-09-2009 10:33:02 11.1 C 8.36 g/m*3 11.1 C 0 km/h
3172 26-09-2009 10:45:01 11.2 C 8.41 g/m*3 11.2 C 0 km/h
3173 26-09-2009 10:57:01 11.7 C 8.79 g/m*3 11.7 C 0 km/h
3174 26-09-2009 11:09:02 12.2 C 8.85 g/m*3 12.2 C 0 km/h
3175 26-09-2009 11:21:01 12.8 C 8.85 g/m*3 12.8 C 0 km/h
Sensor: Nr:Datum:Temp:Abs-Feuchte:Windchill:Wind:
Aussen-T/F 3176 26-09-2009 11:33:02 13.4 C 8.72 g/m*3 13.4 C 0 km/h
3177 26-09-2009 11:45:02 14.1 C 8.86 g/m*3 14.1 C 0 km/h
3178 26-09-2009 11:57:02 14.7 C 8.81 g/m*3 14.7 C 0 km/h
3179 26-09-2009 12:09:02 15.2 C 8.83 g/m*3 15.2 C 0 km/h
3180 26-09-2009 12:21:01 15.6 C 8.64 g/m*3 15.6 C 0 km/h
3181 26-09-2009 12:33:02 16.1 C 8.5 g/m*3 16.1 C 0 km/h
3182 26-09-2009 12:45:02 16.4 C 8.65 g/m*3 16.4 C 0 km/h
3183 26-09-2009 12:57:02 17.1 C 8.73 g/m*3 17.1 C 0 km/h
3184 26-09-2009 13:09:02 17.6 C 8.85 g/m*3 17.6 C 0 km/h
3185 26-09-2009 13:21:02 18.2 C 8.39 g/m*3 18.2 C 0 km/h
3186 26-09-2009 13:33:02 18.9 C 8.1 g/m*3 18.9 C 0 km/h
3187 26-09-2009 13:45:01 19.7 C 7.81 g/m*3 19.7 C 0 km/h
3188 26-09-2009 13:57:01 20.4 C 8.14 g/m*3 20.4 C 0 km/h
3189 26-09-2009 14:09:02 20.9 C 7.29 g/m*3 20.9 C 0 km/h
3190 26-09-2009 14:21:02 21.1 C 6.82 g/m*3 21.1 C 0 km/h
3191 26-09-2009 14:33:02 21.9 C 6.95 g/m*3 21.9 C 0 km/h
3192 26-09-2009 14:45:02 22.7 C 7.07 g/m*3 22.7 C 0 km/h
3193 26-09-2009 14:57:02 23 C 6.37 g/m*3 23 C 0 km/h
3194 26-09-2009 15:09:01 23.4 C 6.52 g/m*3 23.4 C 0 km/h
3195 26-09-2009 15:21:02 23.8 C 6.45 g/m*3 23.8 C 0 km/h
3196 26-09-2009 15:33:01 24.1 C 6.56 g/m*3 24.1 C 0 km/h
3197 26-09-2009 15:45:02 23.9 C 6.06 g/m*3 23.9 C 0 km/h
3198 26-09-2009 15:57:02 24 C 5.87 g/m*3 24 C 0 km/h
3199 26-09-2009 16:09:01 24.2 C 5.94 g/m*3 24.2 C 0 km/h
3200 26-09-2009 16:21:02 24.4 C 6.68 g/m*3 24.4 C 0 km/h
Sensor: Nr:Datum:Temp:Abs-Feuchte:Windchill:Wind:
Aussen-T/F 3201 26-09-2009 16:33:02 24.7 C 5.88 g/m*3 24.7 C 0 km/h
3202 26-09-2009 16:45:02 24.7 C 6.11 g/m*3 24.7 C 0 km/h
3203 26-09-2009 16:57:03 25.7 C 6.46 g/m*3 25.7 C 0 km/h
3204 26-09-2009 17:09:02 25.6 C 6.19 g/m*3 25.6 C 0 km/h
3205 26-09-2009 17:21:02 26 C 6.33 g/m*3 26 C 0 km/h
3206 26-09-2009 17:33:02 25.7 C 6.94 g/m*3 25.7 C 0 km/h
3207 26-09-2009 17:45:02 25.5 C 7.1 g/m*3 25.5 C 0 km/h
3208 26-09-2009 17:57:02 25 C 6.91 g/m*3 25 C 0 km/h
3209 26-09-2009 18:09:02 24.5 C 6.94 g/m*3 24.5 C 0 km/h
3210 26-09-2009 18:21:01 23.7 C 7.06 g/m*3 23.7 C 0 km/h
3211 26-09-2009 18:33:02 22.7 C 7.07 g/m*3 22.7 C 0 km/h
3212 26-09-2009 18:45:02 22 C 7.18 g/m*3 22 C 0 km/h
3213 26-09-2009 18:57:02 21.1 C 7.19 g/m*3 21.1 C 0 km/h
3214 26-09-2009 19:09:02 20 C 7.26 g/m*3 20 C 0 km/h
3215 26-09-2009 19:21:02 19.1 C 7.38 g/m*3 19.1 C 0 km/h
3216 26-09-2009 19:33:02 18.3 C 7.35 g/m*3 18.3 C 0 km/h
3217 26-09-2009 19:45:02 17.8 C 7.44 g/m*3 17.8 C 0 km/h
3218 26-09-2009 19:57:02 17.2 C 7.47 g/m*3 17.2 C 0 km/h
3219 26-09-2009 20:09:02 17.1 C 7.57 g/m*3 17.1 C 0 km/h
3220 26-09-2009 20:21:02 16.7 C 7.53 g/m*3 16.7 C 0 km/h
3221 26-09-2009 20:33:02 16.2 C 7.58 g/m*3 16.2 C 0 km/h
3222 26-09-2009 20:45:01 16 C 7.49 g/m*3 16 C 0 km/h
3223 26-09-2009 20:57:01 15.8 C 7.67 g/m*3 15.8 C 0 km/h
3224 26-09-2009 21:09:02 15.5 C 7.67 g/m*3 15.5 C 0 km/h
3225 26-09-2009 21:21:01 15.3 C 7.57 g/m*3 15.3 C 0 km/h
Sensor: Nr:Datum:Temp:Abs-Feuchte:Windchill:Wind:
Aussen-T/F 3226 26-09-2009 21:33:01 14.9 C 7.65 g/m*3 14.9 C 0 km/h
3227 26-09-2009 21:45:01 14.7 C 7.81 g/m*3 14.7 C 0 km/h
3228 26-09-2009 21:57:01 14.5 C 7.71 g/m*3 14.5 C 0 km/h